<?xml version="1.0" encoding="UTF-8" standalone="no" ?>
<gpx xmlns="http://www.topografix.com/GPX/1/1" xmlns:xsi="http://www.w3.org/2001/XMLSchema-instance" xsi:schemaLocation="http://www.topografix.com/GPX/1/1 http://www.topografix.com/GPX/1/1/gpx.xsd" version="1.1" creator="VisuGPX - https://www.visugpx.com">
  <metadata>
    <name>Vallon de Valtorte</name>
    <desc><![CDATA[Début de parcours VTT sympathique au départ de Seillons. La dernière boucle dans la vallon de Valtorte est jolie à pieds, mais à éviter absolument en VTT car impraticable (lit d'une rivière truffé de pierres)]]></desc>
  </metadata>
  <trk>
    <name><![CDATA[20180322221753-9ryDA]]></name>
    <trkseg>
      <trkpt lat="43.50363" lon="5.88697">
        <ele>309</ele>
        <time>2018-03-04T07:08:25Z</time>
      </trkpt>
      <trkpt lat="43.50364" lon="5.88672">
        <ele>309</ele>
        <time>2018-03-04T07:11:21Z</time>
      </trkpt>
      <trkpt lat="43.50378" lon="5.88654">
        <ele>311</ele>
        <time>2018-03-04T07:11:31Z</time>
      </trkpt>
      <trkpt lat="43.50393" lon="5.88638">
        <ele>312</ele>
        <time>2018-03-04T07:11:40Z</time>
      </trkpt>
      <trkpt lat="43.5041" lon="5.88628">
        <ele>313</ele>
        <time>2018-03-04T07:11:47Z</time>
      </trkpt>
      <trkpt lat="43.50428" lon="5.88619">
        <ele>317</ele>
        <time>2018-03-04T07:11:56Z</time>
      </trkpt>
      <trkpt lat="43.50445" lon="5.88609">
        <ele>317</ele>
        <time>2018-03-04T07:12:03Z</time>
      </trkpt>
      <trkpt lat="43.50463" lon="5.88595">
        <ele>317</ele>
        <time>2018-03-04T07:12:11Z</time>
      </trkpt>
      <trkpt lat="43.50479" lon="5.88583">
        <ele>318</ele>
        <time>2018-03-04T07:12:19Z</time>
      </trkpt>
      <trkpt lat="43.50497" lon="5.8857">
        <ele>318</ele>
        <time>2018-03-04T07:12:29Z</time>
      </trkpt>
      <trkpt lat="43.50514" lon="5.88555">
        <ele>321</ele>
        <time>2018-03-04T07:12:38Z</time>
      </trkpt>
      <trkpt lat="43.50529" lon="5.88541">
        <ele>322</ele>
        <time>2018-03-04T07:12:46Z</time>
      </trkpt>
      <trkpt lat="43.50542" lon="5.8852">
        <ele>322</ele>
        <time>2018-03-04T07:12:54Z</time>
      </trkpt>
      <trkpt lat="43.50555" lon="5.88504">
        <ele>322</ele>
        <time>2018-03-04T07:13:01Z</time>
      </trkpt>
      <trkpt lat="43.50571" lon="5.88487">
        <ele>324</ele>
        <time>2018-03-04T07:13:10Z</time>
      </trkpt>
      <trkpt lat="43.50587" lon="5.88471">
        <ele>323</ele>
        <time>2018-03-04T07:13:17Z</time>
      </trkpt>
      <trkpt lat="43.50603" lon="5.88459">
        <ele>324</ele>
        <time>2018-03-04T07:13:24Z</time>
      </trkpt>
      <trkpt lat="43.50621" lon="5.88459">
        <ele>324</ele>
        <time>2018-03-04T07:13:34Z</time>
      </trkpt>
      <trkpt lat="43.50638" lon="5.88451">
        <ele>324</ele>
        <time>2018-03-04T07:13:42Z</time>
      </trkpt>
      <trkpt lat="43.50658" lon="5.88444">
        <ele>323</ele>
        <time>2018-03-04T07:13:51Z</time>
      </trkpt>
      <trkpt lat="43.50675" lon="5.88435">
        <ele>325</ele>
        <time>2018-03-04T07:13:57Z</time>
      </trkpt>
      <trkpt lat="43.50687" lon="5.88417">
        <ele>325</ele>
        <time>2018-03-04T07:14:05Z</time>
      </trkpt>
      <trkpt lat="43.507" lon="5.88396">
        <ele>327</ele>
        <time>2018-03-04T07:14:14Z</time>
      </trkpt>
      <trkpt lat="43.50714" lon="5.88378">
        <ele>328</ele>
        <time>2018-03-04T07:14:24Z</time>
      </trkpt>
      <trkpt lat="43.50724" lon="5.88356">
        <ele>328</ele>
        <time>2018-03-04T07:14:33Z</time>
      </trkpt>
      <trkpt lat="43.50734" lon="5.88332">
        <ele>332</ele>
        <time>2018-03-04T07:14:41Z</time>
      </trkpt>
      <trkpt lat="43.50749" lon="5.88313">
        <ele>333</ele>
        <time>2018-03-04T07:14:48Z</time>
      </trkpt>
      <trkpt lat="43.50765" lon="5.883">
        <ele>334</ele>
        <time>2018-03-04T07:14:54Z</time>
      </trkpt>
      <trkpt lat="43.50783" lon="5.88294">
        <ele>335</ele>
        <time>2018-03-04T07:15:02Z</time>
      </trkpt>
      <trkpt lat="43.50803" lon="5.88301">
        <ele>335</ele>
        <time>2018-03-04T07:15:10Z</time>
      </trkpt>
      <trkpt lat="43.50818" lon="5.88313">
        <ele>334</ele>
        <time>2018-03-04T07:15:16Z</time>
      </trkpt>
      <trkpt lat="43.50825" lon="5.8834">
        <ele>330</ele>
        <time>2018-03-04T07:15:24Z</time>
      </trkpt>
      <trkpt lat="43.50824" lon="5.88366">
        <ele>329</ele>
        <time>2018-03-04T07:15:31Z</time>
      </trkpt>
      <trkpt lat="43.5083" lon="5.88391">
        <ele>329</ele>
        <time>2018-03-04T07:15:39Z</time>
      </trkpt>
      <trkpt lat="43.50847" lon="5.88404">
        <ele>332</ele>
        <time>2018-03-04T07:15:48Z</time>
      </trkpt>
      <trkpt lat="43.50863" lon="5.8842">
        <ele>335</ele>
        <time>2018-03-04T07:15:56Z</time>
      </trkpt>
      <trkpt lat="43.50878" lon="5.88433">
        <ele>336</ele>
        <time>2018-03-04T07:16:05Z</time>
      </trkpt>
      <trkpt lat="43.50895" lon="5.88447">
        <ele>337</ele>
        <time>2018-03-04T07:16:13Z</time>
      </trkpt>
      <trkpt lat="43.50909" lon="5.88463">
        <ele>339</ele>
        <time>2018-03-04T07:16:22Z</time>
      </trkpt>
      <trkpt lat="43.50924" lon="5.88479">
        <ele>341</ele>
        <time>2018-03-04T07:16:32Z</time>
      </trkpt>
      <trkpt lat="43.50941" lon="5.8849">
        <ele>341</ele>
        <time>2018-03-04T07:16:40Z</time>
      </trkpt>
      <trkpt lat="43.50959" lon="5.88493">
        <ele>341</ele>
        <time>2018-03-04T07:16:49Z</time>
      </trkpt>
      <trkpt lat="43.50977" lon="5.88497">
        <ele>341</ele>
        <time>2018-03-04T07:16:57Z</time>
      </trkpt>
      <trkpt lat="43.50996" lon="5.88497">
        <ele>341</ele>
        <time>2018-03-04T07:17:06Z</time>
      </trkpt>
      <trkpt lat="43.51016" lon="5.88501">
        <ele>345</ele>
        <time>2018-03-04T07:17:16Z</time>
      </trkpt>
      <trkpt lat="43.51035" lon="5.88506">
        <ele>348</ele>
        <time>2018-03-04T07:17:25Z</time>
      </trkpt>
      <trkpt lat="43.51053" lon="5.88518">
        <ele>350</ele>
        <time>2018-03-04T07:17:35Z</time>
      </trkpt>
      <trkpt lat="43.5107" lon="5.88529">
        <ele>350</ele>
        <time>2018-03-04T07:17:43Z</time>
      </trkpt>
      <trkpt lat="43.51086" lon="5.88546">
        <ele>354</ele>
        <time>2018-03-04T07:17:52Z</time>
      </trkpt>
      <trkpt lat="43.51097" lon="5.88565">
        <ele>354</ele>
        <time>2018-03-04T07:18:03Z</time>
      </trkpt>
      <trkpt lat="43.51104" lon="5.8859">
        <ele>356</ele>
        <time>2018-03-04T07:18:13Z</time>
      </trkpt>
      <trkpt lat="43.51106" lon="5.88617">
        <ele>358</ele>
        <time>2018-03-04T07:18:23Z</time>
      </trkpt>
      <trkpt lat="43.51104" lon="5.88644">
        <ele>358</ele>
        <time>2018-03-04T07:18:32Z</time>
      </trkpt>
      <trkpt lat="43.5111" lon="5.88668">
        <ele>361</ele>
        <time>2018-03-04T07:18:43Z</time>
      </trkpt>
      <trkpt lat="43.51129" lon="5.88674">
        <ele>361</ele>
        <time>2018-03-04T07:18:54Z</time>
      </trkpt>
      <trkpt lat="43.51146" lon="5.88684">
        <ele>361</ele>
        <time>2018-03-04T07:19:04Z</time>
      </trkpt>
      <trkpt lat="43.51159" lon="5.887">
        <ele>361</ele>
        <time>2018-03-04T07:19:15Z</time>
      </trkpt>
      <trkpt lat="43.51178" lon="5.88703">
        <ele>360</ele>
        <time>2018-03-04T07:19:26Z</time>
      </trkpt>
      <trkpt lat="43.51195" lon="5.88708">
        <ele>360</ele>
        <time>2018-03-04T07:19:36Z</time>
      </trkpt>
      <trkpt lat="43.51214" lon="5.88709">
        <ele>360</ele>
        <time>2018-03-04T07:19:47Z</time>
      </trkpt>
      <trkpt lat="43.51234" lon="5.88713">
        <ele>360</ele>
        <time>2018-03-04T07:19:58Z</time>
      </trkpt>
      <trkpt lat="43.5125" lon="5.88725">
        <ele>360</ele>
        <time>2018-03-04T07:20:10Z</time>
      </trkpt>
      <trkpt lat="43.51267" lon="5.88735">
        <ele>362</ele>
        <time>2018-03-04T07:20:24Z</time>
      </trkpt>
      <trkpt lat="43.51279" lon="5.88755">
        <ele>363</ele>
        <time>2018-03-04T07:20:35Z</time>
      </trkpt>
      <trkpt lat="43.51283" lon="5.88781">
        <ele>364</ele>
        <time>2018-03-04T07:20:48Z</time>
      </trkpt>
      <trkpt lat="43.51291" lon="5.88804">
        <ele>365</ele>
        <time>2018-03-04T07:20:58Z</time>
      </trkpt>
      <trkpt lat="43.51307" lon="5.88817">
        <ele>365</ele>
        <time>2018-03-04T07:21:11Z</time>
      </trkpt>
      <trkpt lat="43.51323" lon="5.88829">
        <ele>365</ele>
        <time>2018-03-04T07:21:28Z</time>
      </trkpt>
      <trkpt lat="43.51329" lon="5.88853">
        <ele>369</ele>
        <time>2018-03-04T07:21:43Z</time>
      </trkpt>
      <trkpt lat="43.5133" lon="5.88878">
        <ele>371</ele>
        <time>2018-03-04T07:21:56Z</time>
      </trkpt>
      <trkpt lat="43.51329" lon="5.88905">
        <ele>373</ele>
        <time>2018-03-04T07:22:09Z</time>
      </trkpt>
      <trkpt lat="43.51325" lon="5.88929">
        <ele>377</ele>
        <time>2018-03-04T07:22:21Z</time>
      </trkpt>
      <trkpt lat="43.51317" lon="5.88953">
        <ele>380</ele>
        <time>2018-03-04T07:22:35Z</time>
      </trkpt>
      <trkpt lat="43.51308" lon="5.88975">
        <ele>381</ele>
        <time>2018-03-04T07:22:49Z</time>
      </trkpt>
      <trkpt lat="43.51295" lon="5.88996">
        <ele>382</ele>
        <time>2018-03-04T07:23:04Z</time>
      </trkpt>
      <trkpt lat="43.51285" lon="5.89018">
        <ele>387</ele>
        <time>2018-03-04T07:23:18Z</time>
      </trkpt>
      <trkpt lat="43.51272" lon="5.89036">
        <ele>388</ele>
        <time>2018-03-04T07:23:34Z</time>
      </trkpt>
      <trkpt lat="43.51257" lon="5.89052">
        <ele>388</ele>
        <time>2018-03-04T07:23:49Z</time>
      </trkpt>
      <trkpt lat="43.51243" lon="5.89069">
        <ele>390</ele>
        <time>2018-03-04T07:24:05Z</time>
      </trkpt>
      <trkpt lat="43.51229" lon="5.89086">
        <ele>392</ele>
        <time>2018-03-04T07:24:19Z</time>
      </trkpt>
      <trkpt lat="43.51214" lon="5.891">
        <ele>393</ele>
        <time>2018-03-04T07:24:32Z</time>
      </trkpt>
      <trkpt lat="43.512" lon="5.89118">
        <ele>394</ele>
        <time>2018-03-04T07:24:44Z</time>
      </trkpt>
      <trkpt lat="43.51185" lon="5.89132">
        <ele>394</ele>
        <time>2018-03-04T07:24:56Z</time>
      </trkpt>
      <trkpt lat="43.51169" lon="5.89145">
        <ele>394</ele>
        <time>2018-03-04T07:25:11Z</time>
      </trkpt>
      <trkpt lat="43.51151" lon="5.89156">
        <ele>396</ele>
        <time>2018-03-04T07:25:23Z</time>
      </trkpt>
      <trkpt lat="43.51136" lon="5.89172">
        <ele>398</ele>
        <time>2018-03-04T07:25:38Z</time>
      </trkpt>
      <trkpt lat="43.51123" lon="5.89191">
        <ele>399</ele>
        <time>2018-03-04T07:25:50Z</time>
      </trkpt>
      <trkpt lat="43.51108" lon="5.89206">
        <ele>400</ele>
        <time>2018-03-04T07:26:01Z</time>
      </trkpt>
      <trkpt lat="43.51098" lon="5.89228">
        <ele>400</ele>
        <time>2018-03-04T07:26:12Z</time>
      </trkpt>
      <trkpt lat="43.51089" lon="5.89251">
        <ele>402</ele>
        <time>2018-03-04T07:26:24Z</time>
      </trkpt>
      <trkpt lat="43.51096" lon="5.89275">
        <ele>403</ele>
        <time>2018-03-04T07:26:42Z</time>
      </trkpt>
      <trkpt lat="43.51112" lon="5.89288">
        <ele>404</ele>
        <time>2018-03-04T07:26:52Z</time>
      </trkpt>
      <trkpt lat="43.5113" lon="5.89293">
        <ele>404</ele>
        <time>2018-03-04T07:27:03Z</time>
      </trkpt>
      <trkpt lat="43.51148" lon="5.893">
        <ele>405</ele>
        <time>2018-03-04T07:27:13Z</time>
      </trkpt>
      <trkpt lat="43.51168" lon="5.89306">
        <ele>405</ele>
        <time>2018-03-04T07:27:22Z</time>
      </trkpt>
      <trkpt lat="43.51186" lon="5.89308">
        <ele>405</ele>
        <time>2018-03-04T07:27:32Z</time>
      </trkpt>
      <trkpt lat="43.51203" lon="5.89314">
        <ele>405</ele>
        <time>2018-03-04T07:27:42Z</time>
      </trkpt>
      <trkpt lat="43.5122" lon="5.89327">
        <ele>406</ele>
        <time>2018-03-04T07:27:54Z</time>
      </trkpt>
      <trkpt lat="43.51235" lon="5.89343">
        <ele>408</ele>
        <time>2018-03-04T07:28:07Z</time>
      </trkpt>
      <trkpt lat="43.51251" lon="5.89355">
        <ele>409</ele>
        <time>2018-03-04T07:28:17Z</time>
      </trkpt>
      <trkpt lat="43.51264" lon="5.89374">
        <ele>410</ele>
        <time>2018-03-04T07:28:29Z</time>
      </trkpt>
      <trkpt lat="43.51274" lon="5.89396">
        <ele>411</ele>
        <time>2018-03-04T07:28:40Z</time>
      </trkpt>
      <trkpt lat="43.51288" lon="5.89413">
        <ele>411</ele>
        <time>2018-03-04T07:28:51Z</time>
      </trkpt>
      <trkpt lat="43.51303" lon="5.89428">
        <ele>412</ele>
        <time>2018-03-04T07:29:01Z</time>
      </trkpt>
      <trkpt lat="43.51322" lon="5.89432">
        <ele>412</ele>
        <time>2018-03-04T07:29:11Z</time>
      </trkpt>
      <trkpt lat="43.5134" lon="5.89435">
        <ele>411</ele>
        <time>2018-03-04T07:29:20Z</time>
      </trkpt>
      <trkpt lat="43.5136" lon="5.89435">
        <ele>411</ele>
        <time>2018-03-04T07:29:29Z</time>
      </trkpt>
      <trkpt lat="43.51379" lon="5.8944">
        <ele>410</ele>
        <time>2018-03-04T07:29:38Z</time>
      </trkpt>
      <trkpt lat="43.51397" lon="5.89448">
        <ele>410</ele>
        <time>2018-03-04T07:29:46Z</time>
      </trkpt>
      <trkpt lat="43.51414" lon="5.8946">
        <ele>409</ele>
        <time>2018-03-04T07:30:21Z</time>
      </trkpt>
      <trkpt lat="43.5143" lon="5.89476">
        <ele>407</ele>
        <time>2018-03-04T07:30:31Z</time>
      </trkpt>
      <trkpt lat="43.51446" lon="5.89488">
        <ele>406</ele>
        <time>2018-03-04T07:30:38Z</time>
      </trkpt>
      <trkpt lat="43.51465" lon="5.89497">
        <ele>406</ele>
        <time>2018-03-04T07:30:45Z</time>
      </trkpt>
      <trkpt lat="43.51483" lon="5.89503">
        <ele>402</ele>
        <time>2018-03-04T07:30:51Z</time>
      </trkpt>
      <trkpt lat="43.51501" lon="5.89513">
        <ele>401</ele>
        <time>2018-03-04T07:30:59Z</time>
      </trkpt>
      <trkpt lat="43.5152" lon="5.89523">
        <ele>400</ele>
        <time>2018-03-04T07:31:06Z</time>
      </trkpt>
      <trkpt lat="43.5154" lon="5.89527">
        <ele>399</ele>
        <time>2018-03-04T07:31:14Z</time>
      </trkpt>
      <trkpt lat="43.51556" lon="5.89541">
        <ele>399</ele>
        <time>2018-03-04T07:31:22Z</time>
      </trkpt>
      <trkpt lat="43.51573" lon="5.89555">
        <ele>398</ele>
        <time>2018-03-04T07:31:32Z</time>
      </trkpt>
      <trkpt lat="43.51586" lon="5.89576">
        <ele>396</ele>
        <time>2018-03-04T07:31:38Z</time>
      </trkpt>
      <trkpt lat="43.51596" lon="5.896">
        <ele>395</ele>
        <time>2018-03-04T07:31:46Z</time>
      </trkpt>
      <trkpt lat="43.51592" lon="5.89625">
        <ele>394</ele>
        <time>2018-03-04T07:31:53Z</time>
      </trkpt>
      <trkpt lat="43.51606" lon="5.89641">
        <ele>394</ele>
        <time>2018-03-04T07:32:00Z</time>
      </trkpt>
      <trkpt lat="43.51624" lon="5.89652">
        <ele>394</ele>
        <time>2018-03-04T07:32:09Z</time>
      </trkpt>
      <trkpt lat="43.51641" lon="5.89659">
        <ele>394</ele>
        <time>2018-03-04T07:32:16Z</time>
      </trkpt>
      <trkpt lat="43.5166" lon="5.89666">
        <ele>393</ele>
        <time>2018-03-04T07:32:23Z</time>
      </trkpt>
      <trkpt lat="43.51677" lon="5.89674">
        <ele>393</ele>
        <time>2018-03-04T07:32:28Z</time>
      </trkpt>
      <trkpt lat="43.51695" lon="5.89681">
        <ele>392</ele>
        <time>2018-03-04T07:32:34Z</time>
      </trkpt>
      <trkpt lat="43.51715" lon="5.89687">
        <ele>392</ele>
        <time>2018-03-04T07:32:40Z</time>
      </trkpt>
      <trkpt lat="43.51734" lon="5.89691">
        <ele>392</ele>
        <time>2018-03-04T07:32:45Z</time>
      </trkpt>
      <trkpt lat="43.51755" lon="5.89697">
        <ele>391</ele>
        <time>2018-03-04T07:32:51Z</time>
      </trkpt>
      <trkpt lat="43.51773" lon="5.89703">
        <ele>390</ele>
        <time>2018-03-04T07:32:56Z</time>
      </trkpt>
      <trkpt lat="43.51794" lon="5.89707">
        <ele>390</ele>
        <time>2018-03-04T07:33:01Z</time>
      </trkpt>
      <trkpt lat="43.51815" lon="5.89706">
        <ele>390</ele>
        <time>2018-03-04T07:33:06Z</time>
      </trkpt>
      <trkpt lat="43.51835" lon="5.89706">
        <ele>389</ele>
        <time>2018-03-04T07:33:11Z</time>
      </trkpt>
      <trkpt lat="43.51854" lon="5.89704">
        <ele>389</ele>
        <time>2018-03-04T07:33:16Z</time>
      </trkpt>
      <trkpt lat="43.51874" lon="5.89701">
        <ele>389</ele>
        <time>2018-03-04T07:33:21Z</time>
      </trkpt>
      <trkpt lat="43.51894" lon="5.89698">
        <ele>388</ele>
        <time>2018-03-04T07:33:26Z</time>
      </trkpt>
      <trkpt lat="43.51913" lon="5.89696">
        <ele>389</ele>
        <time>2018-03-04T07:33:31Z</time>
      </trkpt>
      <trkpt lat="43.51935" lon="5.89691">
        <ele>388</ele>
        <time>2018-03-04T07:33:36Z</time>
      </trkpt>
      <trkpt lat="43.51952" lon="5.89683">
        <ele>387</ele>
        <time>2018-03-04T07:33:40Z</time>
      </trkpt>
      <trkpt lat="43.5197" lon="5.89677">
        <ele>387</ele>
        <time>2018-03-04T07:33:45Z</time>
      </trkpt>
      <trkpt lat="43.51988" lon="5.89671">
        <ele>388</ele>
        <time>2018-03-04T07:33:50Z</time>
      </trkpt>
      <trkpt lat="43.52007" lon="5.89663">
        <ele>390</ele>
        <time>2018-03-04T07:33:56Z</time>
      </trkpt>
      <trkpt lat="43.52027" lon="5.89659">
        <ele>390</ele>
        <time>2018-03-04T07:34:03Z</time>
      </trkpt>
      <trkpt lat="43.52045" lon="5.89656">
        <ele>390</ele>
        <time>2018-03-04T07:34:09Z</time>
      </trkpt>
      <trkpt lat="43.52062" lon="5.89649">
        <ele>390</ele>
        <time>2018-03-04T07:34:15Z</time>
      </trkpt>
      <trkpt lat="43.52081" lon="5.89642">
        <ele>390</ele>
        <time>2018-03-04T07:34:21Z</time>
      </trkpt>
      <trkpt lat="43.52099" lon="5.89634">
        <ele>389</ele>
        <time>2018-03-04T07:34:27Z</time>
      </trkpt>
      <trkpt lat="43.52118" lon="5.89622">
        <ele>389</ele>
        <time>2018-03-04T07:34:33Z</time>
      </trkpt>
      <trkpt lat="43.52138" lon="5.89618">
        <ele>389</ele>
        <time>2018-03-04T07:34:39Z</time>
      </trkpt>
      <trkpt lat="43.52155" lon="5.89608">
        <ele>390</ele>
        <time>2018-03-04T07:34:44Z</time>
      </trkpt>
      <trkpt lat="43.52173" lon="5.89599">
        <ele>388</ele>
        <time>2018-03-04T07:34:49Z</time>
      </trkpt>
      <trkpt lat="43.52192" lon="5.8959">
        <ele>387</ele>
        <time>2018-03-04T07:34:54Z</time>
      </trkpt>
      <trkpt lat="43.52212" lon="5.89581">
        <ele>394</ele>
        <time>2018-03-04T07:35:00Z</time>
      </trkpt>
      <trkpt lat="43.52232" lon="5.89568">
        <ele>392</ele>
        <time>2018-03-04T07:35:04Z</time>
      </trkpt>
      <trkpt lat="43.52251" lon="5.89561">
        <ele>389</ele>
        <time>2018-03-04T07:35:07Z</time>
      </trkpt>
      <trkpt lat="43.52271" lon="5.89555">
        <ele>390</ele>
        <time>2018-03-04T07:35:11Z</time>
      </trkpt>
      <trkpt lat="43.52293" lon="5.89554">
        <ele>390</ele>
        <time>2018-03-04T07:35:16Z</time>
      </trkpt>
      <trkpt lat="43.52312" lon="5.89554">
        <ele>389</ele>
        <time>2018-03-04T07:35:21Z</time>
      </trkpt>
      <trkpt lat="43.52331" lon="5.89552">
        <ele>389</ele>
        <time>2018-03-04T07:35:26Z</time>
      </trkpt>
      <trkpt lat="43.52351" lon="5.89549">
        <ele>390</ele>
        <time>2018-03-04T07:35:31Z</time>
      </trkpt>
      <trkpt lat="43.52372" lon="5.89547">
        <ele>390</ele>
        <time>2018-03-04T07:35:36Z</time>
      </trkpt>
      <trkpt lat="43.52393" lon="5.8955">
        <ele>390</ele>
        <time>2018-03-04T07:35:41Z</time>
      </trkpt>
      <trkpt lat="43.52412" lon="5.89552">
        <ele>390</ele>
        <time>2018-03-04T07:35:46Z</time>
      </trkpt>
      <trkpt lat="43.52433" lon="5.89554">
        <ele>391</ele>
        <time>2018-03-04T07:35:52Z</time>
      </trkpt>
      <trkpt lat="43.52451" lon="5.89556">
        <ele>391</ele>
        <time>2018-03-04T07:35:57Z</time>
      </trkpt>
      <trkpt lat="43.52472" lon="5.89557">
        <ele>391</ele>
        <time>2018-03-04T07:36:02Z</time>
      </trkpt>
      <trkpt lat="43.52493" lon="5.89558">
        <ele>390</ele>
        <time>2018-03-04T07:36:07Z</time>
      </trkpt>
      <trkpt lat="43.52515" lon="5.89558">
        <ele>390</ele>
        <time>2018-03-04T07:36:12Z</time>
      </trkpt>
      <trkpt lat="43.52535" lon="5.89559">
        <ele>390</ele>
        <time>2018-03-04T07:36:17Z</time>
      </trkpt>
      <trkpt lat="43.52558" lon="5.89559">
        <ele>390</ele>
        <time>2018-03-04T07:36:22Z</time>
      </trkpt>
      <trkpt lat="43.52576" lon="5.89559">
        <ele>389</ele>
        <time>2018-03-04T07:36:26Z</time>
      </trkpt>
      <trkpt lat="43.52598" lon="5.8956">
        <ele>387</ele>
        <time>2018-03-04T07:36:31Z</time>
      </trkpt>
      <trkpt lat="43.52616" lon="5.89561">
        <ele>388</ele>
        <time>2018-03-04T07:36:35Z</time>
      </trkpt>
      <trkpt lat="43.52635" lon="5.89561">
        <ele>387</ele>
        <time>2018-03-04T07:36:39Z</time>
      </trkpt>
      <trkpt lat="43.52653" lon="5.8956">
        <ele>387</ele>
        <time>2018-03-04T07:36:43Z</time>
      </trkpt>
      <trkpt lat="43.52673" lon="5.89561">
        <ele>384</ele>
        <time>2018-03-04T07:36:47Z</time>
      </trkpt>
      <trkpt lat="43.52691" lon="5.89564">
        <ele>384</ele>
        <time>2018-03-04T07:36:52Z</time>
      </trkpt>
      <trkpt lat="43.52711" lon="5.8957">
        <ele>384</ele>
        <time>2018-03-04T07:36:58Z</time>
      </trkpt>
      <trkpt lat="43.5273" lon="5.8957">
        <ele>383</ele>
        <time>2018-03-04T07:37:03Z</time>
      </trkpt>
      <trkpt lat="43.5275" lon="5.89575">
        <ele>379</ele>
        <time>2018-03-04T07:37:08Z</time>
      </trkpt>
      <trkpt lat="43.52768" lon="5.89575">
        <ele>380</ele>
        <time>2018-03-04T07:37:13Z</time>
      </trkpt>
      <trkpt lat="43.52789" lon="5.89573">
        <ele>379</ele>
        <time>2018-03-04T07:37:19Z</time>
      </trkpt>
      <trkpt lat="43.52806" lon="5.89565">
        <ele>379</ele>
        <time>2018-03-04T07:37:24Z</time>
      </trkpt>
      <trkpt lat="43.52826" lon="5.8956">
        <ele>378</ele>
        <time>2018-03-04T07:37:29Z</time>
      </trkpt>
      <trkpt lat="43.52845" lon="5.89549">
        <ele>377</ele>
        <time>2018-03-04T07:37:34Z</time>
      </trkpt>
      <trkpt lat="43.52863" lon="5.89543">
        <ele>377</ele>
        <time>2018-03-04T07:37:40Z</time>
      </trkpt>
      <trkpt lat="43.52879" lon="5.89532">
        <ele>378</ele>
        <time>2018-03-04T07:37:45Z</time>
      </trkpt>
      <trkpt lat="43.52895" lon="5.89517">
        <ele>378</ele>
        <time>2018-03-04T07:37:54Z</time>
      </trkpt>
      <trkpt lat="43.52914" lon="5.8951">
        <ele>379</ele>
        <time>2018-03-04T07:38:01Z</time>
      </trkpt>
      <trkpt lat="43.52932" lon="5.89501">
        <ele>377</ele>
        <time>2018-03-04T07:38:07Z</time>
      </trkpt>
      <trkpt lat="43.52952" lon="5.89491">
        <ele>383</ele>
        <time>2018-03-04T07:38:13Z</time>
      </trkpt>
      <trkpt lat="43.5297" lon="5.89482">
        <ele>383</ele>
        <time>2018-03-04T07:38:20Z</time>
      </trkpt>
      <trkpt lat="43.52989" lon="5.89475">
        <ele>383</ele>
        <time>2018-03-04T07:38:28Z</time>
      </trkpt>
      <trkpt lat="43.53007" lon="5.89468">
        <ele>381</ele>
        <time>2018-03-04T07:38:35Z</time>
      </trkpt>
      <trkpt lat="43.53025" lon="5.89456">
        <ele>382</ele>
        <time>2018-03-04T07:38:41Z</time>
      </trkpt>
      <trkpt lat="43.53043" lon="5.89447">
        <ele>382</ele>
        <time>2018-03-04T07:38:47Z</time>
      </trkpt>
      <trkpt lat="43.5306" lon="5.89434">
        <ele>382</ele>
        <time>2018-03-04T07:38:53Z</time>
      </trkpt>
      <trkpt lat="43.53076" lon="5.89419">
        <ele>383</ele>
        <time>2018-03-04T07:38:59Z</time>
      </trkpt>
      <trkpt lat="43.53092" lon="5.89405">
        <ele>386</ele>
        <time>2018-03-04T07:39:06Z</time>
      </trkpt>
      <trkpt lat="43.53107" lon="5.89387">
        <ele>388</ele>
        <time>2018-03-04T07:39:14Z</time>
      </trkpt>
      <trkpt lat="43.53122" lon="5.8937">
        <ele>390</ele>
        <time>2018-03-04T07:39:22Z</time>
      </trkpt>
      <trkpt lat="43.53138" lon="5.89354">
        <ele>390</ele>
        <time>2018-03-04T07:39:29Z</time>
      </trkpt>
      <trkpt lat="43.53154" lon="5.89339">
        <ele>391</ele>
        <time>2018-03-04T07:39:38Z</time>
      </trkpt>
      <trkpt lat="43.53171" lon="5.89328">
        <ele>393</ele>
        <time>2018-03-04T07:39:48Z</time>
      </trkpt>
      <trkpt lat="43.53189" lon="5.89321">
        <ele>393</ele>
        <time>2018-03-04T07:39:57Z</time>
      </trkpt>
      <trkpt lat="43.53207" lon="5.89312">
        <ele>393</ele>
        <time>2018-03-04T07:40:07Z</time>
      </trkpt>
      <trkpt lat="43.53225" lon="5.89301">
        <ele>393</ele>
        <time>2018-03-04T07:40:15Z</time>
      </trkpt>
      <trkpt lat="43.5324" lon="5.89287">
        <ele>394</ele>
        <time>2018-03-04T07:40:22Z</time>
      </trkpt>
      <trkpt lat="43.53257" lon="5.89274">
        <ele>392</ele>
        <time>2018-03-04T07:40:30Z</time>
      </trkpt>
      <trkpt lat="43.53274" lon="5.89261">
        <ele>392</ele>
        <time>2018-03-04T07:40:40Z</time>
      </trkpt>
      <trkpt lat="43.53292" lon="5.89248">
        <ele>398</ele>
        <time>2018-03-04T07:40:50Z</time>
      </trkpt>
      <trkpt lat="43.53308" lon="5.89234">
        <ele>397</ele>
        <time>2018-03-04T07:40:58Z</time>
      </trkpt>
      <trkpt lat="43.53325" lon="5.8922">
        <ele>397</ele>
        <time>2018-03-04T07:41:06Z</time>
      </trkpt>
      <trkpt lat="43.5334" lon="5.89207">
        <ele>396</ele>
        <time>2018-03-04T07:41:13Z</time>
      </trkpt>
      <trkpt lat="43.53355" lon="5.89193">
        <ele>397</ele>
        <time>2018-03-04T07:41:20Z</time>
      </trkpt>
      <trkpt lat="43.53371" lon="5.89178">
        <ele>397</ele>
        <time>2018-03-04T07:41:27Z</time>
      </trkpt>
      <trkpt lat="43.53387" lon="5.89165">
        <ele>402</ele>
        <time>2018-03-04T07:41:35Z</time>
      </trkpt>
      <trkpt lat="43.53403" lon="5.89151">
        <ele>401</ele>
        <time>2018-03-04T07:41:43Z</time>
      </trkpt>
      <trkpt lat="43.53418" lon="5.89138">
        <ele>397</ele>
        <time>2018-03-04T07:41:51Z</time>
      </trkpt>
      <trkpt lat="43.53433" lon="5.89121">
        <ele>397</ele>
        <time>2018-03-04T07:42:00Z</time>
      </trkpt>
      <trkpt lat="43.53448" lon="5.89105">
        <ele>397</ele>
        <time>2018-03-04T07:42:09Z</time>
      </trkpt>
      <trkpt lat="43.5346" lon="5.89086">
        <ele>396</ele>
        <time>2018-03-04T07:42:20Z</time>
      </trkpt>
      <trkpt lat="43.53461" lon="5.89061">
        <ele>398</ele>
        <time>2018-03-04T07:45:32Z</time>
      </trkpt>
      <trkpt lat="43.53456" lon="5.89036">
        <ele>398</ele>
        <time>2018-03-04T07:45:40Z</time>
      </trkpt>
      <trkpt lat="43.53446" lon="5.89015">
        <ele>400</ele>
        <time>2018-03-04T07:45:49Z</time>
      </trkpt>
      <trkpt lat="43.53428" lon="5.89002">
        <ele>402</ele>
        <time>2018-03-04T07:46:00Z</time>
      </trkpt>
      <trkpt lat="43.53412" lon="5.88992">
        <ele>406</ele>
        <time>2018-03-04T07:46:08Z</time>
      </trkpt>
      <trkpt lat="43.53396" lon="5.88979">
        <ele>407</ele>
        <time>2018-03-04T07:46:18Z</time>
      </trkpt>
      <trkpt lat="43.53381" lon="5.88961">
        <ele>407</ele>
        <time>2018-03-04T07:46:27Z</time>
      </trkpt>
      <trkpt lat="43.53371" lon="5.8894">
        <ele>407</ele>
        <time>2018-03-04T07:46:36Z</time>
      </trkpt>
      <trkpt lat="43.53359" lon="5.88919">
        <ele>408</ele>
        <time>2018-03-04T07:46:44Z</time>
      </trkpt>
      <trkpt lat="43.53347" lon="5.88901">
        <ele>407</ele>
        <time>2018-03-04T07:46:52Z</time>
      </trkpt>
      <trkpt lat="43.53336" lon="5.88881">
        <ele>407</ele>
        <time>2018-03-04T07:47:01Z</time>
      </trkpt>
      <trkpt lat="43.53323" lon="5.8886">
        <ele>412</ele>
        <time>2018-03-04T07:47:08Z</time>
      </trkpt>
      <trkpt lat="43.5331" lon="5.88842">
        <ele>412</ele>
        <time>2018-03-04T07:47:15Z</time>
      </trkpt>
      <trkpt lat="43.53292" lon="5.88828">
        <ele>411</ele>
        <time>2018-03-04T07:47:23Z</time>
      </trkpt>
      <trkpt lat="43.53275" lon="5.88812">
        <ele>412</ele>
        <time>2018-03-04T07:47:30Z</time>
      </trkpt>
      <trkpt lat="43.53258" lon="5.88801">
        <ele>413</ele>
        <time>2018-03-04T07:47:36Z</time>
      </trkpt>
      <trkpt lat="43.53243" lon="5.88787">
        <ele>418</ele>
        <time>2018-03-04T07:47:42Z</time>
      </trkpt>
      <trkpt lat="43.53254" lon="5.88761">
        <ele>411</ele>
        <time>2018-03-04T07:47:54Z</time>
      </trkpt>
      <trkpt lat="43.53269" lon="5.88746">
        <ele>411</ele>
        <time>2018-03-04T07:47:59Z</time>
      </trkpt>
      <trkpt lat="43.53275" lon="5.88723">
        <ele>412</ele>
        <time>2018-03-04T07:48:04Z</time>
      </trkpt>
      <trkpt lat="43.53278" lon="5.88697">
        <ele>413</ele>
        <time>2018-03-04T07:48:09Z</time>
      </trkpt>
      <trkpt lat="43.53294" lon="5.88686">
        <ele>413</ele>
        <time>2018-03-04T07:48:16Z</time>
      </trkpt>
      <trkpt lat="43.53313" lon="5.88684">
        <ele>413</ele>
        <time>2018-03-04T07:48:21Z</time>
      </trkpt>
      <trkpt lat="43.53331" lon="5.88691">
        <ele>413</ele>
        <time>2018-03-04T07:48:27Z</time>
      </trkpt>
      <trkpt lat="43.5335" lon="5.88696">
        <ele>415</ele>
        <time>2018-03-04T07:48:34Z</time>
      </trkpt>
      <trkpt lat="43.53369" lon="5.88703">
        <ele>415</ele>
        <time>2018-03-04T07:48:41Z</time>
      </trkpt>
      <trkpt lat="43.53387" lon="5.8871">
        <ele>415</ele>
        <time>2018-03-04T07:48:49Z</time>
      </trkpt>
      <trkpt lat="43.53405" lon="5.88719">
        <ele>415</ele>
        <time>2018-03-04T07:48:57Z</time>
      </trkpt>
      <trkpt lat="43.53424" lon="5.88726">
        <ele>416</ele>
        <time>2018-03-04T07:49:06Z</time>
      </trkpt>
      <trkpt lat="43.53444" lon="5.88731">
        <ele>416</ele>
        <time>2018-03-04T07:49:14Z</time>
      </trkpt>
      <trkpt lat="43.53463" lon="5.88728">
        <ele>417</ele>
        <time>2018-03-04T07:49:22Z</time>
      </trkpt>
      <trkpt lat="43.53481" lon="5.88731">
        <ele>416</ele>
        <time>2018-03-04T07:49:35Z</time>
      </trkpt>
      <trkpt lat="43.53501" lon="5.88724">
        <ele>414</ele>
        <time>2018-03-04T07:49:58Z</time>
      </trkpt>
      <trkpt lat="43.53517" lon="5.88707">
        <ele>414</ele>
        <time>2018-03-04T07:50:04Z</time>
      </trkpt>
      <trkpt lat="43.53533" lon="5.88686">
        <ele>414</ele>
        <time>2018-03-04T07:50:10Z</time>
      </trkpt>
      <trkpt lat="43.53547" lon="5.88667">
        <ele>414</ele>
        <time>2018-03-04T07:50:17Z</time>
      </trkpt>
      <trkpt lat="43.53559" lon="5.88647">
        <ele>418</ele>
        <time>2018-03-04T07:50:25Z</time>
      </trkpt>
      <trkpt lat="43.53578" lon="5.8864">
        <ele>417</ele>
        <time>2018-03-04T07:50:30Z</time>
      </trkpt>
      <trkpt lat="43.53597" lon="5.88633">
        <ele>414</ele>
        <time>2018-03-04T07:50:36Z</time>
      </trkpt>
      <trkpt lat="43.53615" lon="5.88626">
        <ele>414</ele>
        <time>2018-03-04T07:50:43Z</time>
      </trkpt>
      <trkpt lat="43.53631" lon="5.88615">
        <ele>415</ele>
        <time>2018-03-04T07:50:50Z</time>
      </trkpt>
      <trkpt lat="43.53646" lon="5.886">
        <ele>415</ele>
        <time>2018-03-04T07:50:57Z</time>
      </trkpt>
      <trkpt lat="43.53663" lon="5.88588">
        <ele>416</ele>
        <time>2018-03-04T07:51:04Z</time>
      </trkpt>
      <trkpt lat="43.53681" lon="5.88576">
        <ele>419</ele>
        <time>2018-03-04T07:51:12Z</time>
      </trkpt>
      <trkpt lat="43.53697" lon="5.88561">
        <ele>421</ele>
        <time>2018-03-04T07:51:19Z</time>
      </trkpt>
      <trkpt lat="43.53711" lon="5.88542">
        <ele>422</ele>
        <time>2018-03-04T07:51:28Z</time>
      </trkpt>
      <trkpt lat="43.53725" lon="5.88525">
        <ele>422</ele>
        <time>2018-03-04T07:51:37Z</time>
      </trkpt>
      <trkpt lat="43.53737" lon="5.88505">
        <ele>422</ele>
        <time>2018-03-04T07:51:48Z</time>
      </trkpt>
      <trkpt lat="43.53746" lon="5.88481">
        <ele>426</ele>
        <time>2018-03-04T07:52:00Z</time>
      </trkpt>
      <trkpt lat="43.53757" lon="5.88453">
        <ele>425</ele>
        <time>2018-03-04T07:52:09Z</time>
      </trkpt>
      <trkpt lat="43.53773" lon="5.8844">
        <ele>426</ele>
        <time>2018-03-04T07:52:14Z</time>
      </trkpt>
      <trkpt lat="43.5379" lon="5.88429">
        <ele>426</ele>
        <time>2018-03-04T07:52:21Z</time>
      </trkpt>
      <trkpt lat="43.53808" lon="5.88424">
        <ele>426</ele>
        <time>2018-03-04T07:52:29Z</time>
      </trkpt>
      <trkpt lat="43.53825" lon="5.88434">
        <ele>425</ele>
        <time>2018-03-04T07:52:39Z</time>
      </trkpt>
      <trkpt lat="43.53843" lon="5.8844">
        <ele>428</ele>
        <time>2018-03-04T07:52:48Z</time>
      </trkpt>
      <trkpt lat="43.53861" lon="5.88438">
        <ele>430</ele>
        <time>2018-03-04T07:52:59Z</time>
      </trkpt>
      <trkpt lat="43.53879" lon="5.88431">
        <ele>432</ele>
        <time>2018-03-04T07:53:13Z</time>
      </trkpt>
      <trkpt lat="43.53898" lon="5.8843">
        <ele>434</ele>
        <time>2018-03-04T07:53:25Z</time>
      </trkpt>
      <trkpt lat="43.53917" lon="5.88436">
        <ele>435</ele>
        <time>2018-03-04T07:53:56Z</time>
      </trkpt>
      <trkpt lat="43.53936" lon="5.88437">
        <ele>438</ele>
        <time>2018-03-04T07:54:07Z</time>
      </trkpt>
      <trkpt lat="43.53955" lon="5.88446">
        <ele>438</ele>
        <time>2018-03-04T07:54:17Z</time>
      </trkpt>
      <trkpt lat="43.53974" lon="5.88453">
        <ele>438</ele>
        <time>2018-03-04T07:54:27Z</time>
      </trkpt>
      <trkpt lat="43.53993" lon="5.8846">
        <ele>438</ele>
        <time>2018-03-04T07:54:36Z</time>
      </trkpt>
      <trkpt lat="43.5401" lon="5.88453">
        <ele>437</ele>
        <time>2018-03-04T07:54:58Z</time>
      </trkpt>
      <trkpt lat="43.54028" lon="5.88445">
        <ele>437</ele>
        <time>2018-03-04T07:55:08Z</time>
      </trkpt>
      <trkpt lat="43.54046" lon="5.88435">
        <ele>437</ele>
        <time>2018-03-04T07:55:17Z</time>
      </trkpt>
      <trkpt lat="43.54064" lon="5.88429">
        <ele>436</ele>
        <time>2018-03-04T07:55:24Z</time>
      </trkpt>
      <trkpt lat="43.54083" lon="5.88417">
        <ele>437</ele>
        <time>2018-03-04T07:55:31Z</time>
      </trkpt>
      <trkpt lat="43.54099" lon="5.88401">
        <ele>440</ele>
        <time>2018-03-04T07:55:38Z</time>
      </trkpt>
      <trkpt lat="43.54115" lon="5.88386">
        <ele>441</ele>
        <time>2018-03-04T07:55:46Z</time>
      </trkpt>
      <trkpt lat="43.54132" lon="5.88373">
        <ele>442</ele>
        <time>2018-03-04T07:55:53Z</time>
      </trkpt>
      <trkpt lat="43.54149" lon="5.8836">
        <ele>442</ele>
        <time>2018-03-04T07:56:02Z</time>
      </trkpt>
      <trkpt lat="43.54167" lon="5.88345">
        <ele>443</ele>
        <time>2018-03-04T07:56:10Z</time>
      </trkpt>
      <trkpt lat="43.54185" lon="5.88337">
        <ele>443</ele>
        <time>2018-03-04T07:56:17Z</time>
      </trkpt>
      <trkpt lat="43.54204" lon="5.88332">
        <ele>447</ele>
        <time>2018-03-04T07:56:27Z</time>
      </trkpt>
      <trkpt lat="43.54223" lon="5.88328">
        <ele>447</ele>
        <time>2018-03-04T07:56:37Z</time>
      </trkpt>
      <trkpt lat="43.54241" lon="5.88321">
        <ele>446</ele>
        <time>2018-03-04T07:56:48Z</time>
      </trkpt>
      <trkpt lat="43.54258" lon="5.88311">
        <ele>446</ele>
        <time>2018-03-04T07:56:58Z</time>
      </trkpt>
      <trkpt lat="43.54274" lon="5.88301">
        <ele>447</ele>
        <time>2018-03-04T07:57:08Z</time>
      </trkpt>
      <trkpt lat="43.54291" lon="5.88288">
        <ele>448</ele>
        <time>2018-03-04T07:57:21Z</time>
      </trkpt>
      <trkpt lat="43.54306" lon="5.88275">
        <ele>448</ele>
        <time>2018-03-04T07:57:28Z</time>
      </trkpt>
      <trkpt lat="43.54323" lon="5.88261">
        <ele>449</ele>
        <time>2018-03-04T07:58:04Z</time>
      </trkpt>
      <trkpt lat="43.54343" lon="5.88257">
        <ele>448</ele>
        <time>2018-03-04T08:01:34Z</time>
      </trkpt>
      <trkpt lat="43.54361" lon="5.88247">
        <ele>451</ele>
        <time>2018-03-04T08:01:43Z</time>
      </trkpt>
      <trkpt lat="43.54377" lon="5.88233">
        <ele>450</ele>
        <time>2018-03-04T08:01:52Z</time>
      </trkpt>
      <trkpt lat="43.54393" lon="5.88221">
        <ele>450</ele>
        <time>2018-03-04T08:02:01Z</time>
      </trkpt>
      <trkpt lat="43.5441" lon="5.88208">
        <ele>450</ele>
        <time>2018-03-04T08:02:14Z</time>
      </trkpt>
      <trkpt lat="43.54428" lon="5.88203">
        <ele>447</ele>
        <time>2018-03-04T08:02:23Z</time>
      </trkpt>
      <trkpt lat="43.54439" lon="5.88182">
        <ele>448</ele>
        <time>2018-03-04T08:02:32Z</time>
      </trkpt>
      <trkpt lat="43.54444" lon="5.88157">
        <ele>453</ele>
        <time>2018-03-04T08:02:39Z</time>
      </trkpt>
      <trkpt lat="43.54455" lon="5.88136">
        <ele>453</ele>
        <time>2018-03-04T08:02:49Z</time>
      </trkpt>
      <trkpt lat="43.54468" lon="5.88118">
        <ele>454</ele>
        <time>2018-03-04T08:02:57Z</time>
      </trkpt>
      <trkpt lat="43.5448" lon="5.881">
        <ele>454</ele>
        <time>2018-03-04T08:03:04Z</time>
      </trkpt>
      <trkpt lat="43.54494" lon="5.88081">
        <ele>455</ele>
        <time>2018-03-04T08:03:12Z</time>
      </trkpt>
      <trkpt lat="43.54508" lon="5.88059">
        <ele>453</ele>
        <time>2018-03-04T08:03:24Z</time>
      </trkpt>
      <trkpt lat="43.54521" lon="5.88042">
        <ele>454</ele>
        <time>2018-03-04T08:03:30Z</time>
      </trkpt>
      <trkpt lat="43.54531" lon="5.88019">
        <ele>454</ele>
        <time>2018-03-04T08:03:36Z</time>
      </trkpt>
      <trkpt lat="43.54545" lon="5.88">
        <ele>458</ele>
        <time>2018-03-04T08:03:43Z</time>
      </trkpt>
      <trkpt lat="43.54568" lon="5.8798">
        <ele>457</ele>
        <time>2018-03-04T08:04:27Z</time>
      </trkpt>
      <trkpt lat="43.54585" lon="5.87969">
        <ele>455</ele>
        <time>2018-03-04T08:05:09Z</time>
      </trkpt>
      <trkpt lat="43.54602" lon="5.87957">
        <ele>456</ele>
        <time>2018-03-04T08:07:16Z</time>
      </trkpt>
      <trkpt lat="43.54614" lon="5.87938">
        <ele>457</ele>
        <time>2018-03-04T08:07:26Z</time>
      </trkpt>
      <trkpt lat="43.54629" lon="5.87925">
        <ele>457</ele>
        <time>2018-03-04T08:07:35Z</time>
      </trkpt>
      <trkpt lat="43.54644" lon="5.87909">
        <ele>459</ele>
        <time>2018-03-04T08:07:45Z</time>
      </trkpt>
      <trkpt lat="43.54655" lon="5.87889">
        <ele>460</ele>
        <time>2018-03-04T08:07:54Z</time>
      </trkpt>
      <trkpt lat="43.54668" lon="5.87871">
        <ele>457</ele>
        <time>2018-03-04T08:08:03Z</time>
      </trkpt>
      <trkpt lat="43.54687" lon="5.87885">
        <ele>456</ele>
        <time>2018-03-04T08:08:29Z</time>
      </trkpt>
      <trkpt lat="43.54702" lon="5.87898">
        <ele>456</ele>
        <time>2018-03-04T08:08:36Z</time>
      </trkpt>
      <trkpt lat="43.54716" lon="5.87915">
        <ele>455</ele>
        <time>2018-03-04T08:08:44Z</time>
      </trkpt>
      <trkpt lat="43.5473" lon="5.87933">
        <ele>454</ele>
        <time>2018-03-04T08:08:52Z</time>
      </trkpt>
      <trkpt lat="43.54744" lon="5.8795">
        <ele>454</ele>
        <time>2018-03-04T08:09:00Z</time>
      </trkpt>
      <trkpt lat="43.54757" lon="5.87968">
        <ele>452</ele>
        <time>2018-03-04T08:09:08Z</time>
      </trkpt>
      <trkpt lat="43.54759" lon="5.87996">
        <ele>453</ele>
        <time>2018-03-04T08:09:16Z</time>
      </trkpt>
      <trkpt lat="43.54762" lon="5.88021">
        <ele>454</ele>
        <time>2018-03-04T08:09:23Z</time>
      </trkpt>
      <trkpt lat="43.54767" lon="5.88049">
        <ele>454</ele>
        <time>2018-03-04T08:09:30Z</time>
      </trkpt>
      <trkpt lat="43.54765" lon="5.88073">
        <ele>455</ele>
        <time>2018-03-04T08:09:37Z</time>
      </trkpt>
      <trkpt lat="43.54767" lon="5.88099">
        <ele>455</ele>
        <time>2018-03-04T08:09:44Z</time>
      </trkpt>
      <trkpt lat="43.54768" lon="5.88124">
        <ele>454</ele>
        <time>2018-03-04T08:09:51Z</time>
      </trkpt>
      <trkpt lat="43.54769" lon="5.8815">
        <ele>454</ele>
        <time>2018-03-04T08:09:59Z</time>
      </trkpt>
      <trkpt lat="43.54773" lon="5.88175">
        <ele>453</ele>
        <time>2018-03-04T08:10:06Z</time>
      </trkpt>
      <trkpt lat="43.54774" lon="5.88202">
        <ele>453</ele>
        <time>2018-03-04T08:10:14Z</time>
      </trkpt>
      <trkpt lat="43.54772" lon="5.88229">
        <ele>453</ele>
        <time>2018-03-04T08:10:20Z</time>
      </trkpt>
      <trkpt lat="43.54767" lon="5.88257">
        <ele>452</ele>
        <time>2018-03-04T08:10:27Z</time>
      </trkpt>
      <trkpt lat="43.54774" lon="5.88282">
        <ele>450</ele>
        <time>2018-03-04T08:10:33Z</time>
      </trkpt>
      <trkpt lat="43.54783" lon="5.88305">
        <ele>450</ele>
        <time>2018-03-04T08:10:39Z</time>
      </trkpt>
      <trkpt lat="43.54794" lon="5.88325">
        <ele>449</ele>
        <time>2018-03-04T08:10:44Z</time>
      </trkpt>
      <trkpt lat="43.54804" lon="5.88345">
        <ele>446</ele>
        <time>2018-03-04T08:10:50Z</time>
      </trkpt>
      <trkpt lat="43.54814" lon="5.88368">
        <ele>445</ele>
        <time>2018-03-04T08:10:57Z</time>
      </trkpt>
      <trkpt lat="43.54825" lon="5.88388">
        <ele>444</ele>
        <time>2018-03-04T08:11:05Z</time>
      </trkpt>
      <trkpt lat="43.54836" lon="5.88409">
        <ele>440</ele>
        <time>2018-03-04T08:11:12Z</time>
      </trkpt>
      <trkpt lat="43.54846" lon="5.88429">
        <ele>436</ele>
        <time>2018-03-04T08:11:17Z</time>
      </trkpt>
      <trkpt lat="43.54851" lon="5.88457">
        <ele>432</ele>
        <time>2018-03-04T08:11:24Z</time>
      </trkpt>
      <trkpt lat="43.5484" lon="5.88481">
        <ele>431</ele>
        <time>2018-03-04T08:11:30Z</time>
      </trkpt>
      <trkpt lat="43.54835" lon="5.88509">
        <ele>429</ele>
        <time>2018-03-04T08:11:37Z</time>
      </trkpt>
      <trkpt lat="43.5485" lon="5.88525">
        <ele>425</ele>
        <time>2018-03-04T08:11:43Z</time>
      </trkpt>
      <trkpt lat="43.54863" lon="5.88544">
        <ele>424</ele>
        <time>2018-03-04T08:11:49Z</time>
      </trkpt>
      <trkpt lat="43.54871" lon="5.88569">
        <ele>422</ele>
        <time>2018-03-04T08:11:54Z</time>
      </trkpt>
      <trkpt lat="43.54878" lon="5.88596">
        <ele>417</ele>
        <time>2018-03-04T08:12:00Z</time>
      </trkpt>
      <trkpt lat="43.54882" lon="5.88621">
        <ele>416</ele>
        <time>2018-03-04T08:12:05Z</time>
      </trkpt>
      <trkpt lat="43.54886" lon="5.88649">
        <ele>414</ele>
        <time>2018-03-04T08:12:12Z</time>
      </trkpt>
      <trkpt lat="43.54892" lon="5.88677">
        <ele>409</ele>
        <time>2018-03-04T08:12:19Z</time>
      </trkpt>
      <trkpt lat="43.549" lon="5.88702">
        <ele>409</ele>
        <time>2018-03-04T08:12:26Z</time>
      </trkpt>
      <trkpt lat="43.54909" lon="5.88723">
        <ele>407</ele>
        <time>2018-03-04T08:12:33Z</time>
      </trkpt>
      <trkpt lat="43.54915" lon="5.8875">
        <ele>404</ele>
        <time>2018-03-04T08:12:42Z</time>
      </trkpt>
      <trkpt lat="43.54921" lon="5.88777">
        <ele>402</ele>
        <time>2018-03-04T08:12:50Z</time>
      </trkpt>
      <trkpt lat="43.54927" lon="5.88803">
        <ele>401</ele>
        <time>2018-03-04T08:12:58Z</time>
      </trkpt>
      <trkpt lat="43.54933" lon="5.88831">
        <ele>401</ele>
        <time>2018-03-04T08:13:17Z</time>
      </trkpt>
      <trkpt lat="43.5492" lon="5.88848">
        <ele>401</ele>
        <time>2018-03-04T08:14:51Z</time>
      </trkpt>
      <trkpt lat="43.54908" lon="5.88869">
        <ele>400</ele>
        <time>2018-03-04T08:15:00Z</time>
      </trkpt>
      <trkpt lat="43.54893" lon="5.88886">
        <ele>400</ele>
        <time>2018-03-04T08:15:10Z</time>
      </trkpt>
      <trkpt lat="43.54877" lon="5.889">
        <ele>400</ele>
        <time>2018-03-04T08:15:16Z</time>
      </trkpt>
      <trkpt lat="43.5486" lon="5.88907">
        <ele>400</ele>
        <time>2018-03-04T08:15:25Z</time>
      </trkpt>
      <trkpt lat="43.54839" lon="5.88909">
        <ele>400</ele>
        <time>2018-03-04T08:15:34Z</time>
      </trkpt>
      <trkpt lat="43.5482" lon="5.88911">
        <ele>400</ele>
        <time>2018-03-04T08:15:42Z</time>
      </trkpt>
      <trkpt lat="43.548" lon="5.88912">
        <ele>401</ele>
        <time>2018-03-04T08:15:49Z</time>
      </trkpt>
      <trkpt lat="43.54782" lon="5.88912">
        <ele>400</ele>
        <time>2018-03-04T08:15:55Z</time>
      </trkpt>
      <trkpt lat="43.54763" lon="5.88909">
        <ele>400</ele>
        <time>2018-03-04T08:16:03Z</time>
      </trkpt>
      <trkpt lat="43.54744" lon="5.88909">
        <ele>399</ele>
        <time>2018-03-04T08:16:12Z</time>
      </trkpt>
      <trkpt lat="43.54725" lon="5.88911">
        <ele>400</ele>
        <time>2018-03-04T08:16:20Z</time>
      </trkpt>
      <trkpt lat="43.54708" lon="5.88921">
        <ele>400</ele>
        <time>2018-03-04T08:16:31Z</time>
      </trkpt>
      <trkpt lat="43.54689" lon="5.88922">
        <ele>400</ele>
        <time>2018-03-04T08:16:39Z</time>
      </trkpt>
      <trkpt lat="43.54671" lon="5.88926">
        <ele>399</ele>
        <time>2018-03-04T08:16:45Z</time>
      </trkpt>
      <trkpt lat="43.54651" lon="5.88928">
        <ele>400</ele>
        <time>2018-03-04T08:16:52Z</time>
      </trkpt>
      <trkpt lat="43.54631" lon="5.88931">
        <ele>400</ele>
        <time>2018-03-04T08:16:59Z</time>
      </trkpt>
      <trkpt lat="43.54614" lon="5.88943">
        <ele>400</ele>
        <time>2018-03-04T08:17:07Z</time>
      </trkpt>
      <trkpt lat="43.54595" lon="5.88951">
        <ele>400</ele>
        <time>2018-03-04T08:17:15Z</time>
      </trkpt>
      <trkpt lat="43.54576" lon="5.88956">
        <ele>400</ele>
        <time>2018-03-04T08:17:23Z</time>
      </trkpt>
      <trkpt lat="43.54558" lon="5.88969">
        <ele>400</ele>
        <time>2018-03-04T08:17:32Z</time>
      </trkpt>
      <trkpt lat="43.54539" lon="5.88975">
        <ele>399</ele>
        <time>2018-03-04T08:17:41Z</time>
      </trkpt>
      <trkpt lat="43.54522" lon="5.88982">
        <ele>399</ele>
        <time>2018-03-04T08:17:56Z</time>
      </trkpt>
      <trkpt lat="43.54503" lon="5.8899">
        <ele>397</ele>
        <time>2018-03-04T08:18:06Z</time>
      </trkpt>
      <trkpt lat="43.54483" lon="5.88992">
        <ele>398</ele>
        <time>2018-03-04T08:18:12Z</time>
      </trkpt>
      <trkpt lat="43.54465" lon="5.89004">
        <ele>397</ele>
        <time>2018-03-04T08:18:18Z</time>
      </trkpt>
      <trkpt lat="43.54445" lon="5.89017">
        <ele>397</ele>
        <time>2018-03-04T08:18:24Z</time>
      </trkpt>
      <trkpt lat="43.54432" lon="5.89034">
        <ele>397</ele>
        <time>2018-03-04T08:18:28Z</time>
      </trkpt>
      <trkpt lat="43.54424" lon="5.89057">
        <ele>397</ele>
        <time>2018-03-04T08:18:32Z</time>
      </trkpt>
      <trkpt lat="43.54422" lon="5.89086">
        <ele>396</ele>
        <time>2018-03-04T08:18:38Z</time>
      </trkpt>
      <trkpt lat="43.54427" lon="5.89111">
        <ele>397</ele>
        <time>2018-03-04T08:18:44Z</time>
      </trkpt>
      <trkpt lat="43.54436" lon="5.89136">
        <ele>397</ele>
        <time>2018-03-04T08:18:51Z</time>
      </trkpt>
      <trkpt lat="43.54443" lon="5.89159">
        <ele>397</ele>
        <time>2018-03-04T08:18:57Z</time>
      </trkpt>
      <trkpt lat="43.54452" lon="5.89185">
        <ele>396</ele>
        <time>2018-03-04T08:19:03Z</time>
      </trkpt>
      <trkpt lat="43.54458" lon="5.89209">
        <ele>396</ele>
        <time>2018-03-04T08:19:09Z</time>
      </trkpt>
      <trkpt lat="43.5445" lon="5.89234">
        <ele>396</ele>
        <time>2018-03-04T08:19:20Z</time>
      </trkpt>
      <trkpt lat="43.54442" lon="5.89258">
        <ele>394</ele>
        <time>2018-03-04T08:19:27Z</time>
      </trkpt>
      <trkpt lat="43.54437" lon="5.89286">
        <ele>394</ele>
        <time>2018-03-04T08:19:34Z</time>
      </trkpt>
      <trkpt lat="43.54442" lon="5.89312">
        <ele>393</ele>
        <time>2018-03-04T08:19:42Z</time>
      </trkpt>
      <trkpt lat="43.54439" lon="5.89338">
        <ele>393</ele>
        <time>2018-03-04T08:19:52Z</time>
      </trkpt>
      <trkpt lat="43.54427" lon="5.89359">
        <ele>393</ele>
        <time>2018-03-04T08:19:59Z</time>
      </trkpt>
      <trkpt lat="43.54417" lon="5.89385">
        <ele>393</ele>
        <time>2018-03-04T08:20:06Z</time>
      </trkpt>
      <trkpt lat="43.54407" lon="5.89406">
        <ele>388</ele>
        <time>2018-03-04T08:20:21Z</time>
      </trkpt>
      <trkpt lat="43.54398" lon="5.89429">
        <ele>389</ele>
        <time>2018-03-04T08:20:33Z</time>
      </trkpt>
      <trkpt lat="43.54403" lon="5.89455">
        <ele>390</ele>
        <time>2018-03-04T08:20:45Z</time>
      </trkpt>
      <trkpt lat="43.5441" lon="5.8948">
        <ele>392</ele>
        <time>2018-03-04T08:20:53Z</time>
      </trkpt>
      <trkpt lat="43.54414" lon="5.89505">
        <ele>394</ele>
        <time>2018-03-04T08:21:01Z</time>
      </trkpt>
      <trkpt lat="43.54413" lon="5.89532">
        <ele>395</ele>
        <time>2018-03-04T08:21:09Z</time>
      </trkpt>
      <trkpt lat="43.54407" lon="5.89558">
        <ele>396</ele>
        <time>2018-03-04T08:21:17Z</time>
      </trkpt>
      <trkpt lat="43.54408" lon="5.89584">
        <ele>396</ele>
        <time>2018-03-04T08:21:26Z</time>
      </trkpt>
      <trkpt lat="43.54409" lon="5.8961">
        <ele>397</ele>
        <time>2018-03-04T08:21:36Z</time>
      </trkpt>
      <trkpt lat="43.54398" lon="5.89632">
        <ele>398</ele>
        <time>2018-03-04T08:21:45Z</time>
      </trkpt>
      <trkpt lat="43.54385" lon="5.89652">
        <ele>398</ele>
        <time>2018-03-04T08:21:53Z</time>
      </trkpt>
      <trkpt lat="43.54377" lon="5.89678">
        <ele>399</ele>
        <time>2018-03-04T08:22:01Z</time>
      </trkpt>
      <trkpt lat="43.54381" lon="5.89703">
        <ele>400</ele>
        <time>2018-03-04T08:22:09Z</time>
      </trkpt>
      <trkpt lat="43.54399" lon="5.89716">
        <ele>400</ele>
        <time>2018-03-04T08:22:17Z</time>
      </trkpt>
      <trkpt lat="43.54416" lon="5.89724">
        <ele>399</ele>
        <time>2018-03-04T08:22:24Z</time>
      </trkpt>
      <trkpt lat="43.54434" lon="5.89727">
        <ele>400</ele>
        <time>2018-03-04T08:22:31Z</time>
      </trkpt>
      <trkpt lat="43.54454" lon="5.89732">
        <ele>401</ele>
        <time>2018-03-04T08:22:41Z</time>
      </trkpt>
      <trkpt lat="43.54472" lon="5.89737">
        <ele>401</ele>
        <time>2018-03-04T08:22:50Z</time>
      </trkpt>
      <trkpt lat="43.54486" lon="5.89719">
        <ele>402</ele>
        <time>2018-03-04T08:22:59Z</time>
      </trkpt>
      <trkpt lat="43.54502" lon="5.89703">
        <ele>405</ele>
        <time>2018-03-04T08:23:07Z</time>
      </trkpt>
      <trkpt lat="43.54517" lon="5.89688">
        <ele>405</ele>
        <time>2018-03-04T08:23:14Z</time>
      </trkpt>
      <trkpt lat="43.54533" lon="5.89675">
        <ele>405</ele>
        <time>2018-03-04T08:23:22Z</time>
      </trkpt>
      <trkpt lat="43.54552" lon="5.89666">
        <ele>405</ele>
        <time>2018-03-04T08:23:30Z</time>
      </trkpt>
      <trkpt lat="43.54568" lon="5.89652">
        <ele>405</ele>
        <time>2018-03-04T08:23:37Z</time>
      </trkpt>
      <trkpt lat="43.54587" lon="5.89639">
        <ele>405</ele>
        <time>2018-03-04T08:23:45Z</time>
      </trkpt>
      <trkpt lat="43.54605" lon="5.89631">
        <ele>405</ele>
        <time>2018-03-04T08:23:53Z</time>
      </trkpt>
      <trkpt lat="43.54625" lon="5.89631">
        <ele>405</ele>
        <time>2018-03-04T08:24:01Z</time>
      </trkpt>
      <trkpt lat="43.54644" lon="5.89641">
        <ele>405</ele>
        <time>2018-03-04T08:24:09Z</time>
      </trkpt>
      <trkpt lat="43.54658" lon="5.89657">
        <ele>403</ele>
        <time>2018-03-04T08:24:18Z</time>
      </trkpt>
      <trkpt lat="43.54662" lon="5.89683">
        <ele>403</ele>
        <time>2018-03-04T08:24:26Z</time>
      </trkpt>
      <trkpt lat="43.5466" lon="5.89708">
        <ele>404</ele>
        <time>2018-03-04T08:24:33Z</time>
      </trkpt>
      <trkpt lat="43.54655" lon="5.89733">
        <ele>404</ele>
        <time>2018-03-04T08:24:41Z</time>
      </trkpt>
      <trkpt lat="43.54652" lon="5.89758">
        <ele>406</ele>
        <time>2018-03-04T08:24:49Z</time>
      </trkpt>
      <trkpt lat="43.5465" lon="5.89785">
        <ele>407</ele>
        <time>2018-03-04T08:24:57Z</time>
      </trkpt>
      <trkpt lat="43.54657" lon="5.89808">
        <ele>407</ele>
        <time>2018-03-04T08:25:05Z</time>
      </trkpt>
      <trkpt lat="43.54671" lon="5.89828">
        <ele>405</ele>
        <time>2018-03-04T08:25:13Z</time>
      </trkpt>
      <trkpt lat="43.54684" lon="5.89845">
        <ele>406</ele>
        <time>2018-03-04T08:25:23Z</time>
      </trkpt>
      <trkpt lat="43.54688" lon="5.89872">
        <ele>407</ele>
        <time>2018-03-04T08:25:32Z</time>
      </trkpt>
      <trkpt lat="43.54693" lon="5.89896">
        <ele>408</ele>
        <time>2018-03-04T08:28:22Z</time>
      </trkpt>
      <trkpt lat="43.54695" lon="5.89904">
        <ele>408</ele>
        <time>2018-03-04T08:39:47Z</time>
      </trkpt>
      <trkpt lat="43.54713" lon="5.89913">
        <ele>408</ele>
        <time>2018-03-04T08:39:53Z</time>
      </trkpt>
      <trkpt lat="43.54719" lon="5.89939">
        <ele>409</ele>
        <time>2018-03-04T08:40:03Z</time>
      </trkpt>
      <trkpt lat="43.54721" lon="5.89965">
        <ele>410</ele>
        <time>2018-03-04T08:40:14Z</time>
      </trkpt>
      <trkpt lat="43.54727" lon="5.8999">
        <ele>410</ele>
        <time>2018-03-04T08:40:24Z</time>
      </trkpt>
      <trkpt lat="43.54744" lon="5.90001">
        <ele>411</ele>
        <time>2018-03-04T08:40:39Z</time>
      </trkpt>
      <trkpt lat="43.54762" lon="5.89999">
        <ele>411</ele>
        <time>2018-03-04T08:40:50Z</time>
      </trkpt>
      <trkpt lat="43.5478" lon="5.9">
        <ele>412</ele>
        <time>2018-03-04T08:41:02Z</time>
      </trkpt>
      <trkpt lat="43.54798" lon="5.89992">
        <ele>413</ele>
        <time>2018-03-04T08:41:15Z</time>
      </trkpt>
      <trkpt lat="43.54816" lon="5.89988">
        <ele>414</ele>
        <time>2018-03-04T08:41:28Z</time>
      </trkpt>
      <trkpt lat="43.54834" lon="5.89983">
        <ele>418</ele>
        <time>2018-03-04T08:41:40Z</time>
      </trkpt>
      <trkpt lat="43.54852" lon="5.89982">
        <ele>418</ele>
        <time>2018-03-04T08:41:52Z</time>
      </trkpt>
      <trkpt lat="43.5487" lon="5.89977">
        <ele>419</ele>
        <time>2018-03-04T08:42:04Z</time>
      </trkpt>
      <trkpt lat="43.5489" lon="5.89974">
        <ele>420</ele>
        <time>2018-03-04T08:42:16Z</time>
      </trkpt>
      <trkpt lat="43.54908" lon="5.89982">
        <ele>421</ele>
        <time>2018-03-04T08:42:26Z</time>
      </trkpt>
      <trkpt lat="43.54921" lon="5.90002">
        <ele>423</ele>
        <time>2018-03-04T08:42:35Z</time>
      </trkpt>
      <trkpt lat="43.54935" lon="5.90022">
        <ele>422</ele>
        <time>2018-03-04T08:42:43Z</time>
      </trkpt>
      <trkpt lat="43.54952" lon="5.90034">
        <ele>422</ele>
        <time>2018-03-04T08:42:51Z</time>
      </trkpt>
      <trkpt lat="43.5497" lon="5.90042">
        <ele>422</ele>
        <time>2018-03-04T08:42:58Z</time>
      </trkpt>
      <trkpt lat="43.54989" lon="5.90055">
        <ele>421</ele>
        <time>2018-03-04T08:43:04Z</time>
      </trkpt>
      <trkpt lat="43.55005" lon="5.90067">
        <ele>422</ele>
        <time>2018-03-04T08:43:13Z</time>
      </trkpt>
      <trkpt lat="43.55023" lon="5.90074">
        <ele>422</ele>
        <time>2018-03-04T08:43:24Z</time>
      </trkpt>
      <trkpt lat="43.55043" lon="5.9007">
        <ele>423</ele>
        <time>2018-03-04T08:43:34Z</time>
      </trkpt>
      <trkpt lat="43.55061" lon="5.90067">
        <ele>423</ele>
        <time>2018-03-04T08:43:42Z</time>
      </trkpt>
      <trkpt lat="43.55079" lon="5.90077">
        <ele>424</ele>
        <time>2018-03-04T08:43:51Z</time>
      </trkpt>
      <trkpt lat="43.5509" lon="5.90098">
        <ele>424</ele>
        <time>2018-03-04T08:44:00Z</time>
      </trkpt>
      <trkpt lat="43.55099" lon="5.90119">
        <ele>425</ele>
        <time>2018-03-04T08:48:33Z</time>
      </trkpt>
      <trkpt lat="43.5509" lon="5.90142">
        <ele>424</ele>
        <time>2018-03-04T08:48:41Z</time>
      </trkpt>
      <trkpt lat="43.55078" lon="5.90164">
        <ele>421</ele>
        <time>2018-03-04T08:48:50Z</time>
      </trkpt>
      <trkpt lat="43.55067" lon="5.90184">
        <ele>421</ele>
        <time>2018-03-04T08:48:59Z</time>
      </trkpt>
      <trkpt lat="43.55062" lon="5.9021">
        <ele>421</ele>
        <time>2018-03-04T08:49:06Z</time>
      </trkpt>
      <trkpt lat="43.55062" lon="5.90236">
        <ele>420</ele>
        <time>2018-03-04T08:49:11Z</time>
      </trkpt>
      <trkpt lat="43.55057" lon="5.90264">
        <ele>420</ele>
        <time>2018-03-04T08:49:16Z</time>
      </trkpt>
      <trkpt lat="43.55052" lon="5.90293">
        <ele>420</ele>
        <time>2018-03-04T08:49:22Z</time>
      </trkpt>
      <trkpt lat="43.55045" lon="5.90317">
        <ele>420</ele>
        <time>2018-03-04T08:49:27Z</time>
      </trkpt>
      <trkpt lat="43.55041" lon="5.90343">
        <ele>421</ele>
        <time>2018-03-04T08:49:32Z</time>
      </trkpt>
      <trkpt lat="43.55051" lon="5.90365">
        <ele>420</ele>
        <time>2018-03-04T08:49:40Z</time>
      </trkpt>
      <trkpt lat="43.55069" lon="5.90364">
        <ele>420</ele>
        <time>2018-03-04T08:49:46Z</time>
      </trkpt>
      <trkpt lat="43.5509" lon="5.90367">
        <ele>422</ele>
        <time>2018-03-04T08:49:53Z</time>
      </trkpt>
      <trkpt lat="43.55106" lon="5.90382">
        <ele>422</ele>
        <time>2018-03-04T08:50:00Z</time>
      </trkpt>
      <trkpt lat="43.55122" lon="5.90402">
        <ele>422</ele>
        <time>2018-03-04T08:50:07Z</time>
      </trkpt>
      <trkpt lat="43.55138" lon="5.90419">
        <ele>424</ele>
        <time>2018-03-04T08:50:13Z</time>
      </trkpt>
      <trkpt lat="43.55151" lon="5.90436">
        <ele>424</ele>
        <time>2018-03-04T08:50:19Z</time>
      </trkpt>
      <trkpt lat="43.55166" lon="5.90455">
        <ele>425</ele>
        <time>2018-03-04T08:50:26Z</time>
      </trkpt>
      <trkpt lat="43.5518" lon="5.90472">
        <ele>426</ele>
        <time>2018-03-04T08:52:00Z</time>
      </trkpt>
      <trkpt lat="43.55195" lon="5.9049">
        <ele>426</ele>
        <time>2018-03-04T08:52:09Z</time>
      </trkpt>
      <trkpt lat="43.55213" lon="5.90499">
        <ele>426</ele>
        <time>2018-03-04T08:52:17Z</time>
      </trkpt>
      <trkpt lat="43.55233" lon="5.90509">
        <ele>427</ele>
        <time>2018-03-04T08:52:25Z</time>
      </trkpt>
      <trkpt lat="43.55251" lon="5.90514">
        <ele>426</ele>
        <time>2018-03-04T08:52:32Z</time>
      </trkpt>
      <trkpt lat="43.55269" lon="5.90521">
        <ele>426</ele>
        <time>2018-03-04T08:52:39Z</time>
      </trkpt>
      <trkpt lat="43.55287" lon="5.90533">
        <ele>426</ele>
        <time>2018-03-04T08:52:48Z</time>
      </trkpt>
      <trkpt lat="43.55302" lon="5.90546">
        <ele>426</ele>
        <time>2018-03-04T08:52:56Z</time>
      </trkpt>
      <trkpt lat="43.55315" lon="5.90565">
        <ele>426</ele>
        <time>2018-03-04T08:53:04Z</time>
      </trkpt>
      <trkpt lat="43.55328" lon="5.90584">
        <ele>427</ele>
        <time>2018-03-04T08:53:12Z</time>
      </trkpt>
      <trkpt lat="43.55342" lon="5.90603">
        <ele>427</ele>
        <time>2018-03-04T08:53:20Z</time>
      </trkpt>
      <trkpt lat="43.55361" lon="5.90609">
        <ele>428</ele>
        <time>2018-03-04T08:53:29Z</time>
      </trkpt>
      <trkpt lat="43.55376" lon="5.90625">
        <ele>428</ele>
        <time>2018-03-04T08:53:39Z</time>
      </trkpt>
      <trkpt lat="43.55378" lon="5.90651">
        <ele>428</ele>
        <time>2018-03-04T08:53:54Z</time>
      </trkpt>
      <trkpt lat="43.55374" lon="5.90676">
        <ele>431</ele>
        <time>2018-03-04T08:54:04Z</time>
      </trkpt>
      <trkpt lat="43.55381" lon="5.907">
        <ele>431</ele>
        <time>2018-03-04T08:54:18Z</time>
      </trkpt>
      <trkpt lat="43.55387" lon="5.90725">
        <ele>432</ele>
        <time>2018-03-04T08:54:30Z</time>
      </trkpt>
      <trkpt lat="43.55388" lon="5.9075">
        <ele>432</ele>
        <time>2018-03-04T08:54:41Z</time>
      </trkpt>
      <trkpt lat="43.55398" lon="5.90772">
        <ele>436</ele>
        <time>2018-03-04T08:54:55Z</time>
      </trkpt>
      <trkpt lat="43.55398" lon="5.90799">
        <ele>437</ele>
        <time>2018-03-04T08:55:08Z</time>
      </trkpt>
      <trkpt lat="43.55407" lon="5.90821">
        <ele>438</ele>
        <time>2018-03-04T08:55:21Z</time>
      </trkpt>
      <trkpt lat="43.55409" lon="5.90847">
        <ele>439</ele>
        <time>2018-03-04T08:55:33Z</time>
      </trkpt>
      <trkpt lat="43.55409" lon="5.90873">
        <ele>440</ele>
        <time>2018-03-04T08:55:45Z</time>
      </trkpt>
      <trkpt lat="43.55419" lon="5.90895">
        <ele>439</ele>
        <time>2018-03-04T08:55:57Z</time>
      </trkpt>
      <trkpt lat="43.55439" lon="5.90901">
        <ele>438</ele>
        <time>2018-03-04T08:56:05Z</time>
      </trkpt>
      <trkpt lat="43.55455" lon="5.90915">
        <ele>438</ele>
        <time>2018-03-04T08:56:13Z</time>
      </trkpt>
      <trkpt lat="43.55466" lon="5.90937">
        <ele>436</ele>
        <time>2018-03-04T08:56:21Z</time>
      </trkpt>
      <trkpt lat="43.55482" lon="5.9095">
        <ele>436</ele>
        <time>2018-03-04T08:56:28Z</time>
      </trkpt>
      <trkpt lat="43.555" lon="5.90954">
        <ele>435</ele>
        <time>2018-03-04T08:56:34Z</time>
      </trkpt>
      <trkpt lat="43.55519" lon="5.90959">
        <ele>435</ele>
        <time>2018-03-04T08:56:43Z</time>
      </trkpt>
      <trkpt lat="43.55535" lon="5.90974">
        <ele>435</ele>
        <time>2018-03-04T08:56:55Z</time>
      </trkpt>
      <trkpt lat="43.55553" lon="5.9098">
        <ele>435</ele>
        <time>2018-03-04T08:57:06Z</time>
      </trkpt>
      <trkpt lat="43.55566" lon="5.90999">
        <ele>436</ele>
        <time>2018-03-04T09:00:59Z</time>
      </trkpt>
      <trkpt lat="43.55558" lon="5.91025">
        <ele>436</ele>
        <time>2018-03-04T09:01:10Z</time>
      </trkpt>
      <trkpt lat="43.55546" lon="5.91045">
        <ele>436</ele>
        <time>2018-03-04T09:01:19Z</time>
      </trkpt>
      <trkpt lat="43.55529" lon="5.91061">
        <ele>436</ele>
        <time>2018-03-04T09:01:28Z</time>
      </trkpt>
      <trkpt lat="43.55518" lon="5.91082">
        <ele>436</ele>
        <time>2018-03-04T09:01:36Z</time>
      </trkpt>
      <trkpt lat="43.55508" lon="5.91104">
        <ele>437</ele>
        <time>2018-03-04T09:01:45Z</time>
      </trkpt>
      <trkpt lat="43.55497" lon="5.91127">
        <ele>435</ele>
        <time>2018-03-04T09:01:54Z</time>
      </trkpt>
      <trkpt lat="43.55485" lon="5.91148">
        <ele>436</ele>
        <time>2018-03-04T09:02:03Z</time>
      </trkpt>
      <trkpt lat="43.55471" lon="5.91165">
        <ele>436</ele>
        <time>2018-03-04T09:02:12Z</time>
      </trkpt>
      <trkpt lat="43.55458" lon="5.91186">
        <ele>436</ele>
        <time>2018-03-04T09:02:21Z</time>
      </trkpt>
      <trkpt lat="43.55446" lon="5.91205">
        <ele>436</ele>
        <time>2018-03-04T09:02:29Z</time>
      </trkpt>
      <trkpt lat="43.55432" lon="5.91222">
        <ele>436</ele>
        <time>2018-03-04T09:02:38Z</time>
      </trkpt>
      <trkpt lat="43.55421" lon="5.91243">
        <ele>435</ele>
        <time>2018-03-04T09:02:54Z</time>
      </trkpt>
      <trkpt lat="43.55437" lon="5.91258">
        <ele>437</ele>
        <time>2018-03-04T09:03:42Z</time>
      </trkpt>
      <trkpt lat="43.55455" lon="5.91267">
        <ele>438</ele>
        <time>2018-03-04T09:03:52Z</time>
      </trkpt>
      <trkpt lat="43.55472" lon="5.91278">
        <ele>438</ele>
        <time>2018-03-04T09:04:02Z</time>
      </trkpt>
      <trkpt lat="43.5549" lon="5.91289">
        <ele>438</ele>
        <time>2018-03-04T09:04:13Z</time>
      </trkpt>
      <trkpt lat="43.55503" lon="5.91308">
        <ele>439</ele>
        <time>2018-03-04T09:04:23Z</time>
      </trkpt>
      <trkpt lat="43.55513" lon="5.9133">
        <ele>438</ele>
        <time>2018-03-04T09:04:32Z</time>
      </trkpt>
      <trkpt lat="43.55513" lon="5.91358">
        <ele>437</ele>
        <time>2018-03-04T09:07:10Z</time>
      </trkpt>
      <trkpt lat="43.55493" lon="5.91403">
        <ele>438</ele>
        <time>2018-03-04T09:07:32Z</time>
      </trkpt>
      <trkpt lat="43.55483" lon="5.91425">
        <ele>439</ele>
        <time>2018-03-04T09:07:41Z</time>
      </trkpt>
      <trkpt lat="43.55475" lon="5.91448">
        <ele>440</ele>
        <time>2018-03-04T09:07:50Z</time>
      </trkpt>
      <trkpt lat="43.55468" lon="5.91471">
        <ele>440</ele>
        <time>2018-03-04T09:07:58Z</time>
      </trkpt>
      <trkpt lat="43.5546" lon="5.91495">
        <ele>440</ele>
        <time>2018-03-04T09:08:06Z</time>
      </trkpt>
      <trkpt lat="43.55453" lon="5.91519">
        <ele>439</ele>
        <time>2018-03-04T09:08:14Z</time>
      </trkpt>
      <trkpt lat="43.55446" lon="5.91546">
        <ele>439</ele>
        <time>2018-03-04T09:08:22Z</time>
      </trkpt>
      <trkpt lat="43.55438" lon="5.91568">
        <ele>439</ele>
        <time>2018-03-04T09:08:29Z</time>
      </trkpt>
      <trkpt lat="43.55433" lon="5.91596">
        <ele>439</ele>
        <time>2018-03-04T09:08:37Z</time>
      </trkpt>
      <trkpt lat="43.55428" lon="5.91622">
        <ele>438</ele>
        <time>2018-03-04T09:08:44Z</time>
      </trkpt>
      <trkpt lat="43.5543" lon="5.91649">
        <ele>438</ele>
        <time>2018-03-04T09:08:52Z</time>
      </trkpt>
      <trkpt lat="43.55433" lon="5.91676">
        <ele>438</ele>
        <time>2018-03-04T09:08:58Z</time>
      </trkpt>
      <trkpt lat="43.55434" lon="5.91705">
        <ele>438</ele>
        <time>2018-03-04T09:09:04Z</time>
      </trkpt>
      <trkpt lat="43.55434" lon="5.91731">
        <ele>438</ele>
        <time>2018-03-04T09:09:10Z</time>
      </trkpt>
      <trkpt lat="43.55434" lon="5.91757">
        <ele>439</ele>
        <time>2018-03-04T09:09:16Z</time>
      </trkpt>
      <trkpt lat="43.55431" lon="5.91782">
        <ele>439</ele>
        <time>2018-03-04T09:09:22Z</time>
      </trkpt>
      <trkpt lat="43.5543" lon="5.91811">
        <ele>439</ele>
        <time>2018-03-04T09:09:29Z</time>
      </trkpt>
      <trkpt lat="43.5543" lon="5.91838">
        <ele>440</ele>
        <time>2018-03-04T09:09:36Z</time>
      </trkpt>
      <trkpt lat="43.5543" lon="5.91865">
        <ele>440</ele>
        <time>2018-03-04T09:09:43Z</time>
      </trkpt>
      <trkpt lat="43.5543" lon="5.91893">
        <ele>440</ele>
        <time>2018-03-04T09:09:50Z</time>
      </trkpt>
      <trkpt lat="43.55419" lon="5.91917">
        <ele>441</ele>
        <time>2018-03-04T09:09:57Z</time>
      </trkpt>
      <trkpt lat="43.55408" lon="5.91939">
        <ele>441</ele>
        <time>2018-03-04T09:10:04Z</time>
      </trkpt>
      <trkpt lat="43.55398" lon="5.91962">
        <ele>441</ele>
        <time>2018-03-04T09:10:11Z</time>
      </trkpt>
      <trkpt lat="43.55384" lon="5.9198">
        <ele>441</ele>
        <time>2018-03-04T09:10:18Z</time>
      </trkpt>
      <trkpt lat="43.5537" lon="5.91996">
        <ele>441</ele>
        <time>2018-03-04T09:10:25Z</time>
      </trkpt>
      <trkpt lat="43.55354" lon="5.92008">
        <ele>441</ele>
        <time>2018-03-04T09:10:33Z</time>
      </trkpt>
      <trkpt lat="43.55337" lon="5.92016">
        <ele>441</ele>
        <time>2018-03-04T09:10:40Z</time>
      </trkpt>
      <trkpt lat="43.5532" lon="5.92028">
        <ele>441</ele>
        <time>2018-03-04T09:10:46Z</time>
      </trkpt>
      <trkpt lat="43.55304" lon="5.92042">
        <ele>441</ele>
        <time>2018-03-04T09:10:52Z</time>
      </trkpt>
      <trkpt lat="43.55289" lon="5.92062">
        <ele>441</ele>
        <time>2018-03-04T09:10:59Z</time>
      </trkpt>
      <trkpt lat="43.5528" lon="5.92086">
        <ele>440</ele>
        <time>2018-03-04T09:11:05Z</time>
      </trkpt>
      <trkpt lat="43.55268" lon="5.9211">
        <ele>440</ele>
        <time>2018-03-04T09:11:11Z</time>
      </trkpt>
      <trkpt lat="43.55256" lon="5.92133">
        <ele>439</ele>
        <time>2018-03-04T09:11:17Z</time>
      </trkpt>
      <trkpt lat="43.55247" lon="5.92157">
        <ele>439</ele>
        <time>2018-03-04T09:11:23Z</time>
      </trkpt>
      <trkpt lat="43.55238" lon="5.92183">
        <ele>437</ele>
        <time>2018-03-04T09:11:29Z</time>
      </trkpt>
      <trkpt lat="43.55228" lon="5.92204">
        <ele>436</ele>
        <time>2018-03-04T09:11:34Z</time>
      </trkpt>
      <trkpt lat="43.55217" lon="5.9223">
        <ele>435</ele>
        <time>2018-03-04T09:11:40Z</time>
      </trkpt>
      <trkpt lat="43.55205" lon="5.92254">
        <ele>434</ele>
        <time>2018-03-04T09:11:46Z</time>
      </trkpt>
      <trkpt lat="43.55195" lon="5.92279">
        <ele>434</ele>
        <time>2018-03-04T09:11:52Z</time>
      </trkpt>
      <trkpt lat="43.55191" lon="5.92306">
        <ele>434</ele>
        <time>2018-03-04T09:11:58Z</time>
      </trkpt>
      <trkpt lat="43.55186" lon="5.92331">
        <ele>435</ele>
        <time>2018-03-04T09:12:04Z</time>
      </trkpt>
      <trkpt lat="43.55179" lon="5.92357">
        <ele>434</ele>
        <time>2018-03-04T09:12:11Z</time>
      </trkpt>
      <trkpt lat="43.55173" lon="5.92384">
        <ele>433</ele>
        <time>2018-03-04T09:12:18Z</time>
      </trkpt>
      <trkpt lat="43.55164" lon="5.92409">
        <ele>436</ele>
        <time>2018-03-04T09:12:25Z</time>
      </trkpt>
      <trkpt lat="43.55158" lon="5.92435">
        <ele>435</ele>
        <time>2018-03-04T09:12:32Z</time>
      </trkpt>
      <trkpt lat="43.55148" lon="5.92458">
        <ele>435</ele>
        <time>2018-03-04T09:12:38Z</time>
      </trkpt>
      <trkpt lat="43.55137" lon="5.92482">
        <ele>435</ele>
        <time>2018-03-04T09:12:45Z</time>
      </trkpt>
      <trkpt lat="43.55133" lon="5.9251">
        <ele>434</ele>
        <time>2018-03-04T09:12:52Z</time>
      </trkpt>
      <trkpt lat="43.55132" lon="5.92537">
        <ele>434</ele>
        <time>2018-03-04T09:12:59Z</time>
      </trkpt>
      <trkpt lat="43.55124" lon="5.9256">
        <ele>435</ele>
        <time>2018-03-04T09:14:15Z</time>
      </trkpt>
      <trkpt lat="43.55127" lon="5.92587">
        <ele>434</ele>
        <time>2018-03-04T09:14:24Z</time>
      </trkpt>
      <trkpt lat="43.55131" lon="5.92613">
        <ele>434</ele>
        <time>2018-03-04T09:14:32Z</time>
      </trkpt>
      <trkpt lat="43.55133" lon="5.92639">
        <ele>433</ele>
        <time>2018-03-04T09:14:40Z</time>
      </trkpt>
      <trkpt lat="43.55135" lon="5.92666">
        <ele>433</ele>
        <time>2018-03-04T09:14:48Z</time>
      </trkpt>
      <trkpt lat="43.55128" lon="5.92691">
        <ele>433</ele>
        <time>2018-03-04T09:14:55Z</time>
      </trkpt>
      <trkpt lat="43.55121" lon="5.92717">
        <ele>433</ele>
        <time>2018-03-04T09:15:02Z</time>
      </trkpt>
      <trkpt lat="43.55114" lon="5.92741">
        <ele>433</ele>
        <time>2018-03-04T09:15:09Z</time>
      </trkpt>
      <trkpt lat="43.55105" lon="5.92764">
        <ele>433</ele>
        <time>2018-03-04T09:15:16Z</time>
      </trkpt>
      <trkpt lat="43.55097" lon="5.92789">
        <ele>433</ele>
        <time>2018-03-04T09:15:23Z</time>
      </trkpt>
      <trkpt lat="43.55089" lon="5.92813">
        <ele>433</ele>
        <time>2018-03-04T09:15:30Z</time>
      </trkpt>
      <trkpt lat="43.55083" lon="5.92838">
        <ele>435</ele>
        <time>2018-03-04T09:15:38Z</time>
      </trkpt>
      <trkpt lat="43.55084" lon="5.92863">
        <ele>430</ele>
        <time>2018-03-04T09:15:44Z</time>
      </trkpt>
      <trkpt lat="43.5508" lon="5.92891">
        <ele>432</ele>
        <time>2018-03-04T09:15:50Z</time>
      </trkpt>
      <trkpt lat="43.55069" lon="5.92914">
        <ele>431</ele>
        <time>2018-03-04T09:15:55Z</time>
      </trkpt>
      <trkpt lat="43.5506" lon="5.92939">
        <ele>431</ele>
        <time>2018-03-04T09:16:01Z</time>
      </trkpt>
      <trkpt lat="43.55048" lon="5.92962">
        <ele>431</ele>
        <time>2018-03-04T09:16:07Z</time>
      </trkpt>
      <trkpt lat="43.55044" lon="5.92986">
        <ele>431</ele>
        <time>2018-03-04T09:16:13Z</time>
      </trkpt>
      <trkpt lat="43.5504" lon="5.93015">
        <ele>431</ele>
        <time>2018-03-04T09:16:20Z</time>
      </trkpt>
      <trkpt lat="43.55033" lon="5.93041">
        <ele>430</ele>
        <time>2018-03-04T09:16:26Z</time>
      </trkpt>
      <trkpt lat="43.55028" lon="5.93065">
        <ele>430</ele>
        <time>2018-03-04T09:16:32Z</time>
      </trkpt>
      <trkpt lat="43.55014" lon="5.93082">
        <ele>431</ele>
        <time>2018-03-04T09:16:37Z</time>
      </trkpt>
      <trkpt lat="43.54998" lon="5.93098">
        <ele>432</ele>
        <time>2018-03-04T09:16:43Z</time>
      </trkpt>
      <trkpt lat="43.54981" lon="5.93112">
        <ele>433</ele>
        <time>2018-03-04T09:16:50Z</time>
      </trkpt>
      <trkpt lat="43.54966" lon="5.93134">
        <ele>433</ele>
        <time>2018-03-04T09:16:57Z</time>
      </trkpt>
      <trkpt lat="43.5496" lon="5.93158">
        <ele>434</ele>
        <time>2018-03-04T09:17:03Z</time>
      </trkpt>
      <trkpt lat="43.54955" lon="5.93183">
        <ele>435</ele>
        <time>2018-03-04T09:17:09Z</time>
      </trkpt>
      <trkpt lat="43.54955" lon="5.93212">
        <ele>436</ele>
        <time>2018-03-04T09:17:17Z</time>
      </trkpt>
      <trkpt lat="43.54951" lon="5.93238">
        <ele>436</ele>
        <time>2018-03-04T09:17:25Z</time>
      </trkpt>
      <trkpt lat="43.54963" lon="5.93259">
        <ele>435</ele>
        <time>2018-03-04T09:18:38Z</time>
      </trkpt>
      <trkpt lat="43.54982" lon="5.93267">
        <ele>435</ele>
        <time>2018-03-04T09:18:46Z</time>
      </trkpt>
      <trkpt lat="43.54998" lon="5.93281">
        <ele>435</ele>
        <time>2018-03-04T09:18:56Z</time>
      </trkpt>
      <trkpt lat="43.55001" lon="5.93305">
        <ele>434</ele>
        <time>2018-03-04T09:19:05Z</time>
      </trkpt>
      <trkpt lat="43.54994" lon="5.9333">
        <ele>434</ele>
        <time>2018-03-04T09:19:16Z</time>
      </trkpt>
      <trkpt lat="43.54996" lon="5.93356">
        <ele>432</ele>
        <time>2018-03-04T09:19:27Z</time>
      </trkpt>
      <trkpt lat="43.55" lon="5.93382">
        <ele>431</ele>
        <time>2018-03-04T09:19:38Z</time>
      </trkpt>
      <trkpt lat="43.55" lon="5.93409">
        <ele>430</ele>
        <time>2018-03-04T09:19:47Z</time>
      </trkpt>
      <trkpt lat="43.55014" lon="5.93426">
        <ele>428</ele>
        <time>2018-03-04T09:19:56Z</time>
      </trkpt>
      <trkpt lat="43.5503" lon="5.93439">
        <ele>427</ele>
        <time>2018-03-04T09:20:05Z</time>
      </trkpt>
      <trkpt lat="43.5505" lon="5.93443">
        <ele>427</ele>
        <time>2018-03-04T09:20:13Z</time>
      </trkpt>
      <trkpt lat="43.55068" lon="5.93442">
        <ele>427</ele>
        <time>2018-03-04T09:20:21Z</time>
      </trkpt>
      <trkpt lat="43.55088" lon="5.93444">
        <ele>424</ele>
        <time>2018-03-04T09:20:29Z</time>
      </trkpt>
      <trkpt lat="43.55109" lon="5.93447">
        <ele>422</ele>
        <time>2018-03-04T09:20:36Z</time>
      </trkpt>
      <trkpt lat="43.55128" lon="5.93461">
        <ele>421</ele>
        <time>2018-03-04T09:20:42Z</time>
      </trkpt>
      <trkpt lat="43.55149" lon="5.93471">
        <ele>419</ele>
        <time>2018-03-04T09:20:47Z</time>
      </trkpt>
      <trkpt lat="43.55166" lon="5.93486">
        <ele>416</ele>
        <time>2018-03-04T09:20:52Z</time>
      </trkpt>
      <trkpt lat="43.55184" lon="5.93503">
        <ele>406</ele>
        <time>2018-03-04T09:20:57Z</time>
      </trkpt>
      <trkpt lat="43.55198" lon="5.9352">
        <ele>402</ele>
        <time>2018-03-04T09:21:03Z</time>
      </trkpt>
      <trkpt lat="43.55191" lon="5.93544">
        <ele>401</ele>
        <time>2018-03-04T09:21:09Z</time>
      </trkpt>
      <trkpt lat="43.55188" lon="5.9357">
        <ele>400</ele>
        <time>2018-03-04T09:21:15Z</time>
      </trkpt>
      <trkpt lat="43.55187" lon="5.93597">
        <ele>395</ele>
        <time>2018-03-04T09:21:21Z</time>
      </trkpt>
      <trkpt lat="43.55181" lon="5.93621">
        <ele>393</ele>
        <time>2018-03-04T09:21:26Z</time>
      </trkpt>
      <trkpt lat="43.55177" lon="5.9365">
        <ele>393</ele>
        <time>2018-03-04T09:21:31Z</time>
      </trkpt>
      <trkpt lat="43.55176" lon="5.93679">
        <ele>390</ele>
        <time>2018-03-04T09:21:36Z</time>
      </trkpt>
      <trkpt lat="43.55187" lon="5.93699">
        <ele>387</ele>
        <time>2018-03-04T09:21:42Z</time>
      </trkpt>
      <trkpt lat="43.55199" lon="5.93719">
        <ele>386</ele>
        <time>2018-03-04T09:21:48Z</time>
      </trkpt>
      <trkpt lat="43.55209" lon="5.93741">
        <ele>385</ele>
        <time>2018-03-04T09:21:53Z</time>
      </trkpt>
      <trkpt lat="43.55215" lon="5.93768">
        <ele>381</ele>
        <time>2018-03-04T09:21:58Z</time>
      </trkpt>
      <trkpt lat="43.55219" lon="5.93795">
        <ele>381</ele>
        <time>2018-03-04T09:22:02Z</time>
      </trkpt>
      <trkpt lat="43.55222" lon="5.93819">
        <ele>380</ele>
        <time>2018-03-04T09:22:06Z</time>
      </trkpt>
      <trkpt lat="43.55223" lon="5.93847">
        <ele>376</ele>
        <time>2018-03-04T09:22:11Z</time>
      </trkpt>
      <trkpt lat="43.55227" lon="5.93873">
        <ele>375</ele>
        <time>2018-03-04T09:22:16Z</time>
      </trkpt>
      <trkpt lat="43.55238" lon="5.93897">
        <ele>374</ele>
        <time>2018-03-04T09:22:22Z</time>
      </trkpt>
      <trkpt lat="43.55239" lon="5.93925">
        <ele>371</ele>
        <time>2018-03-04T09:22:28Z</time>
      </trkpt>
      <trkpt lat="43.55249" lon="5.93947">
        <ele>369</ele>
        <time>2018-03-04T09:22:34Z</time>
      </trkpt>
      <trkpt lat="43.5526" lon="5.93966">
        <ele>364</ele>
        <time>2018-03-04T09:22:40Z</time>
      </trkpt>
      <trkpt lat="43.55266" lon="5.93992">
        <ele>364</ele>
        <time>2018-03-04T09:22:48Z</time>
      </trkpt>
      <trkpt lat="43.5525" lon="5.9401">
        <ele>365</ele>
        <time>2018-03-04T09:22:54Z</time>
      </trkpt>
      <trkpt lat="43.55231" lon="5.94019">
        <ele>362</ele>
        <time>2018-03-04T09:22:59Z</time>
      </trkpt>
      <trkpt lat="43.55213" lon="5.94017">
        <ele>360</ele>
        <time>2018-03-04T09:23:04Z</time>
      </trkpt>
      <trkpt lat="43.55194" lon="5.94006">
        <ele>359</ele>
        <time>2018-03-04T09:23:10Z</time>
      </trkpt>
      <trkpt lat="43.55176" lon="5.93994">
        <ele>363</ele>
        <time>2018-03-04T09:23:15Z</time>
      </trkpt>
      <trkpt lat="43.55157" lon="5.93978">
        <ele>361</ele>
        <time>2018-03-04T09:23:19Z</time>
      </trkpt>
      <trkpt lat="43.55139" lon="5.93966">
        <ele>361</ele>
        <time>2018-03-04T09:23:23Z</time>
      </trkpt>
      <trkpt lat="43.55118" lon="5.93963">
        <ele>360</ele>
        <time>2018-03-04T09:23:28Z</time>
      </trkpt>
      <trkpt lat="43.55101" lon="5.93974">
        <ele>359</ele>
        <time>2018-03-04T09:23:37Z</time>
      </trkpt>
      <trkpt lat="43.55092" lon="5.93997">
        <ele>355</ele>
        <time>2018-03-04T09:23:58Z</time>
      </trkpt>
      <trkpt lat="43.55088" lon="5.94027">
        <ele>351</ele>
        <time>2018-03-04T09:24:04Z</time>
      </trkpt>
      <trkpt lat="43.55084" lon="5.94053">
        <ele>349</ele>
        <time>2018-03-04T09:24:08Z</time>
      </trkpt>
      <trkpt lat="43.55078" lon="5.94077">
        <ele>344</ele>
        <time>2018-03-04T09:24:12Z</time>
      </trkpt>
      <trkpt lat="43.55068" lon="5.94099">
        <ele>339</ele>
        <time>2018-03-04T09:24:16Z</time>
      </trkpt>
      <trkpt lat="43.55056" lon="5.94121">
        <ele>336</ele>
        <time>2018-03-04T09:24:24Z</time>
      </trkpt>
      <trkpt lat="43.5506" lon="5.94146">
        <ele>335</ele>
        <time>2018-03-04T09:27:48Z</time>
      </trkpt>
      <trkpt lat="43.55065" lon="5.9417">
        <ele>329</ele>
        <time>2018-03-04T09:30:31Z</time>
      </trkpt>
      <trkpt lat="43.55083" lon="5.9417">
        <ele>331</ele>
        <time>2018-03-04T09:30:39Z</time>
      </trkpt>
      <trkpt lat="43.55093" lon="5.94192">
        <ele>329</ele>
        <time>2018-03-04T09:30:58Z</time>
      </trkpt>
      <trkpt lat="43.55093" lon="5.94218">
        <ele>327</ele>
        <time>2018-03-04T09:31:12Z</time>
      </trkpt>
      <trkpt lat="43.55096" lon="5.94246">
        <ele>325</ele>
        <time>2018-03-04T09:31:24Z</time>
      </trkpt>
      <trkpt lat="43.55092" lon="5.94258">
        <ele>321</ele>
        <time>2018-03-04T09:32:22Z</time>
      </trkpt>
      <trkpt lat="43.55081" lon="5.9428">
        <ele>319</ele>
        <time>2018-03-04T09:33:08Z</time>
      </trkpt>
      <trkpt lat="43.55082" lon="5.94306">
        <ele>318</ele>
        <time>2018-03-04T09:33:13Z</time>
      </trkpt>
      <trkpt lat="43.55086" lon="5.94335">
        <ele>316</ele>
        <time>2018-03-04T09:33:18Z</time>
      </trkpt>
      <trkpt lat="43.55093" lon="5.94361">
        <ele>313</ele>
        <time>2018-03-04T09:33:24Z</time>
      </trkpt>
      <trkpt lat="43.55085" lon="5.94385">
        <ele>311</ele>
        <time>2018-03-04T09:33:29Z</time>
      </trkpt>
      <trkpt lat="43.5507" lon="5.94406">
        <ele>309</ele>
        <time>2018-03-04T09:33:34Z</time>
      </trkpt>
      <trkpt lat="43.55061" lon="5.94428">
        <ele>307</ele>
        <time>2018-03-04T09:33:38Z</time>
      </trkpt>
      <trkpt lat="43.55063" lon="5.94457">
        <ele>307</ele>
        <time>2018-03-04T09:33:43Z</time>
      </trkpt>
      <trkpt lat="43.55081" lon="5.94459">
        <ele>307</ele>
        <time>2018-03-04T09:34:49Z</time>
      </trkpt>
      <trkpt lat="43.55099" lon="5.9445">
        <ele>309</ele>
        <time>2018-03-04T09:35:09Z</time>
      </trkpt>
      <trkpt lat="43.55108" lon="5.94465">
        <ele>309</ele>
        <time>2018-03-04T09:37:27Z</time>
      </trkpt>
      <trkpt lat="43.55126" lon="5.94473">
        <ele>310</ele>
        <time>2018-03-04T09:37:46Z</time>
      </trkpt>
      <trkpt lat="43.55144" lon="5.94477">
        <ele>311</ele>
        <time>2018-03-04T09:38:11Z</time>
      </trkpt>
      <trkpt lat="43.55162" lon="5.94472">
        <ele>311</ele>
        <time>2018-03-04T09:40:43Z</time>
      </trkpt>
      <trkpt lat="43.55178" lon="5.94462">
        <ele>316</ele>
        <time>2018-03-04T09:40:55Z</time>
      </trkpt>
      <trkpt lat="43.55195" lon="5.94446">
        <ele>316</ele>
        <time>2018-03-04T09:42:21Z</time>
      </trkpt>
      <trkpt lat="43.5521" lon="5.9443">
        <ele>317</ele>
        <time>2018-03-04T09:42:32Z</time>
      </trkpt>
      <trkpt lat="43.55222" lon="5.9441">
        <ele>317</ele>
        <time>2018-03-04T09:42:42Z</time>
      </trkpt>
      <trkpt lat="43.55231" lon="5.94388">
        <ele>317</ele>
        <time>2018-03-04T09:42:52Z</time>
      </trkpt>
      <trkpt lat="43.55245" lon="5.9437">
        <ele>316</ele>
        <time>2018-03-04T09:43:02Z</time>
      </trkpt>
      <trkpt lat="43.55262" lon="5.9436">
        <ele>323</ele>
        <time>2018-03-04T09:43:26Z</time>
      </trkpt>
      <trkpt lat="43.55279" lon="5.94353">
        <ele>324</ele>
        <time>2018-03-04T09:43:46Z</time>
      </trkpt>
      <trkpt lat="43.55297" lon="5.94344">
        <ele>326</ele>
        <time>2018-03-04T09:44:11Z</time>
      </trkpt>
      <trkpt lat="43.55315" lon="5.94336">
        <ele>328</ele>
        <time>2018-03-04T09:44:26Z</time>
      </trkpt>
      <trkpt lat="43.55331" lon="5.94322">
        <ele>328</ele>
        <time>2018-03-04T09:44:38Z</time>
      </trkpt>
      <trkpt lat="43.55342" lon="5.94302">
        <ele>329</ele>
        <time>2018-03-04T09:44:49Z</time>
      </trkpt>
      <trkpt lat="43.55361" lon="5.94301">
        <ele>330</ele>
        <time>2018-03-04T09:49:22Z</time>
      </trkpt>
      <trkpt lat="43.55381" lon="5.94293">
        <ele>330</ele>
        <time>2018-03-04T09:49:29Z</time>
      </trkpt>
      <trkpt lat="43.55396" lon="5.94274">
        <ele>329</ele>
        <time>2018-03-04T09:49:36Z</time>
      </trkpt>
      <trkpt lat="43.55416" lon="5.94271">
        <ele>329</ele>
        <time>2018-03-04T09:49:47Z</time>
      </trkpt>
      <trkpt lat="43.55434" lon="5.94277">
        <ele>336</ele>
        <time>2018-03-04T09:49:58Z</time>
      </trkpt>
      <trkpt lat="43.55453" lon="5.94278">
        <ele>337</ele>
        <time>2018-03-04T09:50:08Z</time>
      </trkpt>
      <trkpt lat="43.5547" lon="5.94268">
        <ele>338</ele>
        <time>2018-03-04T09:50:18Z</time>
      </trkpt>
      <trkpt lat="43.55482" lon="5.94249">
        <ele>337</ele>
        <time>2018-03-04T09:50:27Z</time>
      </trkpt>
      <trkpt lat="43.55488" lon="5.94224">
        <ele>336</ele>
        <time>2018-03-04T09:50:36Z</time>
      </trkpt>
      <trkpt lat="43.55486" lon="5.94198">
        <ele>336</ele>
        <time>2018-03-04T09:50:46Z</time>
      </trkpt>
      <trkpt lat="43.55481" lon="5.94172">
        <ele>337</ele>
        <time>2018-03-04T09:50:57Z</time>
      </trkpt>
      <trkpt lat="43.55478" lon="5.94147">
        <ele>338</ele>
        <time>2018-03-04T09:51:07Z</time>
      </trkpt>
      <trkpt lat="43.55475" lon="5.9412">
        <ele>338</ele>
        <time>2018-03-04T09:51:18Z</time>
      </trkpt>
      <trkpt lat="43.55471" lon="5.94094">
        <ele>338</ele>
        <time>2018-03-04T09:51:29Z</time>
      </trkpt>
      <trkpt lat="43.55462" lon="5.94071">
        <ele>340</ele>
        <time>2018-03-04T09:51:41Z</time>
      </trkpt>
      <trkpt lat="43.55444" lon="5.94062">
        <ele>339</ele>
        <time>2018-03-04T09:51:53Z</time>
      </trkpt>
      <trkpt lat="43.55426" lon="5.94065">
        <ele>337</ele>
        <time>2018-03-04T09:52:04Z</time>
      </trkpt>
      <trkpt lat="43.55408" lon="5.94061">
        <ele>338</ele>
        <time>2018-03-04T09:52:14Z</time>
      </trkpt>
      <trkpt lat="43.5539" lon="5.9405">
        <ele>340</ele>
        <time>2018-03-04T09:52:25Z</time>
      </trkpt>
      <trkpt lat="43.55382" lon="5.94024">
        <ele>341</ele>
        <time>2018-03-04T09:52:53Z</time>
      </trkpt>
      <trkpt lat="43.554" lon="5.94015">
        <ele>339</ele>
        <time>2018-03-04T09:54:33Z</time>
      </trkpt>
      <trkpt lat="43.55414" lon="5.93998">
        <ele>338</ele>
        <time>2018-03-04T09:54:58Z</time>
      </trkpt>
      <trkpt lat="43.55404" lon="5.93976">
        <ele>343</ele>
        <time>2018-03-04T09:55:33Z</time>
      </trkpt>
      <trkpt lat="43.55388" lon="5.93964">
        <ele>344</ele>
        <time>2018-03-04T09:56:42Z</time>
      </trkpt>
      <trkpt lat="43.55371" lon="5.93957">
        <ele>346</ele>
        <time>2018-03-04T09:57:02Z</time>
      </trkpt>
      <trkpt lat="43.55353" lon="5.93947">
        <ele>346</ele>
        <time>2018-03-04T09:57:21Z</time>
      </trkpt>
      <trkpt lat="43.55337" lon="5.93934">
        <ele>347</ele>
        <time>2018-03-04T09:57:42Z</time>
      </trkpt>
      <trkpt lat="43.55326" lon="5.93913">
        <ele>353</ele>
        <time>2018-03-04T09:58:04Z</time>
      </trkpt>
      <trkpt lat="43.55326" lon="5.93888">
        <ele>357</ele>
        <time>2018-03-04T09:58:21Z</time>
      </trkpt>
      <trkpt lat="43.5533" lon="5.93862">
        <ele>357</ele>
        <time>2018-03-04T09:58:44Z</time>
      </trkpt>
      <trkpt lat="43.5533" lon="5.93837">
        <ele>352</ele>
        <time>2018-03-04T09:58:59Z</time>
      </trkpt>
      <trkpt lat="43.55332" lon="5.93812">
        <ele>357</ele>
        <time>2018-03-04T09:59:16Z</time>
      </trkpt>
      <trkpt lat="43.55332" lon="5.93786">
        <ele>359</ele>
        <time>2018-03-04T09:59:38Z</time>
      </trkpt>
      <trkpt lat="43.55328" lon="5.93762">
        <ele>356</ele>
        <time>2018-03-04T09:59:55Z</time>
      </trkpt>
      <trkpt lat="43.55324" lon="5.93738">
        <ele>357</ele>
        <time>2018-03-04T10:00:15Z</time>
      </trkpt>
      <trkpt lat="43.55331" lon="5.93714">
        <ele>360</ele>
        <time>2018-03-04T10:00:36Z</time>
      </trkpt>
      <trkpt lat="43.55343" lon="5.93696">
        <ele>357</ele>
        <time>2018-03-04T10:00:54Z</time>
      </trkpt>
      <trkpt lat="43.55357" lon="5.9368">
        <ele>358</ele>
        <time>2018-03-04T10:01:21Z</time>
      </trkpt>
      <trkpt lat="43.55367" lon="5.93657">
        <ele>358</ele>
        <time>2018-03-04T10:01:41Z</time>
      </trkpt>
      <trkpt lat="43.5536" lon="5.93634">
        <ele>358</ele>
        <time>2018-03-04T10:02:04Z</time>
      </trkpt>
      <trkpt lat="43.55345" lon="5.93617">
        <ele>357</ele>
        <time>2018-03-04T10:02:21Z</time>
      </trkpt>
      <trkpt lat="43.55333" lon="5.93599">
        <ele>359</ele>
        <time>2018-03-04T10:02:36Z</time>
      </trkpt>
      <trkpt lat="43.55323" lon="5.93578">
        <ele>360</ele>
        <time>2018-03-04T10:02:56Z</time>
      </trkpt>
      <trkpt lat="43.55316" lon="5.93554">
        <ele>367</ele>
        <time>2018-03-04T10:03:13Z</time>
      </trkpt>
      <trkpt lat="43.55314" lon="5.93529">
        <ele>369</ele>
        <time>2018-03-04T10:03:30Z</time>
      </trkpt>
      <trkpt lat="43.55327" lon="5.93511">
        <ele>364</ele>
        <time>2018-03-04T10:03:47Z</time>
      </trkpt>
      <trkpt lat="43.55343" lon="5.93499">
        <ele>360</ele>
        <time>2018-03-04T10:04:03Z</time>
      </trkpt>
      <trkpt lat="43.55356" lon="5.93519">
        <ele>358</ele>
        <time>2018-03-04T10:04:25Z</time>
      </trkpt>
      <trkpt lat="43.55362" lon="5.93542">
        <ele>358</ele>
        <time>2018-03-04T10:04:40Z</time>
      </trkpt>
      <trkpt lat="43.55365" lon="5.93567">
        <ele>357</ele>
        <time>2018-03-04T10:05:05Z</time>
      </trkpt>
      <trkpt lat="43.55376" lon="5.93587">
        <ele>358</ele>
        <time>2018-03-04T10:05:38Z</time>
      </trkpt>
      <trkpt lat="43.55394" lon="5.93592">
        <ele>360</ele>
        <time>2018-03-04T10:06:51Z</time>
      </trkpt>
      <trkpt lat="43.55406" lon="5.93573">
        <ele>360</ele>
        <time>2018-03-04T10:07:27Z</time>
      </trkpt>
      <trkpt lat="43.55409" lon="5.93548">
        <ele>360</ele>
        <time>2018-03-04T10:07:45Z</time>
      </trkpt>
      <trkpt lat="43.554" lon="5.93526">
        <ele>360</ele>
        <time>2018-03-04T10:08:06Z</time>
      </trkpt>
      <trkpt lat="43.55388" lon="5.93508">
        <ele>360</ele>
        <time>2018-03-04T10:08:27Z</time>
      </trkpt>
      <trkpt lat="43.55376" lon="5.93487">
        <ele>362</ele>
        <time>2018-03-04T10:08:47Z</time>
      </trkpt>
      <trkpt lat="43.55371" lon="5.93463">
        <ele>363</ele>
        <time>2018-03-04T10:09:08Z</time>
      </trkpt>
      <trkpt lat="43.55379" lon="5.9344">
        <ele>364</ele>
        <time>2018-03-04T10:09:23Z</time>
      </trkpt>
      <trkpt lat="43.55395" lon="5.93428">
        <ele>363</ele>
        <time>2018-03-04T10:09:41Z</time>
      </trkpt>
      <trkpt lat="43.55413" lon="5.93424">
        <ele>363</ele>
        <time>2018-03-04T10:10:02Z</time>
      </trkpt>
      <trkpt lat="43.55428" lon="5.93409">
        <ele>366</ele>
        <time>2018-03-04T10:10:26Z</time>
      </trkpt>
      <trkpt lat="43.55432" lon="5.93384">
        <ele>368</ele>
        <time>2018-03-04T10:10:40Z</time>
      </trkpt>
      <trkpt lat="43.55428" lon="5.9336">
        <ele>367</ele>
        <time>2018-03-04T10:10:57Z</time>
      </trkpt>
      <trkpt lat="43.55418" lon="5.93338">
        <ele>361</ele>
        <time>2018-03-04T10:11:20Z</time>
      </trkpt>
      <trkpt lat="43.55415" lon="5.93312">
        <ele>362</ele>
        <time>2018-03-04T10:11:37Z</time>
      </trkpt>
      <trkpt lat="43.554" lon="5.93298">
        <ele>363</ele>
        <time>2018-03-04T10:11:56Z</time>
      </trkpt>
      <trkpt lat="43.55381" lon="5.93295">
        <ele>364</ele>
        <time>2018-03-04T10:12:12Z</time>
      </trkpt>
      <trkpt lat="43.55362" lon="5.93298">
        <ele>364</ele>
        <time>2018-03-04T10:12:31Z</time>
      </trkpt>
      <trkpt lat="43.55345" lon="5.93303">
        <ele>365</ele>
        <time>2018-03-04T10:12:50Z</time>
      </trkpt>
      <trkpt lat="43.55338" lon="5.93279">
        <ele>364</ele>
        <time>2018-03-04T10:13:24Z</time>
      </trkpt>
      <trkpt lat="43.55346" lon="5.93255">
        <ele>364</ele>
        <time>2018-03-04T10:13:41Z</time>
      </trkpt>
      <trkpt lat="43.55358" lon="5.93234">
        <ele>367</ele>
        <time>2018-03-04T10:13:57Z</time>
      </trkpt>
      <trkpt lat="43.55375" lon="5.93227">
        <ele>367</ele>
        <time>2018-03-04T10:14:13Z</time>
      </trkpt>
      <trkpt lat="43.55394" lon="5.93227">
        <ele>367</ele>
        <time>2018-03-04T10:14:29Z</time>
      </trkpt>
      <trkpt lat="43.55411" lon="5.93219">
        <ele>368</ele>
        <time>2018-03-04T10:14:47Z</time>
      </trkpt>
      <trkpt lat="43.55422" lon="5.93199">
        <ele>374</ele>
        <time>2018-03-04T10:15:05Z</time>
      </trkpt>
      <trkpt lat="43.55422" lon="5.93173">
        <ele>373</ele>
        <time>2018-03-04T10:15:27Z</time>
      </trkpt>
      <trkpt lat="43.5542" lon="5.93146">
        <ele>379</ele>
        <time>2018-03-04T10:15:42Z</time>
      </trkpt>
      <trkpt lat="43.5541" lon="5.93125">
        <ele>375</ele>
        <time>2018-03-04T10:15:58Z</time>
      </trkpt>
      <trkpt lat="43.55395" lon="5.93109">
        <ele>375</ele>
        <time>2018-03-04T10:16:15Z</time>
      </trkpt>
      <trkpt lat="43.55378" lon="5.93096">
        <ele>375</ele>
        <time>2018-03-04T10:16:34Z</time>
      </trkpt>
      <trkpt lat="43.5536" lon="5.93093">
        <ele>373</ele>
        <time>2018-03-04T10:16:50Z</time>
      </trkpt>
      <trkpt lat="43.55341" lon="5.93089">
        <ele>372</ele>
        <time>2018-03-04T10:17:08Z</time>
      </trkpt>
      <trkpt lat="43.55325" lon="5.93078">
        <ele>375</ele>
        <time>2018-03-04T10:17:34Z</time>
      </trkpt>
      <trkpt lat="43.55308" lon="5.93066">
        <ele>379</ele>
        <time>2018-03-04T10:17:52Z</time>
      </trkpt>
      <trkpt lat="43.55297" lon="5.93044">
        <ele>381</ele>
        <time>2018-03-04T10:18:10Z</time>
      </trkpt>
      <trkpt lat="43.55291" lon="5.93021">
        <ele>381</ele>
        <time>2018-03-04T10:18:27Z</time>
      </trkpt>
      <trkpt lat="43.553" lon="5.92988">
        <ele>383</ele>
        <time>2018-03-04T10:19:50Z</time>
      </trkpt>
      <trkpt lat="43.55319" lon="5.92985">
        <ele>380</ele>
        <time>2018-03-04T10:20:12Z</time>
      </trkpt>
      <trkpt lat="43.55335" lon="5.92974">
        <ele>376</ele>
        <time>2018-03-04T10:20:34Z</time>
      </trkpt>
      <trkpt lat="43.55349" lon="5.92957">
        <ele>378</ele>
        <time>2018-03-04T10:20:49Z</time>
      </trkpt>
      <trkpt lat="43.55361" lon="5.92938">
        <ele>379</ele>
        <time>2018-03-04T10:21:16Z</time>
      </trkpt>
      <trkpt lat="43.55377" lon="5.92925">
        <ele>378</ele>
        <time>2018-03-04T10:21:49Z</time>
      </trkpt>
      <trkpt lat="43.55396" lon="5.92923">
        <ele>378</ele>
        <time>2018-03-04T10:22:04Z</time>
      </trkpt>
      <trkpt lat="43.55406" lon="5.92945">
        <ele>377</ele>
        <time>2018-03-04T10:22:28Z</time>
      </trkpt>
      <trkpt lat="43.55411" lon="5.92969">
        <ele>377</ele>
        <time>2018-03-04T10:22:43Z</time>
      </trkpt>
      <trkpt lat="43.55409" lon="5.92995">
        <ele>377</ele>
        <time>2018-03-04T10:23:15Z</time>
      </trkpt>
      <trkpt lat="43.55426" lon="5.93007">
        <ele>380</ele>
        <time>2018-03-04T10:23:35Z</time>
      </trkpt>
      <trkpt lat="43.55444" lon="5.93006">
        <ele>383</ele>
        <time>2018-03-04T10:23:56Z</time>
      </trkpt>
      <trkpt lat="43.55463" lon="5.93002">
        <ele>386</ele>
        <time>2018-03-04T10:24:25Z</time>
      </trkpt>
      <trkpt lat="43.55477" lon="5.92984">
        <ele>384</ele>
        <time>2018-03-04T10:24:55Z</time>
      </trkpt>
      <trkpt lat="43.55478" lon="5.92959">
        <ele>382</ele>
        <time>2018-03-04T10:25:20Z</time>
      </trkpt>
      <trkpt lat="43.5549" lon="5.92939">
        <ele>382</ele>
        <time>2018-03-04T10:25:42Z</time>
      </trkpt>
      <trkpt lat="43.55492" lon="5.92914">
        <ele>381</ele>
        <time>2018-03-04T10:26:04Z</time>
      </trkpt>
      <trkpt lat="43.55507" lon="5.929">
        <ele>388</ele>
        <time>2018-03-04T10:26:59Z</time>
      </trkpt>
      <trkpt lat="43.55519" lon="5.92881">
        <ele>391</ele>
        <time>2018-03-04T10:27:28Z</time>
      </trkpt>
      <trkpt lat="43.55525" lon="5.92857">
        <ele>392</ele>
        <time>2018-03-04T10:27:57Z</time>
      </trkpt>
      <trkpt lat="43.55527" lon="5.92832">
        <ele>396</ele>
        <time>2018-03-04T10:28:18Z</time>
      </trkpt>
      <trkpt lat="43.55509" lon="5.9283">
        <ele>390</ele>
        <time>2018-03-04T10:29:01Z</time>
      </trkpt>
      <trkpt lat="43.55496" lon="5.92849">
        <ele>383</ele>
        <time>2018-03-04T10:29:26Z</time>
      </trkpt>
      <trkpt lat="43.55487" lon="5.92872">
        <ele>382</ele>
        <time>2018-03-04T10:29:46Z</time>
      </trkpt>
      <trkpt lat="43.55472" lon="5.92886">
        <ele>382</ele>
        <time>2018-03-04T10:30:05Z</time>
      </trkpt>
      <trkpt lat="43.55455" lon="5.92896">
        <ele>381</ele>
        <time>2018-03-04T10:30:26Z</time>
      </trkpt>
      <trkpt lat="43.55437" lon="5.92897">
        <ele>380</ele>
        <time>2018-03-04T10:30:53Z</time>
      </trkpt>
      <trkpt lat="43.55426" lon="5.92877">
        <ele>381</ele>
        <time>2018-03-04T10:31:17Z</time>
      </trkpt>
      <trkpt lat="43.55416" lon="5.92856">
        <ele>384</ele>
        <time>2018-03-04T10:31:37Z</time>
      </trkpt>
      <trkpt lat="43.55406" lon="5.92834">
        <ele>384</ele>
        <time>2018-03-04T10:32:17Z</time>
      </trkpt>
      <trkpt lat="43.55399" lon="5.92811">
        <ele>388</ele>
        <time>2018-03-04T10:32:42Z</time>
      </trkpt>
      <trkpt lat="43.55396" lon="5.92786">
        <ele>389</ele>
        <time>2018-03-04T10:33:05Z</time>
      </trkpt>
      <trkpt lat="43.55385" lon="5.92766">
        <ele>390</ele>
        <time>2018-03-04T10:33:29Z</time>
      </trkpt>
      <trkpt lat="43.55367" lon="5.92764">
        <ele>389</ele>
        <time>2018-03-04T10:33:46Z</time>
      </trkpt>
      <trkpt lat="43.55348" lon="5.92762">
        <ele>389</ele>
        <time>2018-03-04T10:34:03Z</time>
      </trkpt>
      <trkpt lat="43.5533" lon="5.92757">
        <ele>392</ele>
        <time>2018-03-04T10:34:22Z</time>
      </trkpt>
      <trkpt lat="43.55312" lon="5.92753">
        <ele>397</ele>
        <time>2018-03-04T10:34:40Z</time>
      </trkpt>
      <trkpt lat="43.55301" lon="5.92733">
        <ele>398</ele>
        <time>2018-03-04T10:35:01Z</time>
      </trkpt>
      <trkpt lat="43.55302" lon="5.92707">
        <ele>398</ele>
        <time>2018-03-04T10:35:22Z</time>
      </trkpt>
      <trkpt lat="43.55317" lon="5.9269">
        <ele>396</ele>
        <time>2018-03-04T10:35:37Z</time>
      </trkpt>
      <trkpt lat="43.55324" lon="5.92667">
        <ele>392</ele>
        <time>2018-03-04T10:36:02Z</time>
      </trkpt>
      <trkpt lat="43.55328" lon="5.92642">
        <ele>396</ele>
        <time>2018-03-04T10:36:22Z</time>
      </trkpt>
      <trkpt lat="43.55342" lon="5.92625">
        <ele>392</ele>
        <time>2018-03-04T10:36:40Z</time>
      </trkpt>
      <trkpt lat="43.55358" lon="5.92611">
        <ele>392</ele>
        <time>2018-03-04T10:36:57Z</time>
      </trkpt>
      <trkpt lat="43.55371" lon="5.92594">
        <ele>393</ele>
        <time>2018-03-04T10:37:21Z</time>
      </trkpt>
      <trkpt lat="43.5538" lon="5.92571">
        <ele>395</ele>
        <time>2018-03-04T10:37:45Z</time>
      </trkpt>
      <trkpt lat="43.55366" lon="5.92554">
        <ele>395</ele>
        <time>2018-03-04T10:38:05Z</time>
      </trkpt>
      <trkpt lat="43.55349" lon="5.92543">
        <ele>395</ele>
        <time>2018-03-04T10:39:14Z</time>
      </trkpt>
      <trkpt lat="43.55338" lon="5.92523">
        <ele>395</ele>
        <time>2018-03-04T10:41:28Z</time>
      </trkpt>
      <trkpt lat="43.55321" lon="5.92513">
        <ele>400</ele>
        <time>2018-03-04T10:41:46Z</time>
      </trkpt>
      <trkpt lat="43.55305" lon="5.92502">
        <ele>403</ele>
        <time>2018-03-04T10:42:06Z</time>
      </trkpt>
      <trkpt lat="43.55298" lon="5.92478">
        <ele>408</ele>
        <time>2018-03-04T10:42:56Z</time>
      </trkpt>
      <trkpt lat="43.55302" lon="5.92454">
        <ele>408</ele>
        <time>2018-03-04T10:43:58Z</time>
      </trkpt>
      <trkpt lat="43.55316" lon="5.92439">
        <ele>406</ele>
        <time>2018-03-04T10:44:38Z</time>
      </trkpt>
      <trkpt lat="43.55334" lon="5.9243">
        <ele>399</ele>
        <time>2018-03-04T10:45:34Z</time>
      </trkpt>
      <trkpt lat="43.55352" lon="5.92422">
        <ele>399</ele>
        <time>2018-03-04T10:47:00Z</time>
      </trkpt>
      <trkpt lat="43.55371" lon="5.92424">
        <ele>399</ele>
        <time>2018-03-04T10:47:16Z</time>
      </trkpt>
      <trkpt lat="43.55389" lon="5.92426">
        <ele>399</ele>
        <time>2018-03-04T10:47:33Z</time>
      </trkpt>
      <trkpt lat="43.55408" lon="5.92422">
        <ele>400</ele>
        <time>2018-03-04T10:47:54Z</time>
      </trkpt>
      <trkpt lat="43.55426" lon="5.92418">
        <ele>401</ele>
        <time>2018-03-04T10:48:14Z</time>
      </trkpt>
      <trkpt lat="43.55444" lon="5.92417">
        <ele>402</ele>
        <time>2018-03-04T10:48:33Z</time>
      </trkpt>
      <trkpt lat="43.55462" lon="5.92428">
        <ele>401</ele>
        <time>2018-03-04T10:48:59Z</time>
      </trkpt>
      <trkpt lat="43.55477" lon="5.92443">
        <ele>402</ele>
        <time>2018-03-04T10:49:20Z</time>
      </trkpt>
      <trkpt lat="43.55492" lon="5.92457">
        <ele>403</ele>
        <time>2018-03-04T10:49:41Z</time>
      </trkpt>
      <trkpt lat="43.55509" lon="5.92467">
        <ele>408</ele>
        <time>2018-03-04T10:50:01Z</time>
      </trkpt>
      <trkpt lat="43.55527" lon="5.92472">
        <ele>409</ele>
        <time>2018-03-04T10:50:24Z</time>
      </trkpt>
      <trkpt lat="43.55546" lon="5.92468">
        <ele>410</ele>
        <time>2018-03-04T10:50:48Z</time>
      </trkpt>
      <trkpt lat="43.55555" lon="5.92446">
        <ele>409</ele>
        <time>2018-03-04T10:51:19Z</time>
      </trkpt>
      <trkpt lat="43.5555" lon="5.92421">
        <ele>408</ele>
        <time>2018-03-04T10:51:39Z</time>
      </trkpt>
      <trkpt lat="43.55546" lon="5.92396">
        <ele>406</ele>
        <time>2018-03-04T10:52:17Z</time>
      </trkpt>
      <trkpt lat="43.55544" lon="5.9237">
        <ele>406</ele>
        <time>2018-03-04T10:52:50Z</time>
      </trkpt>
      <trkpt lat="43.55544" lon="5.92345">
        <ele>406</ele>
        <time>2018-03-04T10:53:13Z</time>
      </trkpt>
      <trkpt lat="43.55545" lon="5.9232">
        <ele>408</ele>
        <time>2018-03-04T10:53:33Z</time>
      </trkpt>
      <trkpt lat="43.55553" lon="5.92298">
        <ele>408</ele>
        <time>2018-03-04T10:53:51Z</time>
      </trkpt>
      <trkpt lat="43.55568" lon="5.92282">
        <ele>408</ele>
        <time>2018-03-04T10:54:06Z</time>
      </trkpt>
      <trkpt lat="43.55587" lon="5.92273">
        <ele>407</ele>
        <time>2018-03-04T10:54:26Z</time>
      </trkpt>
      <trkpt lat="43.55604" lon="5.92264">
        <ele>407</ele>
        <time>2018-03-04T10:55:42Z</time>
      </trkpt>
      <trkpt lat="43.55621" lon="5.92257">
        <ele>407</ele>
        <time>2018-03-04T10:56:10Z</time>
      </trkpt>
      <trkpt lat="43.55639" lon="5.92261">
        <ele>408</ele>
        <time>2018-03-04T10:56:34Z</time>
      </trkpt>
      <trkpt lat="43.55652" lon="5.9228">
        <ele>408</ele>
        <time>2018-03-04T10:56:57Z</time>
      </trkpt>
      <trkpt lat="43.55661" lon="5.92302">
        <ele>408</ele>
        <time>2018-03-04T10:57:15Z</time>
      </trkpt>
      <trkpt lat="43.5567" lon="5.92324">
        <ele>409</ele>
        <time>2018-03-04T10:57:33Z</time>
      </trkpt>
      <trkpt lat="43.55685" lon="5.92338">
        <ele>413</ele>
        <time>2018-03-04T10:57:53Z</time>
      </trkpt>
      <trkpt lat="43.55704" lon="5.92332">
        <ele>410</ele>
        <time>2018-03-04T10:58:12Z</time>
      </trkpt>
      <trkpt lat="43.5572" lon="5.92319">
        <ele>410</ele>
        <time>2018-03-04T10:58:33Z</time>
      </trkpt>
      <trkpt lat="43.55733" lon="5.923">
        <ele>410</ele>
        <time>2018-03-04T11:01:15Z</time>
      </trkpt>
      <trkpt lat="43.55739" lon="5.92276">
        <ele>410</ele>
        <time>2018-03-04T11:01:36Z</time>
      </trkpt>
      <trkpt lat="43.55738" lon="5.92251">
        <ele>409</ele>
        <time>2018-03-04T11:01:54Z</time>
      </trkpt>
      <trkpt lat="43.55736" lon="5.92226">
        <ele>410</ele>
        <time>2018-03-04T11:02:17Z</time>
      </trkpt>
      <trkpt lat="43.55734" lon="5.92201">
        <ele>411</ele>
        <time>2018-03-04T11:02:42Z</time>
      </trkpt>
      <trkpt lat="43.55735" lon="5.92175">
        <ele>411</ele>
        <time>2018-03-04T11:03:00Z</time>
      </trkpt>
      <trkpt lat="43.55738" lon="5.9215">
        <ele>414</ele>
        <time>2018-03-04T11:03:20Z</time>
      </trkpt>
      <trkpt lat="43.55743" lon="5.92125">
        <ele>416</ele>
        <time>2018-03-04T11:03:42Z</time>
      </trkpt>
      <trkpt lat="43.55755" lon="5.92105">
        <ele>416</ele>
        <time>2018-03-04T11:04:02Z</time>
      </trkpt>
      <trkpt lat="43.5577" lon="5.92092">
        <ele>416</ele>
        <time>2018-03-04T11:04:14Z</time>
      </trkpt>
      <trkpt lat="43.55789" lon="5.92089">
        <ele>416</ele>
        <time>2018-03-04T11:04:35Z</time>
      </trkpt>
      <trkpt lat="43.55808" lon="5.92089">
        <ele>415</ele>
        <time>2018-03-04T11:04:53Z</time>
      </trkpt>
      <trkpt lat="43.55826" lon="5.9209">
        <ele>414</ele>
        <time>2018-03-04T11:05:12Z</time>
      </trkpt>
      <trkpt lat="43.55844" lon="5.92083">
        <ele>414</ele>
        <time>2018-03-04T11:05:33Z</time>
      </trkpt>
      <trkpt lat="43.55859" lon="5.92066">
        <ele>416</ele>
        <time>2018-03-04T11:06:04Z</time>
      </trkpt>
      <trkpt lat="43.55872" lon="5.92047">
        <ele>417</ele>
        <time>2018-03-04T11:06:25Z</time>
      </trkpt>
      <trkpt lat="43.55877" lon="5.92022">
        <ele>417</ele>
        <time>2018-03-04T11:06:46Z</time>
      </trkpt>
      <trkpt lat="43.55886" lon="5.92">
        <ele>416</ele>
        <time>2018-03-04T11:07:05Z</time>
      </trkpt>
      <trkpt lat="43.55896" lon="5.91979">
        <ele>416</ele>
        <time>2018-03-04T11:07:25Z</time>
      </trkpt>
      <trkpt lat="43.55909" lon="5.9196">
        <ele>416</ele>
        <time>2018-03-04T11:07:41Z</time>
      </trkpt>
      <trkpt lat="43.55908" lon="5.91935">
        <ele>416</ele>
        <time>2018-03-04T11:08:02Z</time>
      </trkpt>
      <trkpt lat="43.55904" lon="5.9191">
        <ele>417</ele>
        <time>2018-03-04T11:08:31Z</time>
      </trkpt>
      <trkpt lat="43.55893" lon="5.9189">
        <ele>418</ele>
        <time>2018-03-04T11:08:52Z</time>
      </trkpt>
      <trkpt lat="43.55883" lon="5.91869">
        <ele>419</ele>
        <time>2018-03-04T11:09:16Z</time>
      </trkpt>
      <trkpt lat="43.55868" lon="5.91853">
        <ele>419</ele>
        <time>2018-03-04T11:09:35Z</time>
      </trkpt>
      <trkpt lat="43.55852" lon="5.91841">
        <ele>419</ele>
        <time>2018-03-04T11:09:56Z</time>
      </trkpt>
      <trkpt lat="43.55835" lon="5.91829">
        <ele>419</ele>
        <time>2018-03-04T11:10:12Z</time>
      </trkpt>
      <trkpt lat="43.55822" lon="5.91812">
        <ele>423</ele>
        <time>2018-03-04T11:10:31Z</time>
      </trkpt>
      <trkpt lat="43.55815" lon="5.91789">
        <ele>424</ele>
        <time>2018-03-04T11:10:54Z</time>
      </trkpt>
      <trkpt lat="43.55811" lon="5.91765">
        <ele>424</ele>
        <time>2018-03-04T11:11:12Z</time>
      </trkpt>
      <trkpt lat="43.55809" lon="5.91738">
        <ele>425</ele>
        <time>2018-03-04T11:11:34Z</time>
      </trkpt>
      <trkpt lat="43.55812" lon="5.91713">
        <ele>426</ele>
        <time>2018-03-04T11:11:54Z</time>
      </trkpt>
      <trkpt lat="43.55818" lon="5.91689">
        <ele>425</ele>
        <time>2018-03-04T11:12:13Z</time>
      </trkpt>
      <trkpt lat="43.55826" lon="5.91662">
        <ele>423</ele>
        <time>2018-03-04T11:15:20Z</time>
      </trkpt>
      <trkpt lat="43.55834" lon="5.9164">
        <ele>422</ele>
        <time>2018-03-04T11:15:40Z</time>
      </trkpt>
      <trkpt lat="43.55839" lon="5.91615">
        <ele>424</ele>
        <time>2018-03-04T11:15:58Z</time>
      </trkpt>
      <trkpt lat="43.55848" lon="5.91593">
        <ele>425</ele>
        <time>2018-03-04T11:16:19Z</time>
      </trkpt>
      <trkpt lat="43.55862" lon="5.91577">
        <ele>426</ele>
        <time>2018-03-04T11:16:45Z</time>
      </trkpt>
      <trkpt lat="43.5588" lon="5.91576">
        <ele>425</ele>
        <time>2018-03-04T11:17:02Z</time>
      </trkpt>
      <trkpt lat="43.55898" lon="5.91572">
        <ele>424</ele>
        <time>2018-03-04T11:17:21Z</time>
      </trkpt>
      <trkpt lat="43.55917" lon="5.91573">
        <ele>422</ele>
        <time>2018-03-04T11:17:37Z</time>
      </trkpt>
      <trkpt lat="43.55935" lon="5.91571">
        <ele>422</ele>
        <time>2018-03-04T11:17:55Z</time>
      </trkpt>
      <trkpt lat="43.55948" lon="5.91565">
        <ele>422</ele>
        <time>2018-03-04T11:25:52Z</time>
      </trkpt>
      <trkpt lat="43.5594" lon="5.9154">
        <ele>423</ele>
        <time>2018-03-04T11:26:02Z</time>
      </trkpt>
      <trkpt lat="43.55925" lon="5.91525">
        <ele>423</ele>
        <time>2018-03-04T11:26:22Z</time>
      </trkpt>
      <trkpt lat="43.5591" lon="5.9151">
        <ele>425</ele>
        <time>2018-03-04T11:26:39Z</time>
      </trkpt>
      <trkpt lat="43.55897" lon="5.91493">
        <ele>428</ele>
        <time>2018-03-04T11:27:09Z</time>
      </trkpt>
      <trkpt lat="43.55885" lon="5.91472">
        <ele>430</ele>
        <time>2018-03-04T11:27:24Z</time>
      </trkpt>
      <trkpt lat="43.55873" lon="5.91453">
        <ele>432</ele>
        <time>2018-03-04T11:27:39Z</time>
      </trkpt>
      <trkpt lat="43.55859" lon="5.91436">
        <ele>434</ele>
        <time>2018-03-04T11:27:54Z</time>
      </trkpt>
      <trkpt lat="43.55846" lon="5.91419">
        <ele>437</ele>
        <time>2018-03-04T11:28:07Z</time>
      </trkpt>
      <trkpt lat="43.55832" lon="5.91402">
        <ele>441</ele>
        <time>2018-03-04T11:28:19Z</time>
      </trkpt>
      <trkpt lat="43.55816" lon="5.91387">
        <ele>441</ele>
        <time>2018-03-04T11:28:28Z</time>
      </trkpt>
      <trkpt lat="43.55795" lon="5.91369">
        <ele>442</ele>
        <time>2018-03-04T11:29:26Z</time>
      </trkpt>
      <trkpt lat="43.5578" lon="5.91352">
        <ele>442</ele>
        <time>2018-03-04T11:29:42Z</time>
      </trkpt>
      <trkpt lat="43.55761" lon="5.91344">
        <ele>442</ele>
        <time>2018-03-04T11:29:52Z</time>
      </trkpt>
      <trkpt lat="43.55743" lon="5.91339">
        <ele>442</ele>
        <time>2018-03-04T11:30:01Z</time>
      </trkpt>
      <trkpt lat="43.55725" lon="5.91334">
        <ele>442</ele>
        <time>2018-03-04T11:30:08Z</time>
      </trkpt>
      <trkpt lat="43.55706" lon="5.91327">
        <ele>442</ele>
        <time>2018-03-04T11:30:16Z</time>
      </trkpt>
      <trkpt lat="43.55686" lon="5.91323">
        <ele>441</ele>
        <time>2018-03-04T11:30:24Z</time>
      </trkpt>
      <trkpt lat="43.55666" lon="5.91319">
        <ele>441</ele>
        <time>2018-03-04T11:30:32Z</time>
      </trkpt>
      <trkpt lat="43.55646" lon="5.91319">
        <ele>441</ele>
        <time>2018-03-04T11:30:41Z</time>
      </trkpt>
      <trkpt lat="43.55628" lon="5.91314">
        <ele>440</ele>
        <time>2018-03-04T11:30:48Z</time>
      </trkpt>
      <trkpt lat="43.55608" lon="5.91304">
        <ele>440</ele>
        <time>2018-03-04T11:30:55Z</time>
      </trkpt>
      <trkpt lat="43.55591" lon="5.91298">
        <ele>440</ele>
        <time>2018-03-04T11:31:02Z</time>
      </trkpt>
      <trkpt lat="43.55571" lon="5.91292">
        <ele>439</ele>
        <time>2018-03-04T11:31:42Z</time>
      </trkpt>
      <trkpt lat="43.55551" lon="5.91292">
        <ele>439</ele>
        <time>2018-03-04T11:31:49Z</time>
      </trkpt>
      <trkpt lat="43.55549" lon="5.91289">
        <ele>439</ele>
        <time>2018-03-04T11:32:16Z</time>
      </trkpt>
      <trkpt lat="43.55531" lon="5.91284">
        <ele>439</ele>
        <time>2018-03-04T11:32:26Z</time>
      </trkpt>
      <trkpt lat="43.55514" lon="5.91272">
        <ele>440</ele>
        <time>2018-03-04T11:32:47Z</time>
      </trkpt>
      <trkpt lat="43.55503" lon="5.91292">
        <ele>439</ele>
        <time>2018-03-04T11:32:56Z</time>
      </trkpt>
      <trkpt lat="43.55485" lon="5.91283">
        <ele>438</ele>
        <time>2018-03-04T11:34:35Z</time>
      </trkpt>
      <trkpt lat="43.55468" lon="5.91269">
        <ele>438</ele>
        <time>2018-03-04T11:34:45Z</time>
      </trkpt>
      <trkpt lat="43.55452" lon="5.91256">
        <ele>437</ele>
        <time>2018-03-04T11:34:56Z</time>
      </trkpt>
      <trkpt lat="43.55441" lon="5.91236">
        <ele>436</ele>
        <time>2018-03-04T11:35:07Z</time>
      </trkpt>
      <trkpt lat="43.55447" lon="5.91211">
        <ele>436</ele>
        <time>2018-03-04T11:35:19Z</time>
      </trkpt>
      <trkpt lat="43.55458" lon="5.91189">
        <ele>436</ele>
        <time>2018-03-04T11:35:27Z</time>
      </trkpt>
      <trkpt lat="43.55473" lon="5.91168">
        <ele>436</ele>
        <time>2018-03-04T11:35:32Z</time>
      </trkpt>
      <trkpt lat="43.55487" lon="5.91147">
        <ele>436</ele>
        <time>2018-03-04T11:35:37Z</time>
      </trkpt>
      <trkpt lat="43.555" lon="5.91128">
        <ele>435</ele>
        <time>2018-03-04T11:35:43Z</time>
      </trkpt>
      <trkpt lat="43.55512" lon="5.91106">
        <ele>437</ele>
        <time>2018-03-04T11:35:49Z</time>
      </trkpt>
      <trkpt lat="43.5552" lon="5.9108">
        <ele>436</ele>
        <time>2018-03-04T11:35:57Z</time>
      </trkpt>
      <trkpt lat="43.55534" lon="5.91061">
        <ele>436</ele>
        <time>2018-03-04T11:36:04Z</time>
      </trkpt>
      <trkpt lat="43.55547" lon="5.91042">
        <ele>436</ele>
        <time>2018-03-04T11:36:12Z</time>
      </trkpt>
      <trkpt lat="43.55555" lon="5.91017">
        <ele>436</ele>
        <time>2018-03-04T11:36:21Z</time>
      </trkpt>
      <trkpt lat="43.55555" lon="5.90991">
        <ele>436</ele>
        <time>2018-03-04T11:38:17Z</time>
      </trkpt>
      <trkpt lat="43.55538" lon="5.90981">
        <ele>435</ele>
        <time>2018-03-04T11:38:24Z</time>
      </trkpt>
      <trkpt lat="43.5552" lon="5.90968">
        <ele>435</ele>
        <time>2018-03-04T11:38:30Z</time>
      </trkpt>
      <trkpt lat="43.55502" lon="5.90956">
        <ele>435</ele>
        <time>2018-03-04T11:38:35Z</time>
      </trkpt>
      <trkpt lat="43.55481" lon="5.90955">
        <ele>436</ele>
        <time>2018-03-04T11:38:41Z</time>
      </trkpt>
      <trkpt lat="43.55465" lon="5.90942">
        <ele>436</ele>
        <time>2018-03-04T11:38:47Z</time>
      </trkpt>
      <trkpt lat="43.55454" lon="5.90919">
        <ele>437</ele>
        <time>2018-03-04T11:38:53Z</time>
      </trkpt>
      <trkpt lat="43.55439" lon="5.90905">
        <ele>438</ele>
        <time>2018-03-04T11:38:59Z</time>
      </trkpt>
      <trkpt lat="43.55419" lon="5.90898">
        <ele>439</ele>
        <time>2018-03-04T11:39:06Z</time>
      </trkpt>
      <trkpt lat="43.55408" lon="5.90877">
        <ele>440</ele>
        <time>2018-03-04T11:39:12Z</time>
      </trkpt>
      <trkpt lat="43.55406" lon="5.90848">
        <ele>439</ele>
        <time>2018-03-04T11:39:18Z</time>
      </trkpt>
      <trkpt lat="43.55402" lon="5.90819">
        <ele>437</ele>
        <time>2018-03-04T11:39:24Z</time>
      </trkpt>
      <trkpt lat="43.55394" lon="5.90793">
        <ele>436</ele>
        <time>2018-03-04T11:39:30Z</time>
      </trkpt>
      <trkpt lat="43.55387" lon="5.90766">
        <ele>435</ele>
        <time>2018-03-04T11:39:35Z</time>
      </trkpt>
      <trkpt lat="43.55383" lon="5.90741">
        <ele>432</ele>
        <time>2018-03-04T11:39:39Z</time>
      </trkpt>
      <trkpt lat="43.55377" lon="5.90713">
        <ele>431</ele>
        <time>2018-03-04T11:39:43Z</time>
      </trkpt>
      <trkpt lat="43.55366" lon="5.90688">
        <ele>431</ele>
        <time>2018-03-04T11:39:47Z</time>
      </trkpt>
      <trkpt lat="43.55368" lon="5.90661">
        <ele>428</ele>
        <time>2018-03-04T11:39:51Z</time>
      </trkpt>
      <trkpt lat="43.55374" lon="5.90637">
        <ele>428</ele>
        <time>2018-03-04T11:39:58Z</time>
      </trkpt>
      <trkpt lat="43.55362" lon="5.90616">
        <ele>428</ele>
        <time>2018-03-04T11:40:06Z</time>
      </trkpt>
      <trkpt lat="43.55343" lon="5.90609">
        <ele>427</ele>
        <time>2018-03-04T11:40:13Z</time>
      </trkpt>
      <trkpt lat="43.55327" lon="5.90594">
        <ele>427</ele>
        <time>2018-03-04T11:40:18Z</time>
      </trkpt>
      <trkpt lat="43.55314" lon="5.90573">
        <ele>426</ele>
        <time>2018-03-04T11:40:23Z</time>
      </trkpt>
      <trkpt lat="43.553" lon="5.90551">
        <ele>426</ele>
        <time>2018-03-04T11:40:29Z</time>
      </trkpt>
      <trkpt lat="43.55284" lon="5.90536">
        <ele>427</ele>
        <time>2018-03-04T11:40:34Z</time>
      </trkpt>
      <trkpt lat="43.55267" lon="5.90524">
        <ele>426</ele>
        <time>2018-03-04T11:40:39Z</time>
      </trkpt>
      <trkpt lat="43.55247" lon="5.90518">
        <ele>427</ele>
        <time>2018-03-04T11:40:44Z</time>
      </trkpt>
      <trkpt lat="43.55228" lon="5.90513">
        <ele>427</ele>
        <time>2018-03-04T11:40:49Z</time>
      </trkpt>
      <trkpt lat="43.55209" lon="5.90505">
        <ele>427</ele>
        <time>2018-03-04T11:40:54Z</time>
      </trkpt>
      <trkpt lat="43.5519" lon="5.90496">
        <ele>426</ele>
        <time>2018-03-04T11:40:59Z</time>
      </trkpt>
      <trkpt lat="43.55176" lon="5.90479">
        <ele>426</ele>
        <time>2018-03-04T11:41:09Z</time>
      </trkpt>
      <trkpt lat="43.55162" lon="5.90462">
        <ele>425</ele>
        <time>2018-03-04T11:41:18Z</time>
      </trkpt>
      <trkpt lat="43.55148" lon="5.90442">
        <ele>424</ele>
        <time>2018-03-04T11:41:26Z</time>
      </trkpt>
      <trkpt lat="43.55134" lon="5.90422">
        <ele>424</ele>
        <time>2018-03-04T11:41:33Z</time>
      </trkpt>
      <trkpt lat="43.55117" lon="5.90405">
        <ele>422</ele>
        <time>2018-03-04T11:41:40Z</time>
      </trkpt>
      <trkpt lat="43.55102" lon="5.90391">
        <ele>422</ele>
        <time>2018-03-04T11:41:45Z</time>
      </trkpt>
      <trkpt lat="43.55085" lon="5.90375">
        <ele>422</ele>
        <time>2018-03-04T11:41:51Z</time>
      </trkpt>
      <trkpt lat="43.55064" lon="5.90372">
        <ele>420</ele>
        <time>2018-03-04T11:41:59Z</time>
      </trkpt>
      <trkpt lat="43.55045" lon="5.90373">
        <ele>420</ele>
        <time>2018-03-04T11:42:07Z</time>
      </trkpt>
      <trkpt lat="43.55037" lon="5.90362">
        <ele>421</ele>
        <time>2018-03-04T11:46:01Z</time>
      </trkpt>
      <trkpt lat="43.55034" lon="5.90337">
        <ele>421</ele>
        <time>2018-03-04T11:46:09Z</time>
      </trkpt>
      <trkpt lat="43.55042" lon="5.90311">
        <ele>420</ele>
        <time>2018-03-04T11:46:17Z</time>
      </trkpt>
      <trkpt lat="43.55047" lon="5.90284">
        <ele>420</ele>
        <time>2018-03-04T11:46:25Z</time>
      </trkpt>
      <trkpt lat="43.55054" lon="5.90259">
        <ele>420</ele>
        <time>2018-03-04T11:46:33Z</time>
      </trkpt>
      <trkpt lat="43.55056" lon="5.90232">
        <ele>421</ele>
        <time>2018-03-04T11:46:42Z</time>
      </trkpt>
      <trkpt lat="43.55057" lon="5.90205">
        <ele>421</ele>
        <time>2018-03-04T11:46:52Z</time>
      </trkpt>
      <trkpt lat="43.55064" lon="5.9018">
        <ele>421</ele>
        <time>2018-03-04T11:47:02Z</time>
      </trkpt>
      <trkpt lat="43.55077" lon="5.90161">
        <ele>421</ele>
        <time>2018-03-04T11:47:11Z</time>
      </trkpt>
      <trkpt lat="43.55087" lon="5.90139">
        <ele>424</ele>
        <time>2018-03-04T11:47:20Z</time>
      </trkpt>
      <trkpt lat="43.55098" lon="5.90116">
        <ele>425</ele>
        <time>2018-03-04T11:47:29Z</time>
      </trkpt>
      <trkpt lat="43.55083" lon="5.901">
        <ele>423</ele>
        <time>2018-03-04T11:47:46Z</time>
      </trkpt>
      <trkpt lat="43.55071" lon="5.90081">
        <ele>424</ele>
        <time>2018-03-04T11:47:52Z</time>
      </trkpt>
      <trkpt lat="43.55051" lon="5.90071">
        <ele>423</ele>
        <time>2018-03-04T11:47:58Z</time>
      </trkpt>
      <trkpt lat="43.55032" lon="5.90075">
        <ele>422</ele>
        <time>2018-03-04T11:48:03Z</time>
      </trkpt>
      <trkpt lat="43.55012" lon="5.90074">
        <ele>422</ele>
        <time>2018-03-04T11:48:09Z</time>
      </trkpt>
      <trkpt lat="43.54995" lon="5.90069">
        <ele>421</ele>
        <time>2018-03-04T11:48:14Z</time>
      </trkpt>
      <trkpt lat="43.54977" lon="5.90053">
        <ele>421</ele>
        <time>2018-03-04T11:48:20Z</time>
      </trkpt>
      <trkpt lat="43.54959" lon="5.90045">
        <ele>422</ele>
        <time>2018-03-04T11:48:27Z</time>
      </trkpt>
      <trkpt lat="43.5494" lon="5.90033">
        <ele>422</ele>
        <time>2018-03-04T11:48:34Z</time>
      </trkpt>
      <trkpt lat="43.54924" lon="5.90015">
        <ele>422</ele>
        <time>2018-03-04T11:48:40Z</time>
      </trkpt>
      <trkpt lat="43.54911" lon="5.89995">
        <ele>422</ele>
        <time>2018-03-04T11:48:46Z</time>
      </trkpt>
      <trkpt lat="43.54896" lon="5.89981">
        <ele>421</ele>
        <time>2018-03-04T11:48:52Z</time>
      </trkpt>
      <trkpt lat="43.54876" lon="5.89979">
        <ele>420</ele>
        <time>2018-03-04T11:48:58Z</time>
      </trkpt>
      <trkpt lat="43.54856" lon="5.89985">
        <ele>419</ele>
        <time>2018-03-04T11:49:03Z</time>
      </trkpt>
      <trkpt lat="43.54835" lon="5.89987">
        <ele>417</ele>
        <time>2018-03-04T11:49:07Z</time>
      </trkpt>
      <trkpt lat="43.54812" lon="5.89991">
        <ele>414</ele>
        <time>2018-03-04T11:49:11Z</time>
      </trkpt>
      <trkpt lat="43.54794" lon="5.89995">
        <ele>413</ele>
        <time>2018-03-04T11:49:14Z</time>
      </trkpt>
      <trkpt lat="43.54776" lon="5.90002">
        <ele>411</ele>
        <time>2018-03-04T11:49:17Z</time>
      </trkpt>
      <trkpt lat="43.54758" lon="5.90002">
        <ele>410</ele>
        <time>2018-03-04T11:49:20Z</time>
      </trkpt>
      <trkpt lat="43.54738" lon="5.90006">
        <ele>412</ele>
        <time>2018-03-04T11:49:24Z</time>
      </trkpt>
      <trkpt lat="43.54721" lon="5.89996">
        <ele>410</ele>
        <time>2018-03-04T11:49:30Z</time>
      </trkpt>
      <trkpt lat="43.54715" lon="5.8997">
        <ele>410</ele>
        <time>2018-03-04T11:49:35Z</time>
      </trkpt>
      <trkpt lat="43.54713" lon="5.89944">
        <ele>410</ele>
        <time>2018-03-04T11:49:40Z</time>
      </trkpt>
      <trkpt lat="43.54709" lon="5.89918">
        <ele>409</ele>
        <time>2018-03-04T11:49:47Z</time>
      </trkpt>
      <trkpt lat="43.54691" lon="5.8991">
        <ele>408</ele>
        <time>2018-03-04T11:49:53Z</time>
      </trkpt>
      <trkpt lat="43.54682" lon="5.89884">
        <ele>407</ele>
        <time>2018-03-04T11:50:00Z</time>
      </trkpt>
      <trkpt lat="43.54678" lon="5.89856">
        <ele>407</ele>
        <time>2018-03-04T11:50:06Z</time>
      </trkpt>
      <trkpt lat="43.54664" lon="5.89834">
        <ele>406</ele>
        <time>2018-03-04T11:50:11Z</time>
      </trkpt>
      <trkpt lat="43.54651" lon="5.89814">
        <ele>407</ele>
        <time>2018-03-04T11:50:15Z</time>
      </trkpt>
      <trkpt lat="43.54644" lon="5.89788">
        <ele>407</ele>
        <time>2018-03-04T11:50:20Z</time>
      </trkpt>
      <trkpt lat="43.54646" lon="5.8976">
        <ele>406</ele>
        <time>2018-03-04T11:50:25Z</time>
      </trkpt>
      <trkpt lat="43.54649" lon="5.8973">
        <ele>404</ele>
        <time>2018-03-04T11:50:30Z</time>
      </trkpt>
      <trkpt lat="43.54653" lon="5.89705">
        <ele>404</ele>
        <time>2018-03-04T11:50:34Z</time>
      </trkpt>
      <trkpt lat="43.54655" lon="5.89676">
        <ele>403</ele>
        <time>2018-03-04T11:50:39Z</time>
      </trkpt>
      <trkpt lat="43.54646" lon="5.89652">
        <ele>404</ele>
        <time>2018-03-04T11:50:44Z</time>
      </trkpt>
      <trkpt lat="43.54629" lon="5.89638">
        <ele>405</ele>
        <time>2018-03-04T11:50:49Z</time>
      </trkpt>
      <trkpt lat="43.54608" lon="5.89633">
        <ele>405</ele>
        <time>2018-03-04T11:50:54Z</time>
      </trkpt>
      <trkpt lat="43.54589" lon="5.8964">
        <ele>405</ele>
        <time>2018-03-04T11:51:00Z</time>
      </trkpt>
      <trkpt lat="43.54571" lon="5.89651">
        <ele>405</ele>
        <time>2018-03-04T11:51:05Z</time>
      </trkpt>
      <trkpt lat="43.54554" lon="5.89664">
        <ele>405</ele>
        <time>2018-03-04T11:51:10Z</time>
      </trkpt>
      <trkpt lat="43.54535" lon="5.89676">
        <ele>405</ele>
        <time>2018-03-04T11:51:16Z</time>
      </trkpt>
      <trkpt lat="43.54518" lon="5.89689">
        <ele>405</ele>
        <time>2018-03-04T11:51:23Z</time>
      </trkpt>
      <trkpt lat="43.54501" lon="5.89702">
        <ele>405</ele>
        <time>2018-03-04T11:51:28Z</time>
      </trkpt>
      <trkpt lat="43.54487" lon="5.89717">
        <ele>402</ele>
        <time>2018-03-04T11:51:33Z</time>
      </trkpt>
      <trkpt lat="43.54474" lon="5.89736">
        <ele>401</ele>
        <time>2018-03-04T11:51:46Z</time>
      </trkpt>
      <trkpt lat="43.54456" lon="5.89734">
        <ele>401</ele>
        <time>2018-03-04T11:51:58Z</time>
      </trkpt>
      <trkpt lat="43.54436" lon="5.89729">
        <ele>400</ele>
        <time>2018-03-04T11:52:05Z</time>
      </trkpt>
      <trkpt lat="43.54418" lon="5.89727">
        <ele>400</ele>
        <time>2018-03-04T11:52:11Z</time>
      </trkpt>
      <trkpt lat="43.54399" lon="5.89722">
        <ele>399</ele>
        <time>2018-03-04T11:52:16Z</time>
      </trkpt>
      <trkpt lat="43.54383" lon="5.89709">
        <ele>400</ele>
        <time>2018-03-04T11:52:21Z</time>
      </trkpt>
      <trkpt lat="43.54372" lon="5.89685">
        <ele>400</ele>
        <time>2018-03-04T11:52:27Z</time>
      </trkpt>
      <trkpt lat="43.54377" lon="5.89661">
        <ele>398</ele>
        <time>2018-03-04T11:52:32Z</time>
      </trkpt>
      <trkpt lat="43.5439" lon="5.89637">
        <ele>398</ele>
        <time>2018-03-04T11:52:37Z</time>
      </trkpt>
      <trkpt lat="43.54401" lon="5.89616">
        <ele>398</ele>
        <time>2018-03-04T11:52:41Z</time>
      </trkpt>
      <trkpt lat="43.54412" lon="5.89596">
        <ele>396</ele>
        <time>2018-03-04T11:52:45Z</time>
      </trkpt>
      <trkpt lat="43.54421" lon="5.89572">
        <ele>397</ele>
        <time>2018-03-04T11:52:49Z</time>
      </trkpt>
      <trkpt lat="43.54427" lon="5.89548">
        <ele>399</ele>
        <time>2018-03-04T11:52:53Z</time>
      </trkpt>
      <trkpt lat="43.54435" lon="5.89523">
        <ele>399</ele>
        <time>2018-03-04T11:52:58Z</time>
      </trkpt>
      <trkpt lat="43.54434" lon="5.89497">
        <ele>396</ele>
        <time>2018-03-04T11:53:03Z</time>
      </trkpt>
      <trkpt lat="43.5443" lon="5.89468">
        <ele>397</ele>
        <time>2018-03-04T11:53:08Z</time>
      </trkpt>
      <trkpt lat="43.54421" lon="5.89444">
        <ele>395</ele>
        <time>2018-03-04T11:53:13Z</time>
      </trkpt>
      <trkpt lat="43.54411" lon="5.8942">
        <ele>389</ele>
        <time>2018-03-04T11:53:18Z</time>
      </trkpt>
      <trkpt lat="43.54412" lon="5.89393">
        <ele>388</ele>
        <time>2018-03-04T11:53:26Z</time>
      </trkpt>
      <trkpt lat="43.54419" lon="5.8937">
        <ele>393</ele>
        <time>2018-03-04T11:53:31Z</time>
      </trkpt>
      <trkpt lat="43.54404" lon="5.89354">
        <ele>389</ele>
        <time>2018-03-04T11:57:09Z</time>
      </trkpt>
      <trkpt lat="43.54385" lon="5.8936">
        <ele>388</ele>
        <time>2018-03-04T11:57:15Z</time>
      </trkpt>
      <trkpt lat="43.54366" lon="5.89359">
        <ele>388</ele>
        <time>2018-03-04T11:57:21Z</time>
      </trkpt>
      <trkpt lat="43.54347" lon="5.89359">
        <ele>388</ele>
        <time>2018-03-04T11:57:27Z</time>
      </trkpt>
      <trkpt lat="43.54329" lon="5.89356">
        <ele>386</ele>
        <time>2018-03-04T11:57:33Z</time>
      </trkpt>
      <trkpt lat="43.54311" lon="5.89352">
        <ele>386</ele>
        <time>2018-03-04T11:57:38Z</time>
      </trkpt>
      <trkpt lat="43.54291" lon="5.89346">
        <ele>386</ele>
        <time>2018-03-04T11:57:43Z</time>
      </trkpt>
      <trkpt lat="43.5427" lon="5.89344">
        <ele>385</ele>
        <time>2018-03-04T11:57:48Z</time>
      </trkpt>
      <trkpt lat="43.54251" lon="5.89345">
        <ele>385</ele>
        <time>2018-03-04T11:57:52Z</time>
      </trkpt>
      <trkpt lat="43.54231" lon="5.89337">
        <ele>385</ele>
        <time>2018-03-04T11:57:56Z</time>
      </trkpt>
      <trkpt lat="43.54211" lon="5.89328">
        <ele>390</ele>
        <time>2018-03-04T11:58:00Z</time>
      </trkpt>
      <trkpt lat="43.54188" lon="5.8932">
        <ele>390</ele>
        <time>2018-03-04T11:58:04Z</time>
      </trkpt>
      <trkpt lat="43.54167" lon="5.89317">
        <ele>389</ele>
        <time>2018-03-04T11:58:08Z</time>
      </trkpt>
      <trkpt lat="43.54148" lon="5.8932">
        <ele>389</ele>
        <time>2018-03-04T11:58:12Z</time>
      </trkpt>
      <trkpt lat="43.5413" lon="5.8933">
        <ele>389</ele>
        <time>2018-03-04T11:58:16Z</time>
      </trkpt>
      <trkpt lat="43.54111" lon="5.89341">
        <ele>385</ele>
        <time>2018-03-04T11:58:20Z</time>
      </trkpt>
      <trkpt lat="43.54091" lon="5.8935">
        <ele>385</ele>
        <time>2018-03-04T11:58:24Z</time>
      </trkpt>
      <trkpt lat="43.5407" lon="5.89358">
        <ele>383</ele>
        <time>2018-03-04T11:58:29Z</time>
      </trkpt>
      <trkpt lat="43.54052" lon="5.89359">
        <ele>383</ele>
        <time>2018-03-04T11:58:35Z</time>
      </trkpt>
      <trkpt lat="43.54031" lon="5.89352">
        <ele>383</ele>
        <time>2018-03-04T11:58:41Z</time>
      </trkpt>
      <trkpt lat="43.5401" lon="5.89344">
        <ele>382</ele>
        <time>2018-03-04T11:58:45Z</time>
      </trkpt>
      <trkpt lat="43.5399" lon="5.89338">
        <ele>382</ele>
        <time>2018-03-04T11:58:48Z</time>
      </trkpt>
      <trkpt lat="43.53969" lon="5.8933">
        <ele>381</ele>
        <time>2018-03-04T11:58:51Z</time>
      </trkpt>
      <trkpt lat="43.53951" lon="5.89316">
        <ele>381</ele>
        <time>2018-03-04T11:58:54Z</time>
      </trkpt>
      <trkpt lat="43.53929" lon="5.89305">
        <ele>381</ele>
        <time>2018-03-04T11:58:58Z</time>
      </trkpt>
      <trkpt lat="43.5391" lon="5.89303">
        <ele>380</ele>
        <time>2018-03-04T11:59:02Z</time>
      </trkpt>
      <trkpt lat="43.53888" lon="5.89305">
        <ele>380</ele>
        <time>2018-03-04T11:59:07Z</time>
      </trkpt>
      <trkpt lat="43.53865" lon="5.89302">
        <ele>380</ele>
        <time>2018-03-04T11:59:11Z</time>
      </trkpt>
      <trkpt lat="43.53846" lon="5.89302">
        <ele>380</ele>
        <time>2018-03-04T11:59:14Z</time>
      </trkpt>
      <trkpt lat="43.53828" lon="5.89313">
        <ele>380</ele>
        <time>2018-03-04T11:59:17Z</time>
      </trkpt>
      <trkpt lat="43.5381" lon="5.89324">
        <ele>380</ele>
        <time>2018-03-04T11:59:20Z</time>
      </trkpt>
      <trkpt lat="43.53792" lon="5.89333">
        <ele>379</ele>
        <time>2018-03-04T11:59:23Z</time>
      </trkpt>
      <trkpt lat="43.5377" lon="5.89343">
        <ele>380</ele>
        <time>2018-03-04T11:59:27Z</time>
      </trkpt>
      <trkpt lat="43.53749" lon="5.89354">
        <ele>379</ele>
        <time>2018-03-04T11:59:31Z</time>
      </trkpt>
      <trkpt lat="43.53729" lon="5.89365">
        <ele>379</ele>
        <time>2018-03-04T11:59:35Z</time>
      </trkpt>
      <trkpt lat="43.5371" lon="5.89369">
        <ele>379</ele>
        <time>2018-03-04T11:59:39Z</time>
      </trkpt>
      <trkpt lat="43.53691" lon="5.89378">
        <ele>379</ele>
        <time>2018-03-04T11:59:43Z</time>
      </trkpt>
      <trkpt lat="43.53671" lon="5.89389">
        <ele>379</ele>
        <time>2018-03-04T11:59:47Z</time>
      </trkpt>
      <trkpt lat="43.53652" lon="5.89397">
        <ele>377</ele>
        <time>2018-03-04T11:59:51Z</time>
      </trkpt>
      <trkpt lat="43.5363" lon="5.89401">
        <ele>376</ele>
        <time>2018-03-04T11:59:55Z</time>
      </trkpt>
      <trkpt lat="43.53611" lon="5.89394">
        <ele>376</ele>
        <time>2018-03-04T12:00:00Z</time>
      </trkpt>
      <trkpt lat="43.53594" lon="5.89385">
        <ele>376</ele>
        <time>2018-03-04T12:00:06Z</time>
      </trkpt>
      <trkpt lat="43.53576" lon="5.89375">
        <ele>378</ele>
        <time>2018-03-04T12:00:12Z</time>
      </trkpt>
      <trkpt lat="43.5356" lon="5.89364">
        <ele>378</ele>
        <time>2018-03-04T12:00:17Z</time>
      </trkpt>
      <trkpt lat="43.53539" lon="5.89363">
        <ele>379</ele>
        <time>2018-03-04T12:00:23Z</time>
      </trkpt>
      <trkpt lat="43.5352" lon="5.89365">
        <ele>380</ele>
        <time>2018-03-04T12:00:34Z</time>
      </trkpt>
      <trkpt lat="43.53501" lon="5.8937">
        <ele>380</ele>
        <time>2018-03-04T12:00:45Z</time>
      </trkpt>
      <trkpt lat="43.53484" lon="5.89381">
        <ele>383</ele>
        <time>2018-03-04T12:00:58Z</time>
      </trkpt>
      <trkpt lat="43.53468" lon="5.89395">
        <ele>383</ele>
        <time>2018-03-04T12:01:11Z</time>
      </trkpt>
      <trkpt lat="43.5345" lon="5.89406">
        <ele>384</ele>
        <time>2018-03-04T12:01:24Z</time>
      </trkpt>
      <trkpt lat="43.53435" lon="5.89392">
        <ele>385</ele>
        <time>2018-03-04T12:01:35Z</time>
      </trkpt>
      <trkpt lat="43.53421" lon="5.89375">
        <ele>385</ele>
        <time>2018-03-04T12:01:45Z</time>
      </trkpt>
      <trkpt lat="43.53406" lon="5.89359">
        <ele>386</ele>
        <time>2018-03-04T12:01:51Z</time>
      </trkpt>
      <trkpt lat="43.5339" lon="5.8934">
        <ele>386</ele>
        <time>2018-03-04T12:01:56Z</time>
      </trkpt>
      <trkpt lat="43.53376" lon="5.89322">
        <ele>388</ele>
        <time>2018-03-04T12:02:00Z</time>
      </trkpt>
      <trkpt lat="43.5336" lon="5.89302">
        <ele>388</ele>
        <time>2018-03-04T12:02:04Z</time>
      </trkpt>
      <trkpt lat="43.5334" lon="5.89296">
        <ele>388</ele>
        <time>2018-03-04T12:02:09Z</time>
      </trkpt>
      <trkpt lat="43.53322" lon="5.89305">
        <ele>388</ele>
        <time>2018-03-04T12:02:14Z</time>
      </trkpt>
      <trkpt lat="43.53303" lon="5.89318">
        <ele>388</ele>
        <time>2018-03-04T12:02:19Z</time>
      </trkpt>
      <trkpt lat="43.53286" lon="5.89326">
        <ele>388</ele>
        <time>2018-03-04T12:02:23Z</time>
      </trkpt>
      <trkpt lat="43.53268" lon="5.89336">
        <ele>384</ele>
        <time>2018-03-04T12:02:27Z</time>
      </trkpt>
      <trkpt lat="43.5325" lon="5.89344">
        <ele>384</ele>
        <time>2018-03-04T12:02:31Z</time>
      </trkpt>
      <trkpt lat="43.5323" lon="5.89353">
        <ele>385</ele>
        <time>2018-03-04T12:02:36Z</time>
      </trkpt>
      <trkpt lat="43.53212" lon="5.89357">
        <ele>386</ele>
        <time>2018-03-04T12:02:41Z</time>
      </trkpt>
      <trkpt lat="43.5319" lon="5.89357">
        <ele>387</ele>
        <time>2018-03-04T12:02:47Z</time>
      </trkpt>
      <trkpt lat="43.53172" lon="5.89356">
        <ele>388</ele>
        <time>2018-03-04T12:02:53Z</time>
      </trkpt>
      <trkpt lat="43.53152" lon="5.89353">
        <ele>390</ele>
        <time>2018-03-04T12:03:00Z</time>
      </trkpt>
      <trkpt lat="43.53134" lon="5.89359">
        <ele>390</ele>
        <time>2018-03-04T12:03:07Z</time>
      </trkpt>
      <trkpt lat="43.53117" lon="5.89373">
        <ele>390</ele>
        <time>2018-03-04T12:03:13Z</time>
      </trkpt>
      <trkpt lat="43.531" lon="5.89392">
        <ele>388</ele>
        <time>2018-03-04T12:03:19Z</time>
      </trkpt>
      <trkpt lat="43.53083" lon="5.89406">
        <ele>387</ele>
        <time>2018-03-04T12:03:23Z</time>
      </trkpt>
      <trkpt lat="43.53067" lon="5.89423">
        <ele>382</ele>
        <time>2018-03-04T12:03:27Z</time>
      </trkpt>
      <trkpt lat="43.53048" lon="5.89439">
        <ele>382</ele>
        <time>2018-03-04T12:03:32Z</time>
      </trkpt>
      <trkpt lat="43.53028" lon="5.89451">
        <ele>382</ele>
        <time>2018-03-04T12:03:37Z</time>
      </trkpt>
      <trkpt lat="43.53008" lon="5.89461">
        <ele>382</ele>
        <time>2018-03-04T12:03:42Z</time>
      </trkpt>
      <trkpt lat="43.52986" lon="5.89471">
        <ele>383</ele>
        <time>2018-03-04T12:03:47Z</time>
      </trkpt>
      <trkpt lat="43.52966" lon="5.89479">
        <ele>383</ele>
        <time>2018-03-04T12:03:53Z</time>
      </trkpt>
      <trkpt lat="43.52945" lon="5.89489">
        <ele>383</ele>
        <time>2018-03-04T12:03:58Z</time>
      </trkpt>
      <trkpt lat="43.52925" lon="5.89498">
        <ele>382</ele>
        <time>2018-03-04T12:04:02Z</time>
      </trkpt>
      <trkpt lat="43.52904" lon="5.89506">
        <ele>379</ele>
        <time>2018-03-04T12:04:06Z</time>
      </trkpt>
      <trkpt lat="43.52884" lon="5.89516">
        <ele>378</ele>
        <time>2018-03-04T12:04:10Z</time>
      </trkpt>
      <trkpt lat="43.52864" lon="5.89527">
        <ele>378</ele>
        <time>2018-03-04T12:04:14Z</time>
      </trkpt>
      <trkpt lat="43.52847" lon="5.89537">
        <ele>378</ele>
        <time>2018-03-04T12:04:17Z</time>
      </trkpt>
      <trkpt lat="43.5283" lon="5.89547">
        <ele>380</ele>
        <time>2018-03-04T12:04:21Z</time>
      </trkpt>
      <trkpt lat="43.52813" lon="5.89556">
        <ele>379</ele>
        <time>2018-03-04T12:04:26Z</time>
      </trkpt>
      <trkpt lat="43.52794" lon="5.89565">
        <ele>380</ele>
        <time>2018-03-04T12:04:30Z</time>
      </trkpt>
      <trkpt lat="43.52776" lon="5.8957">
        <ele>380</ele>
        <time>2018-03-04T12:04:34Z</time>
      </trkpt>
      <trkpt lat="43.52756" lon="5.8957">
        <ele>380</ele>
        <time>2018-03-04T12:04:39Z</time>
      </trkpt>
      <trkpt lat="43.52737" lon="5.8957">
        <ele>382</ele>
        <time>2018-03-04T12:04:45Z</time>
      </trkpt>
      <trkpt lat="43.52717" lon="5.89569">
        <ele>384</ele>
        <time>2018-03-04T12:04:52Z</time>
      </trkpt>
      <trkpt lat="43.52695" lon="5.89567">
        <ele>384</ele>
        <time>2018-03-04T12:04:59Z</time>
      </trkpt>
      <trkpt lat="43.52674" lon="5.89565">
        <ele>384</ele>
        <time>2018-03-04T12:05:05Z</time>
      </trkpt>
      <trkpt lat="43.52656" lon="5.89566">
        <ele>386</ele>
        <time>2018-03-04T12:05:10Z</time>
      </trkpt>
      <trkpt lat="43.52637" lon="5.89563">
        <ele>387</ele>
        <time>2018-03-04T12:05:15Z</time>
      </trkpt>
      <trkpt lat="43.52618" lon="5.89562">
        <ele>388</ele>
        <time>2018-03-04T12:05:21Z</time>
      </trkpt>
      <trkpt lat="43.52599" lon="5.89562">
        <ele>387</ele>
        <time>2018-03-04T12:05:27Z</time>
      </trkpt>
      <trkpt lat="43.52578" lon="5.89562">
        <ele>388</ele>
        <time>2018-03-04T12:05:32Z</time>
      </trkpt>
      <trkpt lat="43.52559" lon="5.89562">
        <ele>389</ele>
        <time>2018-03-04T12:05:37Z</time>
      </trkpt>
      <trkpt lat="43.52537" lon="5.89561">
        <ele>390</ele>
        <time>2018-03-04T12:05:43Z</time>
      </trkpt>
      <trkpt lat="43.52516" lon="5.89559">
        <ele>389</ele>
        <time>2018-03-04T12:05:48Z</time>
      </trkpt>
      <trkpt lat="43.52494" lon="5.8956">
        <ele>390</ele>
        <time>2018-03-04T12:05:53Z</time>
      </trkpt>
      <trkpt lat="43.52474" lon="5.8956">
        <ele>390</ele>
        <time>2018-03-04T12:05:59Z</time>
      </trkpt>
      <trkpt lat="43.52455" lon="5.8956">
        <ele>391</ele>
        <time>2018-03-04T12:06:03Z</time>
      </trkpt>
      <trkpt lat="43.52437" lon="5.8956">
        <ele>391</ele>
        <time>2018-03-04T12:06:09Z</time>
      </trkpt>
      <trkpt lat="43.52417" lon="5.89557">
        <ele>390</ele>
        <time>2018-03-04T12:06:19Z</time>
      </trkpt>
      <trkpt lat="43.52398" lon="5.89555">
        <ele>390</ele>
        <time>2018-03-04T12:06:26Z</time>
      </trkpt>
      <trkpt lat="43.52379" lon="5.89553">
        <ele>390</ele>
        <time>2018-03-04T12:06:32Z</time>
      </trkpt>
      <trkpt lat="43.5236" lon="5.89552">
        <ele>390</ele>
        <time>2018-03-04T12:06:38Z</time>
      </trkpt>
      <trkpt lat="43.52341" lon="5.89552">
        <ele>389</ele>
        <time>2018-03-04T12:06:46Z</time>
      </trkpt>
      <trkpt lat="43.52322" lon="5.89549">
        <ele>390</ele>
        <time>2018-03-04T12:06:55Z</time>
      </trkpt>
      <trkpt lat="43.52301" lon="5.89547">
        <ele>391</ele>
        <time>2018-03-04T12:07:03Z</time>
      </trkpt>
      <trkpt lat="43.52282" lon="5.89547">
        <ele>391</ele>
        <time>2018-03-04T12:07:09Z</time>
      </trkpt>
      <trkpt lat="43.52263" lon="5.89549">
        <ele>391</ele>
        <time>2018-03-04T12:07:14Z</time>
      </trkpt>
      <trkpt lat="43.52245" lon="5.89556">
        <ele>393</ele>
        <time>2018-03-04T12:07:21Z</time>
      </trkpt>
      <trkpt lat="43.52225" lon="5.89564">
        <ele>394</ele>
        <time>2018-03-04T12:07:29Z</time>
      </trkpt>
      <trkpt lat="43.52207" lon="5.89572">
        <ele>395</ele>
        <time>2018-03-04T12:07:35Z</time>
      </trkpt>
      <trkpt lat="43.5219" lon="5.89581">
        <ele>395</ele>
        <time>2018-03-04T12:07:42Z</time>
      </trkpt>
      <trkpt lat="43.52171" lon="5.89591">
        <ele>390</ele>
        <time>2018-03-04T12:07:49Z</time>
      </trkpt>
      <trkpt lat="43.52152" lon="5.896">
        <ele>391</ele>
        <time>2018-03-04T12:07:56Z</time>
      </trkpt>
      <trkpt lat="43.52132" lon="5.89607">
        <ele>390</ele>
        <time>2018-03-04T12:08:03Z</time>
      </trkpt>
      <trkpt lat="43.52113" lon="5.89615">
        <ele>390</ele>
        <time>2018-03-04T12:08:09Z</time>
      </trkpt>
      <trkpt lat="43.52095" lon="5.89623">
        <ele>390</ele>
        <time>2018-03-04T12:08:16Z</time>
      </trkpt>
      <trkpt lat="43.52076" lon="5.89634">
        <ele>391</ele>
        <time>2018-03-04T12:08:22Z</time>
      </trkpt>
      <trkpt lat="43.52058" lon="5.89641">
        <ele>391</ele>
        <time>2018-03-04T12:08:27Z</time>
      </trkpt>
      <trkpt lat="43.52039" lon="5.89646">
        <ele>391</ele>
        <time>2018-03-04T12:08:32Z</time>
      </trkpt>
      <trkpt lat="43.52019" lon="5.89652">
        <ele>391</ele>
        <time>2018-03-04T12:08:37Z</time>
      </trkpt>
      <trkpt lat="43.51998" lon="5.89659">
        <ele>390</ele>
        <time>2018-03-04T12:08:42Z</time>
      </trkpt>
      <trkpt lat="43.51977" lon="5.89668">
        <ele>388</ele>
        <time>2018-03-04T12:08:48Z</time>
      </trkpt>
      <trkpt lat="43.51958" lon="5.89675">
        <ele>388</ele>
        <time>2018-03-04T12:08:53Z</time>
      </trkpt>
      <trkpt lat="43.5194" lon="5.89684">
        <ele>388</ele>
        <time>2018-03-04T12:08:59Z</time>
      </trkpt>
      <trkpt lat="43.51919" lon="5.89691">
        <ele>388</ele>
        <time>2018-03-04T12:09:05Z</time>
      </trkpt>
      <trkpt lat="43.519" lon="5.89696">
        <ele>389</ele>
        <time>2018-03-04T12:09:10Z</time>
      </trkpt>
      <trkpt lat="43.51881" lon="5.89699">
        <ele>389</ele>
        <time>2018-03-04T12:09:18Z</time>
      </trkpt>
      <trkpt lat="43.51862" lon="5.89701">
        <ele>389</ele>
        <time>2018-03-04T12:09:36Z</time>
      </trkpt>
      <trkpt lat="43.51843" lon="5.89704">
        <ele>389</ele>
        <time>2018-03-04T12:09:45Z</time>
      </trkpt>
      <trkpt lat="43.51824" lon="5.89704">
        <ele>390</ele>
        <time>2018-03-04T12:09:52Z</time>
      </trkpt>
      <trkpt lat="43.51805" lon="5.89705">
        <ele>390</ele>
        <time>2018-03-04T12:09:59Z</time>
      </trkpt>
      <trkpt lat="43.51784" lon="5.89704">
        <ele>390</ele>
        <time>2018-03-04T12:10:06Z</time>
      </trkpt>
      <trkpt lat="43.51766" lon="5.897">
        <ele>390</ele>
        <time>2018-03-04T12:10:12Z</time>
      </trkpt>
      <trkpt lat="43.51748" lon="5.89693">
        <ele>392</ele>
        <time>2018-03-04T12:10:19Z</time>
      </trkpt>
      <trkpt lat="43.5173" lon="5.89684">
        <ele>392</ele>
        <time>2018-03-04T12:10:26Z</time>
      </trkpt>
      <trkpt lat="43.5171" lon="5.89678">
        <ele>392</ele>
        <time>2018-03-04T12:10:33Z</time>
      </trkpt>
      <trkpt lat="43.51691" lon="5.89675">
        <ele>392</ele>
        <time>2018-03-04T12:10:38Z</time>
      </trkpt>
      <trkpt lat="43.5167" lon="5.89671">
        <ele>393</ele>
        <time>2018-03-04T12:10:44Z</time>
      </trkpt>
      <trkpt lat="43.5165" lon="5.89666">
        <ele>394</ele>
        <time>2018-03-04T12:10:50Z</time>
      </trkpt>
      <trkpt lat="43.51632" lon="5.8966">
        <ele>394</ele>
        <time>2018-03-04T12:10:55Z</time>
      </trkpt>
      <trkpt lat="43.51614" lon="5.89656">
        <ele>394</ele>
        <time>2018-03-04T12:11:01Z</time>
      </trkpt>
      <trkpt lat="43.51596" lon="5.8965">
        <ele>394</ele>
        <time>2018-03-04T12:11:07Z</time>
      </trkpt>
      <trkpt lat="43.51592" lon="5.89623">
        <ele>395</ele>
        <time>2018-03-04T12:12:41Z</time>
      </trkpt>
      <trkpt lat="43.51591" lon="5.89597">
        <ele>395</ele>
        <time>2018-03-04T12:12:51Z</time>
      </trkpt>
      <trkpt lat="43.51577" lon="5.89576">
        <ele>396</ele>
        <time>2018-03-04T12:12:58Z</time>
      </trkpt>
      <trkpt lat="43.51564" lon="5.89558">
        <ele>398</ele>
        <time>2018-03-04T12:13:06Z</time>
      </trkpt>
      <trkpt lat="43.51548" lon="5.89544">
        <ele>399</ele>
        <time>2018-03-04T12:13:13Z</time>
      </trkpt>
      <trkpt lat="43.5153" lon="5.89536">
        <ele>399</ele>
        <time>2018-03-04T12:13:21Z</time>
      </trkpt>
      <trkpt lat="43.51511" lon="5.8953">
        <ele>400</ele>
        <time>2018-03-04T12:13:29Z</time>
      </trkpt>
      <trkpt lat="43.51494" lon="5.89518">
        <ele>402</ele>
        <time>2018-03-04T12:13:37Z</time>
      </trkpt>
      <trkpt lat="43.51476" lon="5.89512">
        <ele>402</ele>
        <time>2018-03-04T12:13:45Z</time>
      </trkpt>
      <trkpt lat="43.51457" lon="5.89506">
        <ele>402</ele>
        <time>2018-03-04T12:13:53Z</time>
      </trkpt>
      <trkpt lat="43.5144" lon="5.89496">
        <ele>406</ele>
        <time>2018-03-04T12:14:03Z</time>
      </trkpt>
      <trkpt lat="43.51423" lon="5.89485">
        <ele>406</ele>
        <time>2018-03-04T12:14:13Z</time>
      </trkpt>
      <trkpt lat="43.51409" lon="5.89469">
        <ele>409</ele>
        <time>2018-03-04T12:14:24Z</time>
      </trkpt>
      <trkpt lat="43.51392" lon="5.89457">
        <ele>410</ele>
        <time>2018-03-04T12:14:53Z</time>
      </trkpt>
      <trkpt lat="43.51375" lon="5.89445">
        <ele>410</ele>
        <time>2018-03-04T12:15:08Z</time>
      </trkpt>
      <trkpt lat="43.51356" lon="5.89441">
        <ele>411</ele>
        <time>2018-03-04T12:15:18Z</time>
      </trkpt>
      <trkpt lat="43.51337" lon="5.8944">
        <ele>411</ele>
        <time>2018-03-04T12:15:26Z</time>
      </trkpt>
      <trkpt lat="43.51319" lon="5.8944">
        <ele>412</ele>
        <time>2018-03-04T12:15:34Z</time>
      </trkpt>
      <trkpt lat="43.513" lon="5.89436">
        <ele>412</ele>
        <time>2018-03-04T12:15:41Z</time>
      </trkpt>
      <trkpt lat="43.51283" lon="5.89422">
        <ele>412</ele>
        <time>2018-03-04T12:15:47Z</time>
      </trkpt>
      <trkpt lat="43.5127" lon="5.89402">
        <ele>411</ele>
        <time>2018-03-04T12:15:57Z</time>
      </trkpt>
      <trkpt lat="43.51256" lon="5.89381">
        <ele>410</ele>
        <time>2018-03-04T12:16:06Z</time>
      </trkpt>
      <trkpt lat="43.51242" lon="5.89366">
        <ele>409</ele>
        <time>2018-03-04T12:16:12Z</time>
      </trkpt>
      <trkpt lat="43.51227" lon="5.8935">
        <ele>408</ele>
        <time>2018-03-04T12:16:17Z</time>
      </trkpt>
      <trkpt lat="43.51211" lon="5.8933">
        <ele>406</ele>
        <time>2018-03-04T12:16:22Z</time>
      </trkpt>
      <trkpt lat="43.51194" lon="5.89316">
        <ele>405</ele>
        <time>2018-03-04T12:16:26Z</time>
      </trkpt>
      <trkpt lat="43.51174" lon="5.89311">
        <ele>406</ele>
        <time>2018-03-04T12:16:30Z</time>
      </trkpt>
      <trkpt lat="43.51154" lon="5.8931">
        <ele>405</ele>
        <time>2018-03-04T12:16:34Z</time>
      </trkpt>
      <trkpt lat="43.51133" lon="5.89303">
        <ele>404</ele>
        <time>2018-03-04T12:16:39Z</time>
      </trkpt>
      <trkpt lat="43.51113" lon="5.89295">
        <ele>404</ele>
        <time>2018-03-04T12:16:44Z</time>
      </trkpt>
      <trkpt lat="43.51093" lon="5.8929">
        <ele>404</ele>
        <time>2018-03-04T12:16:50Z</time>
      </trkpt>
      <trkpt lat="43.51089" lon="5.89262">
        <ele>403</ele>
        <time>2018-03-04T12:16:58Z</time>
      </trkpt>
      <trkpt lat="43.51095" lon="5.89238">
        <ele>401</ele>
        <time>2018-03-04T12:17:04Z</time>
      </trkpt>
      <trkpt lat="43.51103" lon="5.89216">
        <ele>400</ele>
        <time>2018-03-04T12:17:10Z</time>
      </trkpt>
      <trkpt lat="43.51116" lon="5.89196">
        <ele>399</ele>
        <time>2018-03-04T12:17:16Z</time>
      </trkpt>
      <trkpt lat="43.5113" lon="5.89177">
        <ele>399</ele>
        <time>2018-03-04T12:17:21Z</time>
      </trkpt>
      <trkpt lat="43.51146" lon="5.89163">
        <ele>396</ele>
        <time>2018-03-04T12:17:26Z</time>
      </trkpt>
      <trkpt lat="43.51165" lon="5.89154">
        <ele>396</ele>
        <time>2018-03-04T12:17:31Z</time>
      </trkpt>
      <trkpt lat="43.51182" lon="5.89133">
        <ele>394</ele>
        <time>2018-03-04T12:17:36Z</time>
      </trkpt>
      <trkpt lat="43.51198" lon="5.89115">
        <ele>394</ele>
        <time>2018-03-04T12:17:41Z</time>
      </trkpt>
      <trkpt lat="43.51213" lon="5.89099">
        <ele>393</ele>
        <time>2018-03-04T12:17:45Z</time>
      </trkpt>
      <trkpt lat="43.51227" lon="5.89082">
        <ele>390</ele>
        <time>2018-03-04T12:17:50Z</time>
      </trkpt>
      <trkpt lat="43.51243" lon="5.89063">
        <ele>390</ele>
        <time>2018-03-04T12:17:55Z</time>
      </trkpt>
      <trkpt lat="43.51258" lon="5.89046">
        <ele>388</ele>
        <time>2018-03-04T12:17:59Z</time>
      </trkpt>
      <trkpt lat="43.51271" lon="5.89025">
        <ele>387</ele>
        <time>2018-03-04T12:18:02Z</time>
      </trkpt>
      <trkpt lat="43.51287" lon="5.89002">
        <ele>387</ele>
        <time>2018-03-04T12:18:06Z</time>
      </trkpt>
      <trkpt lat="43.513" lon="5.88983">
        <ele>382</ele>
        <time>2018-03-04T12:18:09Z</time>
      </trkpt>
      <trkpt lat="43.51311" lon="5.88958">
        <ele>380</ele>
        <time>2018-03-04T12:18:13Z</time>
      </trkpt>
      <trkpt lat="43.51319" lon="5.88933">
        <ele>378</ele>
        <time>2018-03-04T12:18:17Z</time>
      </trkpt>
      <trkpt lat="43.51324" lon="5.88904">
        <ele>373</ele>
        <time>2018-03-04T12:18:22Z</time>
      </trkpt>
      <trkpt lat="43.5133" lon="5.88877">
        <ele>371</ele>
        <time>2018-03-04T12:18:27Z</time>
      </trkpt>
      <trkpt lat="43.51326" lon="5.88849">
        <ele>369</ele>
        <time>2018-03-04T12:18:32Z</time>
      </trkpt>
      <trkpt lat="43.51315" lon="5.88829">
        <ele>365</ele>
        <time>2018-03-04T12:18:37Z</time>
      </trkpt>
      <trkpt lat="43.51295" lon="5.88823">
        <ele>366</ele>
        <time>2018-03-04T12:18:45Z</time>
      </trkpt>
      <trkpt lat="43.5129" lon="5.88797">
        <ele>365</ele>
        <time>2018-03-04T12:18:53Z</time>
      </trkpt>
      <trkpt lat="43.51286" lon="5.88771">
        <ele>364</ele>
        <time>2018-03-04T12:18:59Z</time>
      </trkpt>
      <trkpt lat="43.51272" lon="5.88752">
        <ele>362</ele>
        <time>2018-03-04T12:19:05Z</time>
      </trkpt>
      <trkpt lat="43.51256" lon="5.88738">
        <ele>361</ele>
        <time>2018-03-04T12:19:10Z</time>
      </trkpt>
      <trkpt lat="43.51238" lon="5.88722">
        <ele>360</ele>
        <time>2018-03-04T12:19:14Z</time>
      </trkpt>
      <trkpt lat="43.5122" lon="5.88719">
        <ele>360</ele>
        <time>2018-03-04T12:19:18Z</time>
      </trkpt>
      <trkpt lat="43.512" lon="5.88715">
        <ele>360</ele>
        <time>2018-03-04T12:19:22Z</time>
      </trkpt>
      <trkpt lat="43.51181" lon="5.88713">
        <ele>360</ele>
        <time>2018-03-04T12:19:26Z</time>
      </trkpt>
      <trkpt lat="43.51161" lon="5.88706">
        <ele>361</ele>
        <time>2018-03-04T12:19:30Z</time>
      </trkpt>
      <trkpt lat="43.51146" lon="5.88685">
        <ele>361</ele>
        <time>2018-03-04T12:19:34Z</time>
      </trkpt>
      <trkpt lat="43.51127" lon="5.88681">
        <ele>361</ele>
        <time>2018-03-04T12:19:38Z</time>
      </trkpt>
      <trkpt lat="43.51106" lon="5.88675">
        <ele>361</ele>
        <time>2018-03-04T12:19:42Z</time>
      </trkpt>
      <trkpt lat="43.51101" lon="5.88651">
        <ele>358</ele>
        <time>2018-03-04T12:19:46Z</time>
      </trkpt>
      <trkpt lat="43.51107" lon="5.88624">
        <ele>358</ele>
        <time>2018-03-04T12:19:50Z</time>
      </trkpt>
      <trkpt lat="43.51105" lon="5.88596">
        <ele>356</ele>
        <time>2018-03-04T12:19:54Z</time>
      </trkpt>
      <trkpt lat="43.51094" lon="5.88569">
        <ele>354</ele>
        <time>2018-03-04T12:19:58Z</time>
      </trkpt>
      <trkpt lat="43.51079" lon="5.88548">
        <ele>351</ele>
        <time>2018-03-04T12:20:02Z</time>
      </trkpt>
      <trkpt lat="43.51061" lon="5.88531">
        <ele>350</ele>
        <time>2018-03-04T12:20:06Z</time>
      </trkpt>
      <trkpt lat="43.51044" lon="5.88517">
        <ele>349</ele>
        <time>2018-03-04T12:20:10Z</time>
      </trkpt>
      <trkpt lat="43.51027" lon="5.88507">
        <ele>348</ele>
        <time>2018-03-04T12:20:14Z</time>
      </trkpt>
      <trkpt lat="43.51007" lon="5.88501">
        <ele>343</ele>
        <time>2018-03-04T12:20:19Z</time>
      </trkpt>
      <trkpt lat="43.50986" lon="5.88502">
        <ele>345</ele>
        <time>2018-03-04T12:20:23Z</time>
      </trkpt>
      <trkpt lat="43.50966" lon="5.88504">
        <ele>348</ele>
        <time>2018-03-04T12:20:27Z</time>
      </trkpt>
      <trkpt lat="43.50945" lon="5.88504">
        <ele>348</ele>
        <time>2018-03-04T12:20:31Z</time>
      </trkpt>
      <trkpt lat="43.50927" lon="5.88492">
        <ele>342</ele>
        <time>2018-03-04T12:20:35Z</time>
      </trkpt>
      <trkpt lat="43.50911" lon="5.88473">
        <ele>340</ele>
        <time>2018-03-04T12:20:39Z</time>
      </trkpt>
      <trkpt lat="43.50891" lon="5.88457">
        <ele>338</ele>
        <time>2018-03-04T12:20:43Z</time>
      </trkpt>
      <trkpt lat="43.50873" lon="5.88444">
        <ele>337</ele>
        <time>2018-03-04T12:20:47Z</time>
      </trkpt>
      <trkpt lat="43.50854" lon="5.88429">
        <ele>335</ele>
        <time>2018-03-04T12:20:51Z</time>
      </trkpt>
      <trkpt lat="43.50836" lon="5.88415">
        <ele>330</ele>
        <time>2018-03-04T12:20:55Z</time>
      </trkpt>
      <trkpt lat="43.50819" lon="5.88399">
        <ele>329</ele>
        <time>2018-03-04T12:20:59Z</time>
      </trkpt>
      <trkpt lat="43.50819" lon="5.8837">
        <ele>329</ele>
        <time>2018-03-04T12:21:03Z</time>
      </trkpt>
      <trkpt lat="43.50826" lon="5.88342">
        <ele>330</ele>
        <time>2018-03-04T12:21:07Z</time>
      </trkpt>
      <trkpt lat="43.50818" lon="5.88314">
        <ele>334</ele>
        <time>2018-03-04T12:21:11Z</time>
      </trkpt>
      <trkpt lat="43.50799" lon="5.88299">
        <ele>335</ele>
        <time>2018-03-04T12:21:15Z</time>
      </trkpt>
      <trkpt lat="43.50778" lon="5.88298">
        <ele>334</ele>
        <time>2018-03-04T12:21:20Z</time>
      </trkpt>
      <trkpt lat="43.50757" lon="5.88309">
        <ele>332</ele>
        <time>2018-03-04T12:21:24Z</time>
      </trkpt>
      <trkpt lat="43.50741" lon="5.88328">
        <ele>330</ele>
        <time>2018-03-04T12:21:29Z</time>
      </trkpt>
      <trkpt lat="43.50728" lon="5.88351">
        <ele>328</ele>
        <time>2018-03-04T12:21:33Z</time>
      </trkpt>
      <trkpt lat="43.50713" lon="5.88373">
        <ele>328</ele>
        <time>2018-03-04T12:21:38Z</time>
      </trkpt>
      <trkpt lat="43.507" lon="5.88393">
        <ele>328</ele>
        <time>2018-03-04T12:21:43Z</time>
      </trkpt>
      <trkpt lat="43.50687" lon="5.88417">
        <ele>325</ele>
        <time>2018-03-04T12:21:48Z</time>
      </trkpt>
      <trkpt lat="43.50671" lon="5.8843">
        <ele>324</ele>
        <time>2018-03-04T12:21:51Z</time>
      </trkpt>
      <trkpt lat="43.50651" lon="5.88441">
        <ele>323</ele>
        <time>2018-03-04T12:21:55Z</time>
      </trkpt>
      <trkpt lat="43.5063" lon="5.88451">
        <ele>324</ele>
        <time>2018-03-04T12:21:59Z</time>
      </trkpt>
      <trkpt lat="43.50609" lon="5.88455">
        <ele>324</ele>
        <time>2018-03-04T12:22:03Z</time>
      </trkpt>
      <trkpt lat="43.5059" lon="5.88465">
        <ele>324</ele>
        <time>2018-03-04T12:22:07Z</time>
      </trkpt>
      <trkpt lat="43.50573" lon="5.88481">
        <ele>325</ele>
        <time>2018-03-04T12:22:11Z</time>
      </trkpt>
      <trkpt lat="43.50557" lon="5.88503">
        <ele>322</ele>
        <time>2018-03-04T12:22:15Z</time>
      </trkpt>
      <trkpt lat="43.50542" lon="5.88526">
        <ele>322</ele>
        <time>2018-03-04T12:22:19Z</time>
      </trkpt>
      <trkpt lat="43.50526" lon="5.88544">
        <ele>322</ele>
        <time>2018-03-04T12:22:23Z</time>
      </trkpt>
      <trkpt lat="43.50508" lon="5.88561">
        <ele>320</ele>
        <time>2018-03-04T12:22:27Z</time>
      </trkpt>
      <trkpt lat="43.50488" lon="5.88576">
        <ele>318</ele>
        <time>2018-03-04T12:22:31Z</time>
      </trkpt>
      <trkpt lat="43.50468" lon="5.88586">
        <ele>317</ele>
        <time>2018-03-04T12:22:35Z</time>
      </trkpt>
      <trkpt lat="43.50451" lon="5.88598">
        <ele>317</ele>
        <time>2018-03-04T12:22:39Z</time>
      </trkpt>
      <trkpt lat="43.50432" lon="5.88611">
        <ele>317</ele>
        <time>2018-03-04T12:22:43Z</time>
      </trkpt>
      <trkpt lat="43.50414" lon="5.88622">
        <ele>313</ele>
        <time>2018-03-04T12:22:47Z</time>
      </trkpt>
      <trkpt lat="43.50396" lon="5.88634">
        <ele>312</ele>
        <time>2018-03-04T12:22:51Z</time>
      </trkpt>
      <trkpt lat="43.5038" lon="5.88647">
        <ele>312</ele>
        <time>2018-03-04T12:22:55Z</time>
      </trkpt>
      <trkpt lat="43.50365" lon="5.88666">
        <ele>310</ele>
        <time>2018-03-04T12:23:00Z</time>
      </trkpt>
      <trkpt lat="43.50361" lon="5.88691">
        <ele>309</ele>
        <time>2018-03-04T12:23:06Z</time>
      </trkpt>
      <trkpt lat="43.50355" lon="5.88719">
        <ele>308</ele>
        <time>2018-03-04T12:30:38Z</time>
      </trkpt>
    </trkseg>
  </trk>
</gpx>